<?xml version="1.0" encoding="UTF-8" standalone="no" ?>
<gpx xmlns="http://www.topografix.com/GPX/1/1" xmlns:xsi="http://www.w3.org/2001/XMLSchema-instance" xsi:schemaLocation="http://www.topografix.com/GPX/1/1 http://www.topografix.com/GPX/1/1/gpx.xsd" version="1.1" creator="VisuGPX - https://www.visugpx.com">
  <metadata>
    <name>Autour du jardin aux Moines - Tréhorenteuc 21/04/2019</name>
  </metadata>
  <trk>
    <name><![CDATA[Autour du jardin aux Moines - Tréhorenteuc 21/04/2019]]></name>
    <extensions>
      <line xmlns="http://www.topografix.com/GPX/gpx_style/0/2">
        <color>0000FF</color>
        <width>4</width>
          <extensions>
            <sens>1</sens>
          </extensions>
      </line>
    </extensions>
    <trkseg>
      <trkpt lat="48.00781" lon="-2.28669">
        <ele>86.995413371415</ele>
        <time>2019-04-21T08:45:35Z</time>
      </trkpt>
      <trkpt lat="48.00789" lon="-2.28668">
        <ele>88.9953680381</ele>
        <time>2019-04-21T08:46:05Z</time>
      </trkpt>
      <trkpt lat="48.00798" lon="-2.2867">
        <ele>87.995316976765</ele>
        <time>2019-04-21T08:46:12Z</time>
      </trkpt>
      <trkpt lat="48.00805" lon="-2.28673">
        <ele>88.995267957944</ele>
        <time>2019-04-21T08:46:20Z</time>
      </trkpt>
      <trkpt lat="48.00812" lon="-2.28679">
        <ele>89.995218988771</ele>
        <time>2019-04-21T08:46:27Z</time>
      </trkpt>
      <trkpt lat="48.00819" lon="-2.28685">
        <ele>89.995170238025</ele>
        <time>2019-04-21T08:46:34Z</time>
      </trkpt>
      <trkpt lat="48.00826" lon="-2.28692">
        <ele>88.995119238819</ele>
        <time>2019-04-21T08:46:41Z</time>
      </trkpt>
      <trkpt lat="48.00833" lon="-2.28701">
        <ele>90.995069861137</ele>
        <time>2019-04-21T08:46:49Z</time>
      </trkpt>
      <trkpt lat="48.00839" lon="-2.28709">
        <ele>92.995021465765</ele>
        <time>2019-04-21T08:46:56Z</time>
      </trkpt>
      <trkpt lat="48.00845" lon="-2.28718">
        <ele>93.994973038986</ele>
        <time>2019-04-21T08:47:03Z</time>
      </trkpt>
      <trkpt lat="48.00851" lon="-2.28728">
        <ele>94.994926050839</ele>
        <time>2019-04-21T08:47:10Z</time>
      </trkpt>
      <trkpt lat="48.00857" lon="-2.28737">
        <ele>94.994877695556</ele>
        <time>2019-04-21T08:47:18Z</time>
      </trkpt>
      <trkpt lat="48.00865" lon="-2.28739">
        <ele>91.994824613113</ele>
        <time>2019-04-21T08:47:26Z</time>
      </trkpt>
      <trkpt lat="48.00873" lon="-2.28734">
        <ele>92.994784224026</ele>
        <time>2019-04-21T08:47:33Z</time>
      </trkpt>
      <trkpt lat="48.00882" lon="-2.28731">
        <ele>93.994737318659</ele>
        <time>2019-04-21T08:47:41Z</time>
      </trkpt>
      <trkpt lat="48.00889" lon="-2.28727">
        <ele>91.994697279002</ele>
        <time>2019-04-21T08:47:48Z</time>
      </trkpt>
      <trkpt lat="48.00898" lon="-2.28728">
        <ele>92.9946444898</ele>
        <time>2019-04-21T08:47:55Z</time>
      </trkpt>
      <trkpt lat="48.00905" lon="-2.28726">
        <ele>91.99460377813</ele>
        <time>2019-04-21T08:48:00Z</time>
      </trkpt>
      <trkpt lat="48.00913" lon="-2.28723">
        <ele>90.994560093179</ele>
        <time>2019-04-21T08:48:08Z</time>
      </trkpt>
      <trkpt lat="48.00922" lon="-2.28719">
        <ele>89.994517080298</ele>
        <time>2019-04-21T08:48:16Z</time>
      </trkpt>
      <trkpt lat="48.00929" lon="-2.28715">
        <ele>90.994476865334</ele>
        <time>2019-04-21T08:48:23Z</time>
      </trkpt>
      <trkpt lat="48.00937" lon="-2.28713">
        <ele>87.994430291692</ele>
        <time>2019-04-21T08:48:32Z</time>
      </trkpt>
      <trkpt lat="48.00946" lon="-2.2871">
        <ele>87.994384276519</ele>
        <time>2019-04-21T08:48:41Z</time>
      </trkpt>
      <trkpt lat="48.00955" lon="-2.28707">
        <ele>88.994336325045</ele>
        <time>2019-04-21T08:48:47Z</time>
      </trkpt>
      <trkpt lat="48.00962" lon="-2.28703">
        <ele>88.99429806533</ele>
        <time>2019-04-21T08:48:53Z</time>
      </trkpt>
      <trkpt lat="48.00971" lon="-2.28698">
        <ele>89.994257368943</ele>
        <time>2019-04-21T08:49:00Z</time>
      </trkpt>
      <trkpt lat="48.00979" lon="-2.28697">
        <ele>90.994207330359</ele>
        <time>2019-04-21T08:49:23Z</time>
      </trkpt>
      <trkpt lat="48.00987" lon="-2.28696">
        <ele>91.994162463381</ele>
        <time>2019-04-21T08:49:30Z</time>
      </trkpt>
      <trkpt lat="48.00996" lon="-2.28696">
        <ele>93.99410980299</ele>
        <time>2019-04-21T08:49:38Z</time>
      </trkpt>
      <trkpt lat="48.01005" lon="-2.28696">
        <ele>94.994060141517</ele>
        <time>2019-04-21T08:49:45Z</time>
      </trkpt>
      <trkpt lat="48.01012" lon="-2.28694">
        <ele>93.994018397121</ele>
        <time>2019-04-21T08:49:51Z</time>
      </trkpt>
      <trkpt lat="48.01021" lon="-2.28692">
        <ele>95.993970097086</ele>
        <time>2019-04-21T08:49:58Z</time>
      </trkpt>
      <trkpt lat="48.01029" lon="-2.2869">
        <ele>95.993926413033</ele>
        <time>2019-04-21T08:50:05Z</time>
      </trkpt>
      <trkpt lat="48.01037" lon="-2.28688">
        <ele>95.993880445214</ele>
        <time>2019-04-21T08:50:12Z</time>
      </trkpt>
      <trkpt lat="48.01045" lon="-2.28684">
        <ele>95.993842798238</ele>
        <time>2019-04-21T08:50:18Z</time>
      </trkpt>
      <trkpt lat="48.01052" lon="-2.28679">
        <ele>96.993808329588</ele>
        <time>2019-04-21T08:50:24Z</time>
      </trkpt>
      <trkpt lat="48.01059" lon="-2.28672">
        <ele>96.993781356263</ele>
        <time>2019-04-21T08:50:33Z</time>
      </trkpt>
      <trkpt lat="48.01065" lon="-2.28662">
        <ele>99.993759907572</ele>
        <time>2019-04-21T08:50:44Z</time>
      </trkpt>
      <trkpt lat="48.01071" lon="-2.28654">
        <ele>99.993737606667</ele>
        <time>2019-04-21T08:50:51Z</time>
      </trkpt>
      <trkpt lat="48.01078" lon="-2.28646">
        <ele>102.99371045039</ele>
        <time>2019-04-21T08:51:02Z</time>
      </trkpt>
      <trkpt lat="48.01084" lon="-2.28638">
        <ele>103.99369128344</ele>
        <time>2019-04-21T08:51:10Z</time>
      </trkpt>
      <trkpt lat="48.01087" lon="-2.28625">
        <ele>105.9936960357</ele>
        <time>2019-04-21T08:51:34Z</time>
      </trkpt>
      <trkpt lat="48.01092" lon="-2.28615">
        <ele>107.9936863347</ele>
        <time>2019-04-21T08:51:42Z</time>
      </trkpt>
      <trkpt lat="48.01095" lon="-2.28604">
        <ele>106.99368314342</ele>
        <time>2019-04-21T08:51:50Z</time>
      </trkpt>
      <trkpt lat="48.011" lon="-2.28594">
        <ele>108.99367719816</ele>
        <time>2019-04-21T08:51:57Z</time>
      </trkpt>
      <trkpt lat="48.01105" lon="-2.28583">
        <ele>108.9936665746</ele>
        <time>2019-04-21T08:52:05Z</time>
      </trkpt>
      <trkpt lat="48.01108" lon="-2.28571">
        <ele>110.99366814021</ele>
        <time>2019-04-21T08:52:13Z</time>
      </trkpt>
      <trkpt lat="48.01112" lon="-2.28562">
        <ele>111.99366345454</ele>
        <time>2019-04-21T08:52:21Z</time>
      </trkpt>
      <trkpt lat="48.01116" lon="-2.28551">
        <ele>112.99365715547</ele>
        <time>2019-04-21T08:52:29Z</time>
      </trkpt>
      <trkpt lat="48.0112" lon="-2.2854">
        <ele>111.9936547357</ele>
        <time>2019-04-21T08:52:37Z</time>
      </trkpt>
      <trkpt lat="48.01124" lon="-2.28529">
        <ele>113.99365200637</ele>
        <time>2019-04-21T08:52:45Z</time>
      </trkpt>
      <trkpt lat="48.0113" lon="-2.28518">
        <ele>113.99363990785</ele>
        <time>2019-04-21T08:52:55Z</time>
      </trkpt>
      <trkpt lat="48.01138" lon="-2.28517">
        <ele>112.99359751772</ele>
        <time>2019-04-21T08:53:03Z</time>
      </trkpt>
      <trkpt lat="48.01147" lon="-2.28517">
        <ele>113.99354697311</ele>
        <time>2019-04-21T08:53:12Z</time>
      </trkpt>
      <trkpt lat="48.01155" lon="-2.28517">
        <ele>113.99350164041</ele>
        <time>2019-04-21T08:53:19Z</time>
      </trkpt>
      <trkpt lat="48.01163" lon="-2.28519">
        <ele>114.99345306741</ele>
        <time>2019-04-21T08:53:27Z</time>
      </trkpt>
      <trkpt lat="48.01171" lon="-2.28519">
        <ele>115.99340528057</ele>
        <time>2019-04-21T08:53:34Z</time>
      </trkpt>
      <trkpt lat="48.0118" lon="-2.2852">
        <ele>116.99335565669</ele>
        <time>2019-04-21T08:53:42Z</time>
      </trkpt>
      <trkpt lat="48.01188" lon="-2.2852">
        <ele>118.99330765813</ele>
        <time>2019-04-21T08:53:50Z</time>
      </trkpt>
      <trkpt lat="48.01196" lon="-2.28519">
        <ele>118.99326373176</ele>
        <time>2019-04-21T08:54:01Z</time>
      </trkpt>
      <trkpt lat="48.01205" lon="-2.28521">
        <ele>119.99321354282</ele>
        <time>2019-04-21T08:54:08Z</time>
      </trkpt>
      <trkpt lat="48.01213" lon="-2.28521">
        <ele>120.99316850959</ele>
        <time>2019-04-21T08:54:15Z</time>
      </trkpt>
      <trkpt lat="48.01221" lon="-2.28519">
        <ele>120.99312649563</ele>
        <time>2019-04-21T08:54:21Z</time>
      </trkpt>
      <trkpt lat="48.01229" lon="-2.28519">
        <ele>121.99307873045</ele>
        <time>2019-04-21T08:54:28Z</time>
      </trkpt>
      <trkpt lat="48.01237" lon="-2.2852">
        <ele>122.99303194346</ele>
        <time>2019-04-21T08:54:37Z</time>
      </trkpt>
      <trkpt lat="48.01246" lon="-2.28518">
        <ele>122.99298783408</ele>
        <time>2019-04-21T08:54:46Z</time>
      </trkpt>
      <trkpt lat="48.01254" lon="-2.2852">
        <ele>122.99293679057</ele>
        <time>2019-04-21T08:54:54Z</time>
      </trkpt>
      <trkpt lat="48.01262" lon="-2.28522">
        <ele>123.99288709319</ele>
        <time>2019-04-21T08:55:01Z</time>
      </trkpt>
      <trkpt lat="48.01271" lon="-2.28522">
        <ele>125.99283769623</ele>
        <time>2019-04-21T08:55:09Z</time>
      </trkpt>
      <trkpt lat="48.0128" lon="-2.28523">
        <ele>127.99278779786</ele>
        <time>2019-04-21T08:55:35Z</time>
      </trkpt>
      <trkpt lat="48.01286" lon="-2.28515">
        <ele>127.99276547361</ele>
        <time>2019-04-21T08:55:41Z</time>
      </trkpt>
      <trkpt lat="48.01292" lon="-2.28505">
        <ele>127.99275730747</ele>
        <time>2019-04-21T08:55:47Z</time>
      </trkpt>
      <trkpt lat="48.01295" lon="-2.28495">
        <ele>127.99275746539</ele>
        <time>2019-04-21T08:55:52Z</time>
      </trkpt>
      <trkpt lat="48.013" lon="-2.28483">
        <ele>126.99275691985</ele>
        <time>2019-04-21T08:55:59Z</time>
      </trkpt>
      <trkpt lat="48.01302" lon="-2.28473">
        <ele>126.99276388914</ele>
        <time>2019-04-21T08:56:04Z</time>
      </trkpt>
      <trkpt lat="48.01307" lon="-2.28464">
        <ele>128.99275450301</ele>
        <time>2019-04-21T08:56:10Z</time>
      </trkpt>
      <trkpt lat="48.01313" lon="-2.28455">
        <ele>127.99274080652</ele>
        <time>2019-04-21T08:56:17Z</time>
      </trkpt>
      <trkpt lat="48.01319" lon="-2.28447">
        <ele>128.99272604621</ele>
        <time>2019-04-21T08:56:23Z</time>
      </trkpt>
      <trkpt lat="48.01325" lon="-2.28438">
        <ele>130.99271241934</ele>
        <time>2019-04-21T08:56:29Z</time>
      </trkpt>
      <trkpt lat="48.01331" lon="-2.2843">
        <ele>129.99269868841</ele>
        <time>2019-04-21T08:56:36Z</time>
      </trkpt>
      <trkpt lat="48.01337" lon="-2.28423">
        <ele>131.99267462167</ele>
        <time>2019-04-21T08:56:43Z</time>
      </trkpt>
      <trkpt lat="48.01344" lon="-2.28417">
        <ele>132.99265448154</ele>
        <time>2019-04-21T08:56:49Z</time>
      </trkpt>
      <trkpt lat="48.0135" lon="-2.2841">
        <ele>133.99263345537</ele>
        <time>2019-04-21T08:56:56Z</time>
      </trkpt>
      <trkpt lat="48.01359" lon="-2.28404">
        <ele>132.99260047464</ele>
        <time>2019-04-21T08:57:04Z</time>
      </trkpt>
      <trkpt lat="48.01366" lon="-2.28398">
        <ele>132.99257200514</ele>
        <time>2019-04-21T08:57:13Z</time>
      </trkpt>
      <trkpt lat="48.01374" lon="-2.28393">
        <ele>133.99254057272</ele>
        <time>2019-04-21T08:57:21Z</time>
      </trkpt>
      <trkpt lat="48.0138" lon="-2.28385">
        <ele>133.9925263394</ele>
        <time>2019-04-21T08:57:29Z</time>
      </trkpt>
      <trkpt lat="48.01386" lon="-2.28377">
        <ele>134.99251189104</ele>
        <time>2019-04-21T08:57:36Z</time>
      </trkpt>
      <trkpt lat="48.01393" lon="-2.2837">
        <ele>134.99248888605</ele>
        <time>2019-04-21T08:57:46Z</time>
      </trkpt>
      <trkpt lat="48.01401" lon="-2.28366">
        <ele>134.99245303145</ele>
        <time>2019-04-21T08:57:54Z</time>
      </trkpt>
      <trkpt lat="48.0141" lon="-2.28364">
        <ele>136.99241328036</ele>
        <time>2019-04-21T08:58:14Z</time>
      </trkpt>
      <trkpt lat="48.01417" lon="-2.28369">
        <ele>136.9923611713</ele>
        <time>2019-04-21T08:58:30Z</time>
      </trkpt>
      <trkpt lat="48.01425" lon="-2.28374">
        <ele>138.99230770595</ele>
        <time>2019-04-21T08:58:38Z</time>
      </trkpt>
      <trkpt lat="48.01433" lon="-2.28374">
        <ele>138.99226245234</ele>
        <time>2019-04-21T08:58:46Z</time>
      </trkpt>
      <trkpt lat="48.01439" lon="-2.28365">
        <ele>139.99225191609</ele>
        <time>2019-04-21T08:58:52Z</time>
      </trkpt>
      <trkpt lat="48.01443" lon="-2.28355">
        <ele>139.99225590923</ele>
        <time>2019-04-21T08:59:05Z</time>
      </trkpt>
      <trkpt lat="48.01448" lon="-2.28345">
        <ele>140.99225278881</ele>
        <time>2019-04-21T08:59:11Z</time>
      </trkpt>
      <trkpt lat="48.01452" lon="-2.28333">
        <ele>141.99225987924</ele>
        <time>2019-04-21T08:59:19Z</time>
      </trkpt>
      <trkpt lat="48.01457" lon="-2.28323">
        <ele>141.99225521631</ele>
        <time>2019-04-21T08:59:26Z</time>
      </trkpt>
      <trkpt lat="48.01463" lon="-2.28313">
        <ele>140.99224361389</ele>
        <time>2019-04-21T08:59:35Z</time>
      </trkpt>
      <trkpt lat="48.01471" lon="-2.28307">
        <ele>139.99221896719</ele>
        <time>2019-04-21T08:59:44Z</time>
      </trkpt>
      <trkpt lat="48.01478" lon="-2.28302">
        <ele>141.99219242433</ele>
        <time>2019-04-21T08:59:54Z</time>
      </trkpt>
      <trkpt lat="48.01485" lon="-2.28296">
        <ele>142.99216915846</ele>
        <time>2019-04-21T09:00:02Z</time>
      </trkpt>
      <trkpt lat="48.01491" lon="-2.28288">
        <ele>144.9921544629</ele>
        <time>2019-04-21T09:00:09Z</time>
      </trkpt>
      <trkpt lat="48.01499" lon="-2.28283">
        <ele>144.99212908459</ele>
        <time>2019-04-21T09:00:15Z</time>
      </trkpt>
      <trkpt lat="48.01506" lon="-2.28278">
        <ele>144.99210123136</ele>
        <time>2019-04-21T09:00:22Z</time>
      </trkpt>
      <trkpt lat="48.01513" lon="-2.28271">
        <ele>146.99208164187</ele>
        <time>2019-04-21T09:00:31Z</time>
      </trkpt>
      <trkpt lat="48.01521" lon="-2.28264">
        <ele>149.99205463801</ele>
        <time>2019-04-21T09:00:39Z</time>
      </trkpt>
      <trkpt lat="48.0153" lon="-2.28266">
        <ele>146.99200745824</ele>
        <time>2019-04-21T09:00:48Z</time>
      </trkpt>
      <trkpt lat="48.01538" lon="-2.28262">
        <ele>144.99197338505</ele>
        <time>2019-04-21T09:00:55Z</time>
      </trkpt>
      <trkpt lat="48.01546" lon="-2.28259">
        <ele>144.9919390367</ele>
        <time>2019-04-21T09:01:03Z</time>
      </trkpt>
      <trkpt lat="48.01554" lon="-2.28263">
        <ele>144.9918863661</ele>
        <time>2019-04-21T09:01:21Z</time>
      </trkpt>
      <trkpt lat="48.01562" lon="-2.28265">
        <ele>143.99183724974</ele>
        <time>2019-04-21T09:01:36Z</time>
      </trkpt>
      <trkpt lat="48.0157" lon="-2.2827">
        <ele>144.99178720329</ele>
        <time>2019-04-21T09:01:44Z</time>
      </trkpt>
      <trkpt lat="48.01578" lon="-2.28274">
        <ele>144.99173588059</ele>
        <time>2019-04-21T09:01:52Z</time>
      </trkpt>
      <trkpt lat="48.01586" lon="-2.28271">
        <ele>144.9916972984</ele>
        <time>2019-04-21T09:02:00Z</time>
      </trkpt>
      <trkpt lat="48.01594" lon="-2.28271">
        <ele>142.99165748746</ele>
        <time>2019-04-21T09:02:07Z</time>
      </trkpt>
      <trkpt lat="48.01602" lon="-2.28272">
        <ele>143.99161417962</ele>
        <time>2019-04-21T09:02:15Z</time>
      </trkpt>
      <trkpt lat="48.01611" lon="-2.28272">
        <ele>144.99156867376</ele>
        <time>2019-04-21T09:02:23Z</time>
      </trkpt>
      <trkpt lat="48.01619" lon="-2.28273">
        <ele>145.99152391922</ele>
        <time>2019-04-21T09:02:31Z</time>
      </trkpt>
      <trkpt lat="48.01628" lon="-2.28274">
        <ele>146.99147464879</ele>
        <time>2019-04-21T09:02:39Z</time>
      </trkpt>
      <trkpt lat="48.01636" lon="-2.28275">
        <ele>149.99142734628</ele>
        <time>2019-04-21T09:02:46Z</time>
      </trkpt>
      <trkpt lat="48.01643" lon="-2.28277">
        <ele>149.99138769406</ele>
        <time>2019-04-21T09:02:52Z</time>
      </trkpt>
      <trkpt lat="48.01649" lon="-2.28268">
        <ele>149.99137509907</ele>
        <time>2019-04-21T09:03:00Z</time>
      </trkpt>
      <trkpt lat="48.01658" lon="-2.28266">
        <ele>149.99133730754</ele>
        <time>2019-04-21T09:03:23Z</time>
      </trkpt>
      <trkpt lat="48.01666" lon="-2.28269">
        <ele>149.99128713929</ele>
        <time>2019-04-21T09:03:31Z</time>
      </trkpt>
      <trkpt lat="48.01674" lon="-2.28271">
        <ele>149.9912374344</ele>
        <time>2019-04-21T09:03:38Z</time>
      </trkpt>
      <trkpt lat="48.01683" lon="-2.28274">
        <ele>149.99118363115</ele>
        <time>2019-04-21T09:03:46Z</time>
      </trkpt>
      <trkpt lat="48.01691" lon="-2.28278">
        <ele>149.99112953588</ele>
        <time>2019-04-21T09:03:54Z</time>
      </trkpt>
      <trkpt lat="48.017" lon="-2.28278">
        <ele>151.99108548324</ele>
        <time>2019-04-21T09:04:02Z</time>
      </trkpt>
      <trkpt lat="48.01708" lon="-2.28279">
        <ele>152.99104184679</ele>
        <time>2019-04-21T09:04:09Z</time>
      </trkpt>
      <trkpt lat="48.01716" lon="-2.28278">
        <ele>152.99100050168</ele>
        <time>2019-04-21T09:04:16Z</time>
      </trkpt>
      <trkpt lat="48.01724" lon="-2.28274">
        <ele>154.99096624385</ele>
        <time>2019-04-21T09:04:23Z</time>
      </trkpt>
      <trkpt lat="48.01731" lon="-2.28266">
        <ele>154.9909587409</ele>
        <time>2019-04-21T09:04:30Z</time>
      </trkpt>
      <trkpt lat="48.01736" lon="-2.28256">
        <ele>154.9909569631</ele>
        <time>2019-04-21T09:04:40Z</time>
      </trkpt>
      <trkpt lat="48.01744" lon="-2.28256">
        <ele>153.99091608752</ele>
        <time>2019-04-21T09:04:47Z</time>
      </trkpt>
      <trkpt lat="48.01752" lon="-2.2826">
        <ele>151.99086394463</ele>
        <time>2019-04-21T09:04:54Z</time>
      </trkpt>
      <trkpt lat="48.0176" lon="-2.28263">
        <ele>153.99081104367</ele>
        <time>2019-04-21T09:05:02Z</time>
      </trkpt>
      <trkpt lat="48.01769" lon="-2.28264">
        <ele>154.99076267953</ele>
        <time>2019-04-21T09:05:08Z</time>
      </trkpt>
      <trkpt lat="48.01776" lon="-2.28265">
        <ele>153.99072168573</ele>
        <time>2019-04-21T09:05:15Z</time>
      </trkpt>
      <trkpt lat="48.01784" lon="-2.28269">
        <ele>153.99067224823</ele>
        <time>2019-04-21T09:05:21Z</time>
      </trkpt>
      <trkpt lat="48.01791" lon="-2.28276">
        <ele>153.99061565922</ele>
        <time>2019-04-21T09:05:28Z</time>
      </trkpt>
      <trkpt lat="48.01795" lon="-2.28286">
        <ele>153.99056048772</ele>
        <time>2019-04-21T09:05:36Z</time>
      </trkpt>
      <trkpt lat="48.01797" lon="-2.28298">
        <ele>153.99051850213</ele>
        <time>2019-04-21T09:05:43Z</time>
      </trkpt>
      <trkpt lat="48.01801" lon="-2.28308">
        <ele>153.9904656286</ele>
        <time>2019-04-21T09:05:53Z</time>
      </trkpt>
      <trkpt lat="48.01804" lon="-2.28321">
        <ele>154.99041616775</ele>
        <time>2019-04-21T09:06:01Z</time>
      </trkpt>
      <trkpt lat="48.01808" lon="-2.28333">
        <ele>155.99035890107</ele>
        <time>2019-04-21T09:06:08Z</time>
      </trkpt>
      <trkpt lat="48.0181" lon="-2.28346">
        <ele>156.99031137242</ele>
        <time>2019-04-21T09:06:15Z</time>
      </trkpt>
      <trkpt lat="48.01811" lon="-2.28358">
        <ele>155.99026632786</ele>
        <time>2019-04-21T09:06:21Z</time>
      </trkpt>
      <trkpt lat="48.01813" lon="-2.28371">
        <ele>152.99021983423</ele>
        <time>2019-04-21T09:06:28Z</time>
      </trkpt>
      <trkpt lat="48.01815" lon="-2.28383">
        <ele>154.99017311954</ele>
        <time>2019-04-21T09:06:36Z</time>
      </trkpt>
      <trkpt lat="48.01818" lon="-2.28395">
        <ele>155.99012442674</ele>
        <time>2019-04-21T09:06:46Z</time>
      </trkpt>
      <trkpt lat="48.01821" lon="-2.28407">
        <ele>156.99007141924</ele>
        <time>2019-04-21T09:06:53Z</time>
      </trkpt>
      <trkpt lat="48.01824" lon="-2.2842">
        <ele>155.99001943161</ele>
        <time>2019-04-21T09:07:00Z</time>
      </trkpt>
      <trkpt lat="48.01826" lon="-2.28432">
        <ele>155.9899746909</ele>
        <time>2019-04-21T09:07:08Z</time>
      </trkpt>
      <trkpt lat="48.01829" lon="-2.28443">
        <ele>154.989925265</ele>
        <time>2019-04-21T09:07:14Z</time>
      </trkpt>
      <trkpt lat="48.01832" lon="-2.28455">
        <ele>152.98987445102</ele>
        <time>2019-04-21T09:07:25Z</time>
      </trkpt>
      <trkpt lat="48.01834" lon="-2.28467">
        <ele>154.98982700713</ele>
        <time>2019-04-21T09:07:33Z</time>
      </trkpt>
      <trkpt lat="48.01838" lon="-2.28479">
        <ele>154.98977091595</ele>
        <time>2019-04-21T09:07:42Z</time>
      </trkpt>
      <trkpt lat="48.0184" lon="-2.28492">
        <ele>153.98972254384</ele>
        <time>2019-04-21T09:07:48Z</time>
      </trkpt>
      <trkpt lat="48.01843" lon="-2.28503">
        <ele>150.98967231638</ele>
        <time>2019-04-21T09:07:54Z</time>
      </trkpt>
      <trkpt lat="48.01847" lon="-2.28514">
        <ele>150.98961798056</ele>
        <time>2019-04-21T09:08:00Z</time>
      </trkpt>
      <trkpt lat="48.01849" lon="-2.28526">
        <ele>149.98956665449</ele>
        <time>2019-04-21T09:08:13Z</time>
      </trkpt>
      <trkpt lat="48.01851" lon="-2.28538">
        <ele>147.98952411031</ele>
        <time>2019-04-21T09:08:55Z</time>
      </trkpt>
      <trkpt lat="48.01854" lon="-2.2855">
        <ele>149.98947065496</ele>
        <time>2019-04-21T09:09:03Z</time>
      </trkpt>
      <trkpt lat="48.01859" lon="-2.28561">
        <ele>148.98941267242</ele>
        <time>2019-04-21T09:09:11Z</time>
      </trkpt>
      <trkpt lat="48.0186" lon="-2.28573">
        <ele>149.98936421139</ele>
        <time>2019-04-21T09:09:18Z</time>
      </trkpt>
      <trkpt lat="48.01863" lon="-2.28586">
        <ele>150.98931323</ele>
        <time>2019-04-21T09:09:26Z</time>
      </trkpt>
      <trkpt lat="48.01863" lon="-2.28598">
        <ele>149.98927396539</ele>
        <time>2019-04-21T09:09:32Z</time>
      </trkpt>
      <trkpt lat="48.01865" lon="-2.28609">
        <ele>151.98922778013</ele>
        <time>2019-04-21T09:09:39Z</time>
      </trkpt>
      <trkpt lat="48.01868" lon="-2.28621">
        <ele>149.98917888651</ele>
        <time>2019-04-21T09:09:45Z</time>
      </trkpt>
      <trkpt lat="48.01872" lon="-2.28631">
        <ele>150.98912602906</ele>
        <time>2019-04-21T09:09:52Z</time>
      </trkpt>
      <trkpt lat="48.01875" lon="-2.28642">
        <ele>151.98907475192</ele>
        <time>2019-04-21T09:09:59Z</time>
      </trkpt>
      <trkpt lat="48.01876" lon="-2.28654">
        <ele>151.98902944968</ele>
        <time>2019-04-21T09:10:05Z</time>
      </trkpt>
      <trkpt lat="48.01881" lon="-2.28664">
        <ele>149.98897464841</ele>
        <time>2019-04-21T09:10:10Z</time>
      </trkpt>
      <trkpt lat="48.01884" lon="-2.28676">
        <ele>147.98891669365</ele>
        <time>2019-04-21T09:10:16Z</time>
      </trkpt>
      <trkpt lat="48.01888" lon="-2.28686">
        <ele>146.98886722866</ele>
        <time>2019-04-21T09:10:23Z</time>
      </trkpt>
      <trkpt lat="48.01891" lon="-2.28697">
        <ele>146.98881577746</ele>
        <time>2019-04-21T09:10:29Z</time>
      </trkpt>
      <trkpt lat="48.01894" lon="-2.28709">
        <ele>145.98876079389</ele>
        <time>2019-04-21T09:10:36Z</time>
      </trkpt>
      <trkpt lat="48.01896" lon="-2.2872">
        <ele>145.98871290692</ele>
        <time>2019-04-21T09:11:00Z</time>
      </trkpt>
      <trkpt lat="48.01898" lon="-2.28732">
        <ele>144.98866922059</ele>
        <time>2019-04-21T09:11:07Z</time>
      </trkpt>
      <trkpt lat="48.01902" lon="-2.28743">
        <ele>144.98860658066</ele>
        <time>2019-04-21T09:11:13Z</time>
      </trkpt>
      <trkpt lat="48.01906" lon="-2.28755">
        <ele>144.98855142376</ele>
        <time>2019-04-21T09:11:20Z</time>
      </trkpt>
      <trkpt lat="48.01908" lon="-2.28768">
        <ele>143.98849716578</ele>
        <time>2019-04-21T09:11:27Z</time>
      </trkpt>
      <trkpt lat="48.0191" lon="-2.28779">
        <ele>145.98844961092</ele>
        <time>2019-04-21T09:11:36Z</time>
      </trkpt>
      <trkpt lat="48.01911" lon="-2.28791">
        <ele>147.98840892141</ele>
        <time>2019-04-21T09:11:44Z</time>
      </trkpt>
      <trkpt lat="48.01913" lon="-2.28802">
        <ele>146.98836514632</ele>
        <time>2019-04-21T09:11:49Z</time>
      </trkpt>
      <trkpt lat="48.01915" lon="-2.28814">
        <ele>147.98831407942</ele>
        <time>2019-04-21T09:11:56Z</time>
      </trkpt>
      <trkpt lat="48.01919" lon="-2.28825">
        <ele>146.98825560419</ele>
        <time>2019-04-21T09:12:04Z</time>
      </trkpt>
      <trkpt lat="48.0192" lon="-2.28834">
        <ele>145.98822204918</ele>
        <time>2019-04-21T09:12:10Z</time>
      </trkpt>
      <trkpt lat="48.01923" lon="-2.28846">
        <ele>144.98816949526</ele>
        <time>2019-04-21T09:12:16Z</time>
      </trkpt>
      <trkpt lat="48.01926" lon="-2.28858">
        <ele>144.98811166927</ele>
        <time>2019-04-21T09:12:23Z</time>
      </trkpt>
      <trkpt lat="48.0193" lon="-2.28869">
        <ele>145.98805228283</ele>
        <time>2019-04-21T09:12:30Z</time>
      </trkpt>
      <trkpt lat="48.01936" lon="-2.28877">
        <ele>144.98798685164</ele>
        <time>2019-04-21T09:12:40Z</time>
      </trkpt>
      <trkpt lat="48.01945" lon="-2.28879">
        <ele>142.98793034174</ele>
        <time>2019-04-21T09:12:47Z</time>
      </trkpt>
      <trkpt lat="48.01954" lon="-2.2888">
        <ele>142.98787124942</ele>
        <time>2019-04-21T09:12:54Z</time>
      </trkpt>
      <trkpt lat="48.01962" lon="-2.28883">
        <ele>141.98781073089</ele>
        <time>2019-04-21T09:13:01Z</time>
      </trkpt>
      <trkpt lat="48.01971" lon="-2.28884">
        <ele>141.98775463804</ele>
        <time>2019-04-21T09:13:08Z</time>
      </trkpt>
      <trkpt lat="48.01979" lon="-2.28884">
        <ele>142.98770011791</ele>
        <time>2019-04-21T09:13:15Z</time>
      </trkpt>
      <trkpt lat="48.01987" lon="-2.28886">
        <ele>142.98764778235</ele>
        <time>2019-04-21T09:13:21Z</time>
      </trkpt>
      <trkpt lat="48.01995" lon="-2.28887">
        <ele>142.98759007171</ele>
        <time>2019-04-21T09:13:28Z</time>
      </trkpt>
      <trkpt lat="48.01995" lon="-2.28901">
        <ele>143.98754754849</ele>
        <time>2019-04-21T09:13:39Z</time>
      </trkpt>
      <trkpt lat="48.01992" lon="-2.28913">
        <ele>143.98752629532</ele>
        <time>2019-04-21T09:13:48Z</time>
      </trkpt>
      <trkpt lat="48.01991" lon="-2.28926">
        <ele>143.98749245392</ele>
        <time>2019-04-21T09:13:55Z</time>
      </trkpt>
      <trkpt lat="48.01988" lon="-2.28939">
        <ele>144.98746914522</ele>
        <time>2019-04-21T09:14:01Z</time>
      </trkpt>
      <trkpt lat="48.01987" lon="-2.28952">
        <ele>143.98743767696</ele>
        <time>2019-04-21T09:14:08Z</time>
      </trkpt>
      <trkpt lat="48.01986" lon="-2.28964">
        <ele>145.98740506996</ele>
        <time>2019-04-21T09:14:19Z</time>
      </trkpt>
      <trkpt lat="48.01981" lon="-2.28975">
        <ele>148.98740075858</ele>
        <time>2019-04-21T09:14:33Z</time>
      </trkpt>
      <trkpt lat="48.01978" lon="-2.28987">
        <ele>150.98738479418</ele>
        <time>2019-04-21T09:14:51Z</time>
      </trkpt>
      <trkpt lat="48.01979" lon="-2.28976">
        <ele>147.9874101538</ele>
        <time>2019-04-21T09:17:16Z</time>
      </trkpt>
      <trkpt lat="48.01979" lon="-2.28976">
        <ele>147.9874101538</ele>
        <time>2019-04-21T09:17:17Z</time>
      </trkpt>
      <trkpt lat="48.01964" lon="-2.2898">
        <ele>145.98748947104</ele>
        <time>2019-04-21T09:20:44Z</time>
      </trkpt>
      <trkpt lat="48.01971" lon="-2.28989">
        <ele>146.98742193896</ele>
        <time>2019-04-21T09:20:52Z</time>
      </trkpt>
      <trkpt lat="48.01967" lon="-2.29">
        <ele>142.98741011978</ele>
        <time>2019-04-21T09:20:59Z</time>
      </trkpt>
      <trkpt lat="48.01964" lon="-2.29012">
        <ele>141.98739167836</ele>
        <time>2019-04-21T09:21:08Z</time>
      </trkpt>
      <trkpt lat="48.01958" lon="-2.29021">
        <ele>141.98740693695</ele>
        <time>2019-04-21T09:21:16Z</time>
      </trkpt>
      <trkpt lat="48.0195" lon="-2.29014">
        <ele>140.98747614077</ele>
        <time>2019-04-21T09:21:22Z</time>
      </trkpt>
      <trkpt lat="48.01944" lon="-2.29005">
        <ele>141.98754621637</ele>
        <time>2019-04-21T09:21:31Z</time>
      </trkpt>
      <trkpt lat="48.01939" lon="-2.28994">
        <ele>141.98760864592</ele>
        <time>2019-04-21T09:21:40Z</time>
      </trkpt>
      <trkpt lat="48.01935" lon="-2.28983">
        <ele>141.98766648062</ele>
        <time>2019-04-21T09:21:48Z</time>
      </trkpt>
      <trkpt lat="48.01931" lon="-2.28972">
        <ele>141.98772578647</ele>
        <time>2019-04-21T09:21:55Z</time>
      </trkpt>
      <trkpt lat="48.01928" lon="-2.28961">
        <ele>142.98778347554</ele>
        <time>2019-04-21T09:22:05Z</time>
      </trkpt>
      <trkpt lat="48.01925" lon="-2.28949">
        <ele>141.98783538913</ele>
        <time>2019-04-21T09:22:12Z</time>
      </trkpt>
      <trkpt lat="48.01917" lon="-2.28945">
        <ele>140.98790213127</ele>
        <time>2019-04-21T09:22:19Z</time>
      </trkpt>
      <trkpt lat="48.01908" lon="-2.28947">
        <ele>140.98795185402</ele>
        <time>2019-04-21T09:22:28Z</time>
      </trkpt>
      <trkpt lat="48.019" lon="-2.2895">
        <ele>140.98799220177</ele>
        <time>2019-04-21T09:22:33Z</time>
      </trkpt>
      <trkpt lat="48.01893" lon="-2.28951">
        <ele>140.98803495336</ele>
        <time>2019-04-21T09:22:40Z</time>
      </trkpt>
      <trkpt lat="48.01884" lon="-2.28954">
        <ele>140.98807904405</ele>
        <time>2019-04-21T09:22:46Z</time>
      </trkpt>
      <trkpt lat="48.01876" lon="-2.28954">
        <ele>141.98813000863</ele>
        <time>2019-04-21T09:22:52Z</time>
      </trkpt>
      <trkpt lat="48.01867" lon="-2.28955">
        <ele>139.98818264195</ele>
        <time>2019-04-21T09:22:58Z</time>
      </trkpt>
      <trkpt lat="48.0186" lon="-2.2896">
        <ele>138.98821665141</ele>
        <time>2019-04-21T09:23:05Z</time>
      </trkpt>
      <trkpt lat="48.01853" lon="-2.28965">
        <ele>137.98824237853</ele>
        <time>2019-04-21T09:23:09Z</time>
      </trkpt>
      <trkpt lat="48.01846" lon="-2.28968">
        <ele>139.98828133268</ele>
        <time>2019-04-21T09:23:15Z</time>
      </trkpt>
      <trkpt lat="48.01838" lon="-2.28973">
        <ele>139.98831930968</ele>
        <time>2019-04-21T09:23:22Z</time>
      </trkpt>
      <trkpt lat="48.01831" lon="-2.28981">
        <ele>140.98833982968</ele>
        <time>2019-04-21T09:23:29Z</time>
      </trkpt>
      <trkpt lat="48.01825" lon="-2.2899">
        <ele>139.98835079541</ele>
        <time>2019-04-21T09:23:37Z</time>
      </trkpt>
      <trkpt lat="48.01818" lon="-2.28998">
        <ele>140.98837348219</ele>
        <time>2019-04-21T09:23:44Z</time>
      </trkpt>
      <trkpt lat="48.0181" lon="-2.29004">
        <ele>139.98840234064</ele>
        <time>2019-04-21T09:23:51Z</time>
      </trkpt>
      <trkpt lat="48.01802" lon="-2.29009">
        <ele>139.98844050775</ele>
        <time>2019-04-21T09:23:58Z</time>
      </trkpt>
      <trkpt lat="48.01793" lon="-2.29009">
        <ele>140.98849549002</ele>
        <time>2019-04-21T09:24:05Z</time>
      </trkpt>
      <trkpt lat="48.01787" lon="-2.29018">
        <ele>139.98851044705</ele>
        <time>2019-04-21T09:24:13Z</time>
      </trkpt>
      <trkpt lat="48.0178" lon="-2.29024">
        <ele>139.98853941402</ele>
        <time>2019-04-21T09:24:19Z</time>
      </trkpt>
      <trkpt lat="48.01772" lon="-2.29031">
        <ele>140.98857088543</ele>
        <time>2019-04-21T09:24:27Z</time>
      </trkpt>
      <trkpt lat="48.01765" lon="-2.29039">
        <ele>139.98859229933</ele>
        <time>2019-04-21T09:24:33Z</time>
      </trkpt>
      <trkpt lat="48.01759" lon="-2.29047">
        <ele>138.98861165024</ele>
        <time>2019-04-21T09:24:39Z</time>
      </trkpt>
      <trkpt lat="48.01752" lon="-2.29054">
        <ele>138.98863738025</ele>
        <time>2019-04-21T09:24:45Z</time>
      </trkpt>
      <trkpt lat="48.01747" lon="-2.29063">
        <ele>139.98864560139</ele>
        <time>2019-04-21T09:24:52Z</time>
      </trkpt>
      <trkpt lat="48.0174" lon="-2.29071">
        <ele>138.98866651766</ele>
        <time>2019-04-21T09:24:59Z</time>
      </trkpt>
      <trkpt lat="48.01734" lon="-2.29079">
        <ele>138.98868458741</ele>
        <time>2019-04-21T09:25:05Z</time>
      </trkpt>
      <trkpt lat="48.01727" lon="-2.29086">
        <ele>139.98871120598</ele>
        <time>2019-04-21T09:25:11Z</time>
      </trkpt>
      <trkpt lat="48.0172" lon="-2.29095">
        <ele>139.98872932449</ele>
        <time>2019-04-21T09:25:17Z</time>
      </trkpt>
      <trkpt lat="48.01714" lon="-2.29103">
        <ele>138.98875144156</ele>
        <time>2019-04-21T09:25:24Z</time>
      </trkpt>
      <trkpt lat="48.01707" lon="-2.29111">
        <ele>138.9887736033</ele>
        <time>2019-04-21T09:25:32Z</time>
      </trkpt>
      <trkpt lat="48.01699" lon="-2.29118">
        <ele>138.9888065884</ele>
        <time>2019-04-21T09:25:40Z</time>
      </trkpt>
      <trkpt lat="48.01692" lon="-2.29123">
        <ele>138.98883490053</ele>
        <time>2019-04-21T09:25:46Z</time>
      </trkpt>
      <trkpt lat="48.01684" lon="-2.29129">
        <ele>140.98887174417</ele>
        <time>2019-04-21T09:25:54Z</time>
      </trkpt>
      <trkpt lat="48.01677" lon="-2.29133">
        <ele>141.98890736661</ele>
        <time>2019-04-21T09:26:00Z</time>
      </trkpt>
      <trkpt lat="48.01669" lon="-2.29138">
        <ele>140.98894708835</ele>
        <time>2019-04-21T09:26:07Z</time>
      </trkpt>
      <trkpt lat="48.01662" lon="-2.29147">
        <ele>142.98897308709</ele>
        <time>2019-04-21T09:26:36Z</time>
      </trkpt>
      <trkpt lat="48.01655" lon="-2.29153">
        <ele>141.98900145907</ele>
        <time>2019-04-21T09:26:42Z</time>
      </trkpt>
      <trkpt lat="48.01648" lon="-2.29158">
        <ele>140.98903471919</ele>
        <time>2019-04-21T09:26:49Z</time>
      </trkpt>
      <trkpt lat="48.01641" lon="-2.29164">
        <ele>140.9890710967</ele>
        <time>2019-04-21T09:26:56Z</time>
      </trkpt>
      <trkpt lat="48.01635" lon="-2.29169">
        <ele>140.98909654449</ele>
        <time>2019-04-21T09:27:03Z</time>
      </trkpt>
      <trkpt lat="48.01626" lon="-2.29173">
        <ele>139.98914545653</ele>
        <time>2019-04-21T09:27:17Z</time>
      </trkpt>
      <trkpt lat="48.01619" lon="-2.2918">
        <ele>136.98917657014</ele>
        <time>2019-04-21T09:27:48Z</time>
      </trkpt>
      <trkpt lat="48.01612" lon="-2.29185">
        <ele>136.98920816291</ele>
        <time>2019-04-21T09:27:54Z</time>
      </trkpt>
      <trkpt lat="48.01605" lon="-2.29194">
        <ele>137.98922829729</ele>
        <time>2019-04-21T09:28:01Z</time>
      </trkpt>
      <trkpt lat="48.01598" lon="-2.29201">
        <ele>137.98926243302</ele>
        <time>2019-04-21T09:28:07Z</time>
      </trkpt>
      <trkpt lat="48.01592" lon="-2.29209">
        <ele>134.9892807752</ele>
        <time>2019-04-21T09:28:22Z</time>
      </trkpt>
      <trkpt lat="48.01584" lon="-2.29215">
        <ele>133.9893202158</ele>
        <time>2019-04-21T09:28:30Z</time>
      </trkpt>
      <trkpt lat="48.01577" lon="-2.29221">
        <ele>133.98935035954</ele>
        <time>2019-04-21T09:28:36Z</time>
      </trkpt>
      <trkpt lat="48.0157" lon="-2.29228">
        <ele>134.98938216736</ele>
        <time>2019-04-21T09:28:43Z</time>
      </trkpt>
      <trkpt lat="48.01564" lon="-2.29234">
        <ele>133.98940604758</ele>
        <time>2019-04-21T09:28:49Z</time>
      </trkpt>
      <trkpt lat="48.01558" lon="-2.29242">
        <ele>133.98942624058</ele>
        <time>2019-04-21T09:28:56Z</time>
      </trkpt>
      <trkpt lat="48.01551" lon="-2.2925">
        <ele>133.98945200591</ele>
        <time>2019-04-21T09:29:03Z</time>
      </trkpt>
      <trkpt lat="48.01545" lon="-2.29257">
        <ele>133.98947863287</ele>
        <time>2019-04-21T09:29:10Z</time>
      </trkpt>
      <trkpt lat="48.01538" lon="-2.29264">
        <ele>133.98950953232</ele>
        <time>2019-04-21T09:29:16Z</time>
      </trkpt>
      <trkpt lat="48.01531" lon="-2.2927">
        <ele>133.98953921865</ele>
        <time>2019-04-21T09:29:22Z</time>
      </trkpt>
      <trkpt lat="48.01525" lon="-2.29277">
        <ele>132.98956446485</ele>
        <time>2019-04-21T09:29:28Z</time>
      </trkpt>
      <trkpt lat="48.01519" lon="-2.29285">
        <ele>132.98958634381</ele>
        <time>2019-04-21T09:29:35Z</time>
      </trkpt>
      <trkpt lat="48.01512" lon="-2.29293">
        <ele>132.98961195947</ele>
        <time>2019-04-21T09:29:42Z</time>
      </trkpt>
      <trkpt lat="48.01506" lon="-2.293">
        <ele>133.9896416575</ele>
        <time>2019-04-21T09:29:48Z</time>
      </trkpt>
      <trkpt lat="48.015" lon="-2.29308">
        <ele>133.9896638217</ele>
        <time>2019-04-21T09:29:55Z</time>
      </trkpt>
      <trkpt lat="48.01493" lon="-2.29316">
        <ele>134.9896934054</ele>
        <time>2019-04-21T09:30:02Z</time>
      </trkpt>
      <trkpt lat="48.01487" lon="-2.29326">
        <ele>134.98970730546</ele>
        <time>2019-04-21T09:30:10Z</time>
      </trkpt>
      <trkpt lat="48.01482" lon="-2.29335">
        <ele>134.98972502326</ele>
        <time>2019-04-21T09:30:17Z</time>
      </trkpt>
      <trkpt lat="48.01475" lon="-2.29343">
        <ele>134.98975018222</ele>
        <time>2019-04-21T09:30:23Z</time>
      </trkpt>
      <trkpt lat="48.0147" lon="-2.29353">
        <ele>133.98976325745</ele>
        <time>2019-04-21T09:30:31Z</time>
      </trkpt>
      <trkpt lat="48.01463" lon="-2.29362">
        <ele>134.98978825281</ele>
        <time>2019-04-21T09:30:39Z</time>
      </trkpt>
      <trkpt lat="48.01456" lon="-2.29369">
        <ele>133.98982232361</ele>
        <time>2019-04-21T09:30:46Z</time>
      </trkpt>
      <trkpt lat="48.01451" lon="-2.29378">
        <ele>134.98983916729</ele>
        <time>2019-04-21T09:30:53Z</time>
      </trkpt>
      <trkpt lat="48.01445" lon="-2.29386">
        <ele>135.98986244201</ele>
        <time>2019-04-21T09:30:59Z</time>
      </trkpt>
      <trkpt lat="48.01438" lon="-2.29396">
        <ele>135.98988341527</ele>
        <time>2019-04-21T09:31:05Z</time>
      </trkpt>
      <trkpt lat="48.01434" lon="-2.29405">
        <ele>135.98988991445</ele>
        <time>2019-04-21T09:31:10Z</time>
      </trkpt>
      <trkpt lat="48.01429" lon="-2.29415">
        <ele>134.9899022954</ele>
        <time>2019-04-21T09:31:17Z</time>
      </trkpt>
      <trkpt lat="48.01423" lon="-2.29423">
        <ele>134.9899330069</ele>
        <time>2019-04-21T09:31:24Z</time>
      </trkpt>
      <trkpt lat="48.01416" lon="-2.29431">
        <ele>133.98996013767</ele>
        <time>2019-04-21T09:31:32Z</time>
      </trkpt>
      <trkpt lat="48.01411" lon="-2.29442">
        <ele>132.98997547575</ele>
        <time>2019-04-21T09:31:39Z</time>
      </trkpt>
      <trkpt lat="48.01406" lon="-2.29454">
        <ele>131.98997968048</ele>
        <time>2019-04-21T09:31:47Z</time>
      </trkpt>
      <trkpt lat="48.01403" lon="-2.29466">
        <ele>132.98997653421</ele>
        <time>2019-04-21T09:31:54Z</time>
      </trkpt>
      <trkpt lat="48.01401" lon="-2.29478">
        <ele>133.9899645751</ele>
        <time>2019-04-21T09:32:01Z</time>
      </trkpt>
      <trkpt lat="48.01402" lon="-2.29491">
        <ele>132.98993052596</ele>
        <time>2019-04-21T09:32:07Z</time>
      </trkpt>
      <trkpt lat="48.01402" lon="-2.29503">
        <ele>132.9899016354</ele>
        <time>2019-04-21T09:32:13Z</time>
      </trkpt>
      <trkpt lat="48.01402" lon="-2.29515">
        <ele>132.9898741521</ele>
        <time>2019-04-21T09:32:20Z</time>
      </trkpt>
      <trkpt lat="48.014" lon="-2.29527">
        <ele>132.98986039985</ele>
        <time>2019-04-21T09:32:28Z</time>
      </trkpt>
      <trkpt lat="48.01396" lon="-2.29538">
        <ele>133.98986477934</ele>
        <time>2019-04-21T09:32:36Z</time>
      </trkpt>
      <trkpt lat="48.0139" lon="-2.29548">
        <ele>130.98988528994</ele>
        <time>2019-04-21T09:32:44Z</time>
      </trkpt>
      <trkpt lat="48.01384" lon="-2.29558">
        <ele>128.98990650967</ele>
        <time>2019-04-21T09:32:51Z</time>
      </trkpt>
      <trkpt lat="48.01377" lon="-2.29563">
        <ele>127.98994955275</ele>
        <time>2019-04-21T09:32:58Z</time>
      </trkpt>
      <trkpt lat="48.0137" lon="-2.29572">
        <ele>126.98998127314</ele>
        <time>2019-04-21T09:33:06Z</time>
      </trkpt>
      <trkpt lat="48.01362" lon="-2.29577">
        <ele>127.99002643252</ele>
        <time>2019-04-21T09:33:14Z</time>
      </trkpt>
      <trkpt lat="48.01354" lon="-2.2958">
        <ele>128.99007616334</ele>
        <time>2019-04-21T09:33:21Z</time>
      </trkpt>
      <trkpt lat="48.01347" lon="-2.29587">
        <ele>128.99011195244</ele>
        <time>2019-04-21T09:33:27Z</time>
      </trkpt>
      <trkpt lat="48.0134" lon="-2.29593">
        <ele>128.99015091361</ele>
        <time>2019-04-21T09:33:33Z</time>
      </trkpt>
      <trkpt lat="48.01334" lon="-2.296">
        <ele>129.99018283696</ele>
        <time>2019-04-21T09:33:41Z</time>
      </trkpt>
      <trkpt lat="48.01329" lon="-2.29611">
        <ele>129.99019300725</ele>
        <time>2019-04-21T09:33:50Z</time>
      </trkpt>
      <trkpt lat="48.01325" lon="-2.29622">
        <ele>128.99020213569</ele>
        <time>2019-04-21T09:33:56Z</time>
      </trkpt>
      <trkpt lat="48.01322" lon="-2.29633">
        <ele>126.99020390509</ele>
        <time>2019-04-21T09:34:02Z</time>
      </trkpt>
      <trkpt lat="48.01317" lon="-2.29644">
        <ele>124.99021470368</ele>
        <time>2019-04-21T09:34:08Z</time>
      </trkpt>
      <trkpt lat="48.01313" lon="-2.29654">
        <ele>125.99022540459</ele>
        <time>2019-04-21T09:34:14Z</time>
      </trkpt>
      <trkpt lat="48.01309" lon="-2.29664">
        <ele>126.99023502738</ele>
        <time>2019-04-21T09:34:20Z</time>
      </trkpt>
      <trkpt lat="48.01306" lon="-2.29677">
        <ele>126.99023137231</ele>
        <time>2019-04-21T09:34:27Z</time>
      </trkpt>
      <trkpt lat="48.01301" lon="-2.29687">
        <ele>125.99024059025</ele>
        <time>2019-04-21T09:34:33Z</time>
      </trkpt>
      <trkpt lat="48.01298" lon="-2.29698">
        <ele>126.99024529313</ele>
        <time>2019-04-21T09:34:39Z</time>
      </trkpt>
      <trkpt lat="48.01294" lon="-2.29709">
        <ele>128.99025268507</ele>
        <time>2019-04-21T09:34:46Z</time>
      </trkpt>
      <trkpt lat="48.01291" lon="-2.29721">
        <ele>130.99025062361</ele>
        <time>2019-04-21T09:34:54Z</time>
      </trkpt>
      <trkpt lat="48.01289" lon="-2.29733">
        <ele>128.99023947709</ele>
        <time>2019-04-21T09:35:00Z</time>
      </trkpt>
      <trkpt lat="48.01293" lon="-2.29745">
        <ele>129.99018782117</ele>
        <time>2019-04-21T09:35:08Z</time>
      </trkpt>
      <trkpt lat="48.01294" lon="-2.29757">
        <ele>129.99014840809</ele>
        <time>2019-04-21T09:35:15Z</time>
      </trkpt>
      <trkpt lat="48.01296" lon="-2.29769">
        <ele>128.9901095991</ele>
        <time>2019-04-21T09:35:23Z</time>
      </trkpt>
      <trkpt lat="48.01297" lon="-2.2978">
        <ele>127.99008056963</ele>
        <time>2019-04-21T09:35:29Z</time>
      </trkpt>
      <trkpt lat="48.01297" lon="-2.29792">
        <ele>127.99005272395</ele>
        <time>2019-04-21T09:35:35Z</time>
      </trkpt>
      <trkpt lat="48.01296" lon="-2.29805">
        <ele>129.990034448</ele>
        <time>2019-04-21T09:35:49Z</time>
      </trkpt>
      <trkpt lat="48.01298" lon="-2.29818">
        <ele>129.98999649593</ele>
        <time>2019-04-21T09:35:58Z</time>
      </trkpt>
      <trkpt lat="48.01299" lon="-2.29832">
        <ele>129.98996179613</ele>
        <time>2019-04-21T09:36:05Z</time>
      </trkpt>
      <trkpt lat="48.01299" lon="-2.29844">
        <ele>128.98993209834</ele>
        <time>2019-04-21T09:36:12Z</time>
      </trkpt>
      <trkpt lat="48.01297" lon="-2.29857">
        <ele>128.98992516845</ele>
        <time>2019-04-21T09:36:20Z</time>
      </trkpt>
      <trkpt lat="48.01292" lon="-2.29867">
        <ele>127.989937371</ele>
        <time>2019-04-21T09:36:26Z</time>
      </trkpt>
      <trkpt lat="48.01289" lon="-2.29879">
        <ele>127.98993495053</ele>
        <time>2019-04-21T09:36:33Z</time>
      </trkpt>
      <trkpt lat="48.01286" lon="-2.2989">
        <ele>125.98993770223</ele>
        <time>2019-04-21T09:36:41Z</time>
      </trkpt>
      <trkpt lat="48.01283" lon="-2.29903">
        <ele>125.98993263662</ele>
        <time>2019-04-21T09:36:49Z</time>
      </trkpt>
      <trkpt lat="48.01282" lon="-2.29915">
        <ele>125.98991698938</ele>
        <time>2019-04-21T09:36:57Z</time>
      </trkpt>
      <trkpt lat="48.01277" lon="-2.29925">
        <ele>125.98993353599</ele>
        <time>2019-04-21T09:37:05Z</time>
      </trkpt>
      <trkpt lat="48.01275" lon="-2.29937">
        <ele>124.98992794695</ele>
        <time>2019-04-21T09:37:17Z</time>
      </trkpt>
      <trkpt lat="48.01273" lon="-2.29949">
        <ele>123.98992240918</ele>
        <time>2019-04-21T09:37:25Z</time>
      </trkpt>
      <trkpt lat="48.0127" lon="-2.29962">
        <ele>124.98991506988</ele>
        <time>2019-04-21T09:37:32Z</time>
      </trkpt>
      <trkpt lat="48.01269" lon="-2.29975">
        <ele>124.98990146199</ele>
        <time>2019-04-21T09:37:39Z</time>
      </trkpt>
      <trkpt lat="48.01266" lon="-2.29987">
        <ele>123.98990026563</ele>
        <time>2019-04-21T09:37:46Z</time>
      </trkpt>
      <trkpt lat="48.01263" lon="-2.29999">
        <ele>124.98989382326</ele>
        <time>2019-04-21T09:37:53Z</time>
      </trkpt>
      <trkpt lat="48.0126" lon="-2.3001">
        <ele>123.98990264021</ele>
        <time>2019-04-21T09:38:00Z</time>
      </trkpt>
      <trkpt lat="48.01255" lon="-2.30021">
        <ele>123.98991968541</ele>
        <time>2019-04-21T09:38:07Z</time>
      </trkpt>
      <trkpt lat="48.01251" lon="-2.30033">
        <ele>125.98992717323</ele>
        <time>2019-04-21T09:38:15Z</time>
      </trkpt>
      <trkpt lat="48.01246" lon="-2.30041">
        <ele>125.98995419816</ele>
        <time>2019-04-21T09:38:24Z</time>
      </trkpt>
      <trkpt lat="48.01244" lon="-2.3005">
        <ele>125.98995059106</ele>
        <time>2019-04-21T09:38:29Z</time>
      </trkpt>
      <trkpt lat="48.01239" lon="-2.30059">
        <ele>125.98997021685</ele>
        <time>2019-04-21T09:38:37Z</time>
      </trkpt>
      <trkpt lat="48.01235" lon="-2.30069">
        <ele>125.98998576542</ele>
        <time>2019-04-21T09:38:44Z</time>
      </trkpt>
      <trkpt lat="48.0123" lon="-2.30078">
        <ele>126.99000836043</ele>
        <time>2019-04-21T09:38:50Z</time>
      </trkpt>
      <trkpt lat="48.01226" lon="-2.30088">
        <ele>126.99002035525</ele>
        <time>2019-04-21T09:38:55Z</time>
      </trkpt>
      <trkpt lat="48.0122" lon="-2.30096">
        <ele>125.99004867998</ele>
        <time>2019-04-21T09:39:01Z</time>
      </trkpt>
      <trkpt lat="48.01217" lon="-2.30108">
        <ele>126.99005576166</ele>
        <time>2019-04-21T09:39:08Z</time>
      </trkpt>
      <trkpt lat="48.01212" lon="-2.30119">
        <ele>124.99007221398</ele>
        <time>2019-04-21T09:39:15Z</time>
      </trkpt>
      <trkpt lat="48.0121" lon="-2.30131">
        <ele>124.99006931064</ele>
        <time>2019-04-21T09:39:23Z</time>
      </trkpt>
      <trkpt lat="48.01204" lon="-2.3014">
        <ele>125.99009725177</ele>
        <time>2019-04-21T09:39:29Z</time>
      </trkpt>
      <trkpt lat="48.01198" lon="-2.30149">
        <ele>126.99013082652</ele>
        <time>2019-04-21T09:39:35Z</time>
      </trkpt>
      <trkpt lat="48.01195" lon="-2.3016">
        <ele>126.990138057</ele>
        <time>2019-04-21T09:39:42Z</time>
      </trkpt>
      <trkpt lat="48.0119" lon="-2.3017">
        <ele>125.99015365918</ele>
        <time>2019-04-21T09:39:46Z</time>
      </trkpt>
      <trkpt lat="48.01187" lon="-2.30181">
        <ele>125.99016506295</ele>
        <time>2019-04-21T09:39:53Z</time>
      </trkpt>
      <trkpt lat="48.01182" lon="-2.30192">
        <ele>125.99018282053</ele>
        <time>2019-04-21T09:39:59Z</time>
      </trkpt>
      <trkpt lat="48.01179" lon="-2.30204">
        <ele>123.9901810919</ele>
        <time>2019-04-21T09:40:07Z</time>
      </trkpt>
      <trkpt lat="48.01176" lon="-2.30215">
        <ele>123.99018624664</ele>
        <time>2019-04-21T09:40:13Z</time>
      </trkpt>
      <trkpt lat="48.01172" lon="-2.30226">
        <ele>122.99019742569</ele>
        <time>2019-04-21T09:40:20Z</time>
      </trkpt>
      <trkpt lat="48.01169" lon="-2.30237">
        <ele>120.990206923</ele>
        <time>2019-04-21T09:40:25Z</time>
      </trkpt>
      <trkpt lat="48.01164" lon="-2.30247">
        <ele>118.99022924971</ele>
        <time>2019-04-21T09:40:31Z</time>
      </trkpt>
      <trkpt lat="48.01168" lon="-2.30257">
        <ele>116.99017684176</ele>
        <time>2019-04-21T09:41:30Z</time>
      </trkpt>
      <trkpt lat="48.01175" lon="-2.30262">
        <ele>117.99010796397</ele>
        <time>2019-04-21T09:41:38Z</time>
      </trkpt>
      <trkpt lat="48.0118" lon="-2.30268">
        <ele>118.99005388296</ele>
        <time>2019-04-21T09:41:43Z</time>
      </trkpt>
      <trkpt lat="48.01187" lon="-2.30275">
        <ele>119.98998183426</ele>
        <time>2019-04-21T09:41:49Z</time>
      </trkpt>
      <trkpt lat="48.01195" lon="-2.30279">
        <ele>120.98990366253</ele>
        <time>2019-04-21T09:41:56Z</time>
      </trkpt>
      <trkpt lat="48.01203" lon="-2.30285">
        <ele>119.98982831757</ele>
        <time>2019-04-21T09:42:01Z</time>
      </trkpt>
      <trkpt lat="48.01212" lon="-2.30285">
        <ele>117.98975670431</ele>
        <time>2019-04-21T09:42:06Z</time>
      </trkpt>
      <trkpt lat="48.01217" lon="-2.30276">
        <ele>116.98972335502</ele>
        <time>2019-04-21T09:42:13Z</time>
      </trkpt>
      <trkpt lat="48.01221" lon="-2.30267">
        <ele>115.98970801558</ele>
        <time>2019-04-21T09:42:17Z</time>
      </trkpt>
      <trkpt lat="48.0123" lon="-2.30266">
        <ele>116.98963843903</ele>
        <time>2019-04-21T09:42:23Z</time>
      </trkpt>
      <trkpt lat="48.01237" lon="-2.30271">
        <ele>115.9895705678</ele>
        <time>2019-04-21T09:42:28Z</time>
      </trkpt>
      <trkpt lat="48.01244" lon="-2.30279">
        <ele>117.9894943198</ele>
        <time>2019-04-21T09:42:37Z</time>
      </trkpt>
      <trkpt lat="48.01252" lon="-2.30284">
        <ele>119.98941393543</ele>
        <time>2019-04-21T09:42:50Z</time>
      </trkpt>
      <trkpt lat="48.01256" lon="-2.30295">
        <ele>122.98935620588</ele>
        <time>2019-04-21T09:43:00Z</time>
      </trkpt>
      <trkpt lat="48.01264" lon="-2.303">
        <ele>122.98927805318</ele>
        <time>2019-04-21T09:43:05Z</time>
      </trkpt>
      <trkpt lat="48.01273" lon="-2.30304">
        <ele>121.98919748405</ele>
        <time>2019-04-21T09:43:14Z</time>
      </trkpt>
      <trkpt lat="48.01282" lon="-2.30304">
        <ele>122.98912425442</ele>
        <time>2019-04-21T09:43:23Z</time>
      </trkpt>
      <trkpt lat="48.01289" lon="-2.30311">
        <ele>123.98904718128</ele>
        <time>2019-04-21T09:43:31Z</time>
      </trkpt>
      <trkpt lat="48.01296" lon="-2.3032">
        <ele>120.9889715842</ele>
        <time>2019-04-21T09:43:38Z</time>
      </trkpt>
      <trkpt lat="48.01303" lon="-2.30328">
        <ele>120.98889451313</ele>
        <time>2019-04-21T09:43:55Z</time>
      </trkpt>
      <trkpt lat="48.01311" lon="-2.3033">
        <ele>119.98881777105</ele>
        <time>2019-04-21T09:44:04Z</time>
      </trkpt>
      <trkpt lat="48.0132" lon="-2.3033">
        <ele>117.98874168012</ele>
        <time>2019-04-21T09:44:34Z</time>
      </trkpt>
      <trkpt lat="48.01329" lon="-2.3033">
        <ele>117.98866763596</ele>
        <time>2019-04-21T09:44:51Z</time>
      </trkpt>
      <trkpt lat="48.01337" lon="-2.30333">
        <ele>115.98859399261</ele>
        <time>2019-04-21T09:44:59Z</time>
      </trkpt>
      <trkpt lat="48.01345" lon="-2.30334">
        <ele>116.98852535018</ele>
        <time>2019-04-21T09:45:06Z</time>
      </trkpt>
      <trkpt lat="48.01352" lon="-2.30334">
        <ele>114.98846023922</ele>
        <time>2019-04-21T09:45:15Z</time>
      </trkpt>
      <trkpt lat="48.01361" lon="-2.30336">
        <ele>113.98838476347</ele>
        <time>2019-04-21T09:45:22Z</time>
      </trkpt>
      <trkpt lat="48.01369" lon="-2.30338">
        <ele>109.98830558729</ele>
        <time>2019-04-21T09:45:33Z</time>
      </trkpt>
      <trkpt lat="48.01377" lon="-2.30338">
        <ele>109.98823774135</ele>
        <time>2019-04-21T09:45:39Z</time>
      </trkpt>
      <trkpt lat="48.01386" lon="-2.30339">
        <ele>109.98816389555</ele>
        <time>2019-04-21T09:45:47Z</time>
      </trkpt>
      <trkpt lat="48.01394" lon="-2.3034">
        <ele>111.98808810585</ele>
        <time>2019-04-21T09:45:54Z</time>
      </trkpt>
      <trkpt lat="48.01402" lon="-2.30339">
        <ele>111.98802179047</ele>
        <time>2019-04-21T09:46:03Z</time>
      </trkpt>
      <trkpt lat="48.01407" lon="-2.30328">
        <ele>108.9880054877</ele>
        <time>2019-04-21T09:46:12Z</time>
      </trkpt>
      <trkpt lat="48.01411" lon="-2.30319">
        <ele>108.98799371323</ele>
        <time>2019-04-21T09:46:17Z</time>
      </trkpt>
      <trkpt lat="48.01415" lon="-2.30307">
        <ele>106.98798929629</ele>
        <time>2019-04-21T09:46:21Z</time>
      </trkpt>
      <trkpt lat="48.01417" lon="-2.30295">
        <ele>106.98799420811</ele>
        <time>2019-04-21T09:46:29Z</time>
      </trkpt>
      <trkpt lat="48.0142" lon="-2.30284">
        <ele>105.9879940047</ele>
        <time>2019-04-21T09:46:36Z</time>
      </trkpt>
      <trkpt lat="48.01422" lon="-2.30271">
        <ele>107.98800361952</ele>
        <time>2019-04-21T09:46:42Z</time>
      </trkpt>
      <trkpt lat="48.01425" lon="-2.3026">
        <ele>104.98801036241</ele>
        <time>2019-04-21T09:46:47Z</time>
      </trkpt>
      <trkpt lat="48.01425" lon="-2.30247">
        <ele>106.98803994047</ele>
        <time>2019-04-21T09:46:54Z</time>
      </trkpt>
      <trkpt lat="48.01427" lon="-2.30235">
        <ele>105.98804585425</ele>
        <time>2019-04-21T09:47:01Z</time>
      </trkpt>
      <trkpt lat="48.01431" lon="-2.30225">
        <ele>103.98803744075</ele>
        <time>2019-04-21T09:47:09Z</time>
      </trkpt>
      <trkpt lat="48.01435" lon="-2.30212">
        <ele>105.98803553247</ele>
        <time>2019-04-21T09:47:17Z</time>
      </trkpt>
      <trkpt lat="48.01441" lon="-2.30203">
        <ele>106.98800462466</ele>
        <time>2019-04-21T09:47:27Z</time>
      </trkpt>
      <trkpt lat="48.01449" lon="-2.30197">
        <ele>108.98795564468</ele>
        <time>2019-04-21T09:47:38Z</time>
      </trkpt>
      <trkpt lat="48.01457" lon="-2.30193">
        <ele>109.98789579248</ele>
        <time>2019-04-21T09:47:47Z</time>
      </trkpt>
      <trkpt lat="48.01464" lon="-2.30189">
        <ele>110.98784640153</ele>
        <time>2019-04-21T09:47:56Z</time>
      </trkpt>
      <trkpt lat="48.01471" lon="-2.30183">
        <ele>110.98780164929</ele>
        <time>2019-04-21T09:48:05Z</time>
      </trkpt>
      <trkpt lat="48.01479" lon="-2.30178">
        <ele>112.98774808152</ele>
        <time>2019-04-21T09:48:15Z</time>
      </trkpt>
      <trkpt lat="48.01486" lon="-2.30171">
        <ele>113.98770429903</ele>
        <time>2019-04-21T09:48:26Z</time>
      </trkpt>
      <trkpt lat="48.01493" lon="-2.30169">
        <ele>113.98765466942</ele>
        <time>2019-04-21T09:48:37Z</time>
      </trkpt>
      <trkpt lat="48.01499" lon="-2.30163">
        <ele>113.98761393855</ele>
        <time>2019-04-21T09:48:46Z</time>
      </trkpt>
      <trkpt lat="48.01505" lon="-2.30157">
        <ele>112.98758391971</ele>
        <time>2019-04-21T09:48:50Z</time>
      </trkpt>
      <trkpt lat="48.01513" lon="-2.30153">
        <ele>114.98752885532</ele>
        <time>2019-04-21T09:49:00Z</time>
      </trkpt>
      <trkpt lat="48.01521" lon="-2.30152">
        <ele>117.9874605532</ele>
        <time>2019-04-21T09:49:09Z</time>
      </trkpt>
      <trkpt lat="48.01529" lon="-2.30145">
        <ele>122.9874117753</ele>
        <time>2019-04-21T09:49:19Z</time>
      </trkpt>
      <trkpt lat="48.01537" lon="-2.30139">
        <ele>124.98736122983</ele>
        <time>2019-04-21T09:49:29Z</time>
      </trkpt>
      <trkpt lat="48.01543" lon="-2.3013">
        <ele>127.98733600612</ele>
        <time>2019-04-21T09:49:39Z</time>
      </trkpt>
      <trkpt lat="48.01549" lon="-2.30124">
        <ele>128.98730293208</ele>
        <time>2019-04-21T09:49:46Z</time>
      </trkpt>
      <trkpt lat="48.01556" lon="-2.30118">
        <ele>126.98726048169</ele>
        <time>2019-04-21T09:49:52Z</time>
      </trkpt>
      <trkpt lat="48.01563" lon="-2.30112">
        <ele>125.98721615449</ele>
        <time>2019-04-21T09:50:00Z</time>
      </trkpt>
      <trkpt lat="48.01571" lon="-2.30107">
        <ele>126.987161708</ele>
        <time>2019-04-21T09:50:09Z</time>
      </trkpt>
      <trkpt lat="48.01579" lon="-2.30106">
        <ele>125.98709638687</ele>
        <time>2019-04-21T09:50:18Z</time>
      </trkpt>
      <trkpt lat="48.01586" lon="-2.30098">
        <ele>123.98706703722</ele>
        <time>2019-04-21T09:50:27Z</time>
      </trkpt>
      <trkpt lat="48.01592" lon="-2.3009">
        <ele>124.98703694273</ele>
        <time>2019-04-21T09:50:35Z</time>
      </trkpt>
      <trkpt lat="48.01599" lon="-2.30085">
        <ele>127.98699078457</ele>
        <time>2019-04-21T09:50:44Z</time>
      </trkpt>
      <trkpt lat="48.01607" lon="-2.3008">
        <ele>126.9869411571</ele>
        <time>2019-04-21T09:50:54Z</time>
      </trkpt>
      <trkpt lat="48.01613" lon="-2.30075">
        <ele>128.98690599126</ele>
        <time>2019-04-21T09:51:05Z</time>
      </trkpt>
      <trkpt lat="48.01622" lon="-2.30066">
        <ele>127.98685570133</ele>
        <time>2019-04-21T09:51:10Z</time>
      </trkpt>
      <trkpt lat="48.01629" lon="-2.30061">
        <ele>126.98680905538</ele>
        <time>2019-04-21T09:51:18Z</time>
      </trkpt>
      <trkpt lat="48.01635" lon="-2.30057">
        <ele>127.98676760702</ele>
        <time>2019-04-21T09:51:25Z</time>
      </trkpt>
      <trkpt lat="48.01642" lon="-2.3005">
        <ele>125.98673179836</ele>
        <time>2019-04-21T09:51:31Z</time>
      </trkpt>
      <trkpt lat="48.01648" lon="-2.30042">
        <ele>124.98670805592</ele>
        <time>2019-04-21T09:51:40Z</time>
      </trkpt>
      <trkpt lat="48.01655" lon="-2.30035">
        <ele>126.98666732925</ele>
        <time>2019-04-21T09:51:52Z</time>
      </trkpt>
      <trkpt lat="48.01661" lon="-2.30029">
        <ele>128.98663221672</ele>
        <time>2019-04-21T09:51:57Z</time>
      </trkpt>
      <trkpt lat="48.01673" lon="-2.30026">
        <ele>131.98654867521</ele>
        <time>2019-04-21T09:52:02Z</time>
      </trkpt>
      <trkpt lat="48.0168" lon="-2.30026">
        <ele>133.98649318021</ele>
        <time>2019-04-21T09:52:07Z</time>
      </trkpt>
      <trkpt lat="48.01689" lon="-2.30031">
        <ele>130.98640771575</ele>
        <time>2019-04-21T09:52:11Z</time>
      </trkpt>
      <trkpt lat="48.01695" lon="-2.30039">
        <ele>129.98633508388</ele>
        <time>2019-04-21T09:52:16Z</time>
      </trkpt>
      <trkpt lat="48.017" lon="-2.30047">
        <ele>129.98627569301</ele>
        <time>2019-04-21T09:52:21Z</time>
      </trkpt>
      <trkpt lat="48.01705" lon="-2.30055">
        <ele>130.98620768225</ele>
        <time>2019-04-21T09:52:27Z</time>
      </trkpt>
      <trkpt lat="48.01712" lon="-2.30063">
        <ele>131.98613416512</ele>
        <time>2019-04-21T09:52:34Z</time>
      </trkpt>
      <trkpt lat="48.01718" lon="-2.30072">
        <ele>130.98606279519</ele>
        <time>2019-04-21T09:52:40Z</time>
      </trkpt>
      <trkpt lat="48.01723" lon="-2.30081">
        <ele>133.98599269849</ele>
        <time>2019-04-21T09:52:49Z</time>
      </trkpt>
      <trkpt lat="48.01731" lon="-2.3008">
        <ele>133.98592909423</ele>
        <time>2019-04-21T09:52:57Z</time>
      </trkpt>
      <trkpt lat="48.01739" lon="-2.30074">
        <ele>133.98588092215</ele>
        <time>2019-04-21T09:53:02Z</time>
      </trkpt>
      <trkpt lat="48.01747" lon="-2.30068">
        <ele>132.98583357869</ele>
        <time>2019-04-21T09:53:08Z</time>
      </trkpt>
      <trkpt lat="48.01751" lon="-2.30057">
        <ele>132.98583605619</ele>
        <time>2019-04-21T09:53:13Z</time>
      </trkpt>
      <trkpt lat="48.01753" lon="-2.30045">
        <ele>131.9858495624</ele>
        <time>2019-04-21T09:53:21Z</time>
      </trkpt>
      <trkpt lat="48.01756" lon="-2.30034">
        <ele>132.98585373684</ele>
        <time>2019-04-21T09:53:28Z</time>
      </trkpt>
      <trkpt lat="48.0176" lon="-2.30024">
        <ele>132.98585181029</ele>
        <time>2019-04-21T09:53:33Z</time>
      </trkpt>
      <trkpt lat="48.01763" lon="-2.30013">
        <ele>132.9858623033</ele>
        <time>2019-04-21T09:53:40Z</time>
      </trkpt>
      <trkpt lat="48.01766" lon="-2.30001">
        <ele>133.98586574609</ele>
        <time>2019-04-21T09:53:47Z</time>
      </trkpt>
      <trkpt lat="48.0177" lon="-2.29992">
        <ele>134.98586078068</ele>
        <time>2019-04-21T09:53:54Z</time>
      </trkpt>
      <trkpt lat="48.01775" lon="-2.29982">
        <ele>137.98585296622</ele>
        <time>2019-04-21T09:53:59Z</time>
      </trkpt>
      <trkpt lat="48.01779" lon="-2.29971">
        <ele>137.98584839933</ele>
        <time>2019-04-21T09:54:06Z</time>
      </trkpt>
      <trkpt lat="48.01781" lon="-2.2996">
        <ele>142.98586571235</ele>
        <time>2019-04-21T09:54:15Z</time>
      </trkpt>
      <trkpt lat="48.01785" lon="-2.2995">
        <ele>142.98586685326</ele>
        <time>2019-04-21T09:54:20Z</time>
      </trkpt>
      <trkpt lat="48.0179" lon="-2.29939">
        <ele>139.985851448</ele>
        <time>2019-04-21T09:54:28Z</time>
      </trkpt>
      <trkpt lat="48.01798" lon="-2.29937">
        <ele>140.9857934646</ele>
        <time>2019-04-21T09:54:44Z</time>
      </trkpt>
      <trkpt lat="48.01806" lon="-2.29943">
        <ele>142.98571374305</ele>
        <time>2019-04-21T09:54:52Z</time>
      </trkpt>
      <trkpt lat="48.01813" lon="-2.29953">
        <ele>138.98563770543</ele>
        <time>2019-04-21T09:55:21Z</time>
      </trkpt>
      <trkpt lat="48.01821" lon="-2.29958">
        <ele>138.98555736154</ele>
        <time>2019-04-21T09:55:28Z</time>
      </trkpt>
      <trkpt lat="48.01828" lon="-2.29964">
        <ele>137.98547900147</ele>
        <time>2019-04-21T09:55:36Z</time>
      </trkpt>
      <trkpt lat="48.01835" lon="-2.29968">
        <ele>137.9854164936</ele>
        <time>2019-04-21T09:55:42Z</time>
      </trkpt>
      <trkpt lat="48.01842" lon="-2.29975">
        <ele>137.98534099607</ele>
        <time>2019-04-21T09:55:48Z</time>
      </trkpt>
      <trkpt lat="48.01849" lon="-2.29982">
        <ele>137.98526305306</ele>
        <time>2019-04-21T09:55:56Z</time>
      </trkpt>
      <trkpt lat="48.01857" lon="-2.29986">
        <ele>138.98518961748</ele>
        <time>2019-04-21T09:56:03Z</time>
      </trkpt>
      <trkpt lat="48.01862" lon="-2.29992">
        <ele>139.98513110345</ele>
        <time>2019-04-21T09:56:09Z</time>
      </trkpt>
      <trkpt lat="48.01868" lon="-2.3">
        <ele>139.98505409808</ele>
        <time>2019-04-21T09:56:16Z</time>
      </trkpt>
      <trkpt lat="48.01876" lon="-2.29999">
        <ele>140.98499345006</ele>
        <time>2019-04-21T09:56:24Z</time>
      </trkpt>
      <trkpt lat="48.01884" lon="-2.30005">
        <ele>140.98491218454</ele>
        <time>2019-04-21T09:56:32Z</time>
      </trkpt>
      <trkpt lat="48.01892" lon="-2.30008">
        <ele>140.98484060897</ele>
        <time>2019-04-21T09:56:39Z</time>
      </trkpt>
      <trkpt lat="48.01901" lon="-2.3001">
        <ele>139.98476344881</ele>
        <time>2019-04-21T09:56:47Z</time>
      </trkpt>
      <trkpt lat="48.01909" lon="-2.30013">
        <ele>139.98469002926</ele>
        <time>2019-04-21T09:56:56Z</time>
      </trkpt>
      <trkpt lat="48.01917" lon="-2.30017">
        <ele>139.98461431618</ele>
        <time>2019-04-21T09:57:01Z</time>
      </trkpt>
      <trkpt lat="48.01924" lon="-2.30023">
        <ele>136.98453852838</ele>
        <time>2019-04-21T09:57:08Z</time>
      </trkpt>
      <trkpt lat="48.0193" lon="-2.30015">
        <ele>136.98451245312</ele>
        <time>2019-04-21T09:57:59Z</time>
      </trkpt>
      <trkpt lat="48.01939" lon="-2.30016">
        <ele>135.98444263537</ele>
        <time>2019-04-21T09:58:32Z</time>
      </trkpt>
      <trkpt lat="48.01947" lon="-2.3002">
        <ele>136.98436480172</ele>
        <time>2019-04-21T09:58:40Z</time>
      </trkpt>
      <trkpt lat="48.01947" lon="-2.30032">
        <ele>137.98432461056</ele>
        <time>2019-04-21T09:59:16Z</time>
      </trkpt>
      <trkpt lat="48.01943" lon="-2.30043">
        <ele>137.98432228087</ele>
        <time>2019-04-21T09:59:23Z</time>
      </trkpt>
      <trkpt lat="48.01939" lon="-2.30054">
        <ele>137.98432131162</ele>
        <time>2019-04-21T09:59:31Z</time>
      </trkpt>
      <trkpt lat="48.01937" lon="-2.30065">
        <ele>136.98430238073</ele>
        <time>2019-04-21T09:59:38Z</time>
      </trkpt>
      <trkpt lat="48.01937" lon="-2.30078">
        <ele>136.98426555067</ele>
        <time>2019-04-21T09:59:47Z</time>
      </trkpt>
      <trkpt lat="48.01936" lon="-2.30091">
        <ele>135.98423278519</ele>
        <time>2019-04-21T09:59:55Z</time>
      </trkpt>
      <trkpt lat="48.01935" lon="-2.30104">
        <ele>133.9841996838</ele>
        <time>2019-04-21T10:00:02Z</time>
      </trkpt>
      <trkpt lat="48.01934" lon="-2.30117">
        <ele>133.98416320954</ele>
        <time>2019-04-21T10:00:12Z</time>
      </trkpt>
      <trkpt lat="48.01934" lon="-2.3013">
        <ele>132.98413098693</ele>
        <time>2019-04-21T10:00:19Z</time>
      </trkpt>
      <trkpt lat="48.01932" lon="-2.30142">
        <ele>133.98410084165</ele>
        <time>2019-04-21T10:00:26Z</time>
      </trkpt>
      <trkpt lat="48.01932" lon="-2.30154">
        <ele>133.98407065958</ele>
        <time>2019-04-21T10:00:33Z</time>
      </trkpt>
      <trkpt lat="48.01932" lon="-2.30167">
        <ele>132.98402479186</ele>
        <time>2019-04-21T10:00:42Z</time>
      </trkpt>
      <trkpt lat="48.01931" lon="-2.30181">
        <ele>133.98399504348</ele>
        <time>2019-04-21T10:00:49Z</time>
      </trkpt>
      <trkpt lat="48.0193" lon="-2.30193">
        <ele>132.98396502344</ele>
        <time>2019-04-21T10:00:56Z</time>
      </trkpt>
      <trkpt lat="48.01928" lon="-2.30206">
        <ele>132.98394600685</ele>
        <time>2019-04-21T10:01:15Z</time>
      </trkpt>
      <trkpt lat="48.01928" lon="-2.30217">
        <ele>132.98390484577</ele>
        <time>2019-04-21T10:01:24Z</time>
      </trkpt>
      <trkpt lat="48.01929" lon="-2.3023">
        <ele>132.98386083583</ele>
        <time>2019-04-21T10:01:32Z</time>
      </trkpt>
      <trkpt lat="48.01928" lon="-2.30243">
        <ele>132.98382811955</ele>
        <time>2019-04-21T10:01:41Z</time>
      </trkpt>
      <trkpt lat="48.01926" lon="-2.30256">
        <ele>134.98380647111</ele>
        <time>2019-04-21T10:01:49Z</time>
      </trkpt>
      <trkpt lat="48.01922" lon="-2.30267">
        <ele>135.98380634075</ele>
        <time>2019-04-21T10:01:56Z</time>
      </trkpt>
      <trkpt lat="48.01919" lon="-2.30279">
        <ele>137.98379028425</ele>
        <time>2019-04-21T10:02:03Z</time>
      </trkpt>
      <trkpt lat="48.01919" lon="-2.30292">
        <ele>139.98375055802</ele>
        <time>2019-04-21T10:02:11Z</time>
      </trkpt>
      <trkpt lat="48.01919" lon="-2.30304">
        <ele>139.98371713481</ele>
        <time>2019-04-21T10:02:18Z</time>
      </trkpt>
      <trkpt lat="48.01919" lon="-2.30317">
        <ele>137.98367677735</ele>
        <time>2019-04-21T10:02:31Z</time>
      </trkpt>
      <trkpt lat="48.01918" lon="-2.3033">
        <ele>137.98364092297</ele>
        <time>2019-04-21T10:02:39Z</time>
      </trkpt>
      <trkpt lat="48.01916" lon="-2.30342">
        <ele>138.98362915155</ele>
        <time>2019-04-21T10:02:47Z</time>
      </trkpt>
      <trkpt lat="48.01915" lon="-2.30352">
        <ele>137.98360505725</ele>
        <time>2019-04-21T10:02:52Z</time>
      </trkpt>
      <trkpt lat="48.01913" lon="-2.30363">
        <ele>135.98358529851</ele>
        <time>2019-04-21T10:02:57Z</time>
      </trkpt>
      <trkpt lat="48.01912" lon="-2.30374">
        <ele>138.98356239698</ele>
        <time>2019-04-21T10:03:07Z</time>
      </trkpt>
      <trkpt lat="48.01912" lon="-2.30387">
        <ele>135.98351720841</ele>
        <time>2019-04-21T10:03:13Z</time>
      </trkpt>
      <trkpt lat="48.01912" lon="-2.304">
        <ele>130.98348074806</ele>
        <time>2019-04-21T10:03:21Z</time>
      </trkpt>
      <trkpt lat="48.01911" lon="-2.30413">
        <ele>133.98345170829</ele>
        <time>2019-04-21T10:03:31Z</time>
      </trkpt>
      <trkpt lat="48.01913" lon="-2.30424">
        <ele>129.98339891362</ele>
        <time>2019-04-21T10:03:45Z</time>
      </trkpt>
      <trkpt lat="48.01912" lon="-2.30435">
        <ele>129.98337281797</ele>
        <time>2019-04-21T10:03:53Z</time>
      </trkpt>
      <trkpt lat="48.01911" lon="-2.30446">
        <ele>128.98334747709</ele>
        <time>2019-04-21T10:03:58Z</time>
      </trkpt>
      <trkpt lat="48.01909" lon="-2.30457">
        <ele>127.98333000433</ele>
        <time>2019-04-21T10:04:05Z</time>
      </trkpt>
      <trkpt lat="48.01909" lon="-2.30469">
        <ele>126.98329489979</ele>
        <time>2019-04-21T10:04:13Z</time>
      </trkpt>
      <trkpt lat="48.01906" lon="-2.30482">
        <ele>125.98328021004</ele>
        <time>2019-04-21T10:04:23Z</time>
      </trkpt>
      <trkpt lat="48.01905" lon="-2.30494">
        <ele>126.98325583039</ele>
        <time>2019-04-21T10:04:29Z</time>
      </trkpt>
      <trkpt lat="48.01903" lon="-2.30507">
        <ele>127.98323558064</ele>
        <time>2019-04-21T10:04:42Z</time>
      </trkpt>
      <trkpt lat="48.01905" lon="-2.30519">
        <ele>127.98318071102</ele>
        <time>2019-04-21T10:04:50Z</time>
      </trkpt>
      <trkpt lat="48.01902" lon="-2.30531">
        <ele>127.98316844588</ele>
        <time>2019-04-21T10:04:58Z</time>
      </trkpt>
      <trkpt lat="48.01903" lon="-2.30543">
        <ele>131.98312891288</ele>
        <time>2019-04-21T10:05:05Z</time>
      </trkpt>
      <trkpt lat="48.01901" lon="-2.30552">
        <ele>134.98311487001</ele>
        <time>2019-04-21T10:05:13Z</time>
      </trkpt>
      <trkpt lat="48.01898" lon="-2.30564">
        <ele>135.98310090229</ele>
        <time>2019-04-21T10:05:19Z</time>
      </trkpt>
      <trkpt lat="48.01899" lon="-2.30576">
        <ele>135.98305518433</ele>
        <time>2019-04-21T10:05:26Z</time>
      </trkpt>
      <trkpt lat="48.019" lon="-2.30589">
        <ele>135.98300819542</ele>
        <time>2019-04-21T10:05:35Z</time>
      </trkpt>
      <trkpt lat="48.019" lon="-2.30597">
        <ele>135.98298517936</ele>
        <time>2019-04-21T10:05:41Z</time>
      </trkpt>
      <trkpt lat="48.01899" lon="-2.3061">
        <ele>133.98295771452</ele>
        <time>2019-04-21T10:05:48Z</time>
      </trkpt>
      <trkpt lat="48.01899" lon="-2.30622">
        <ele>132.98292329774</ele>
        <time>2019-04-21T10:05:57Z</time>
      </trkpt>
      <trkpt lat="48.01898" lon="-2.30634">
        <ele>131.98289374258</ele>
        <time>2019-04-21T10:06:06Z</time>
      </trkpt>
      <trkpt lat="48.01898" lon="-2.30645">
        <ele>130.98285738688</ele>
        <time>2019-04-21T10:06:10Z</time>
      </trkpt>
      <trkpt lat="48.01898" lon="-2.30657">
        <ele>129.98282032688</ele>
        <time>2019-04-21T10:06:17Z</time>
      </trkpt>
      <trkpt lat="48.01898" lon="-2.3067">
        <ele>126.98278046613</ele>
        <time>2019-04-21T10:06:29Z</time>
      </trkpt>
      <trkpt lat="48.01897" lon="-2.30683">
        <ele>125.98275451814</ele>
        <time>2019-04-21T10:06:41Z</time>
      </trkpt>
      <trkpt lat="48.01896" lon="-2.30694">
        <ele>123.98272962248</ele>
        <time>2019-04-21T10:06:46Z</time>
      </trkpt>
      <trkpt lat="48.01896" lon="-2.30706">
        <ele>120.98269388081</ele>
        <time>2019-04-21T10:06:55Z</time>
      </trkpt>
      <trkpt lat="48.01893" lon="-2.30718">
        <ele>120.98268113825</ele>
        <time>2019-04-21T10:07:05Z</time>
      </trkpt>
      <trkpt lat="48.01892" lon="-2.3073">
        <ele>117.98265571696</ele>
        <time>2019-04-21T10:07:14Z</time>
      </trkpt>
      <trkpt lat="48.01891" lon="-2.30741">
        <ele>119.98263271355</ele>
        <time>2019-04-21T10:07:20Z</time>
      </trkpt>
      <trkpt lat="48.01897" lon="-2.30749">
        <ele>116.98255183522</ele>
        <time>2019-04-21T10:07:38Z</time>
      </trkpt>
      <trkpt lat="48.01904" lon="-2.30745">
        <ele>113.98249536284</ele>
        <time>2019-04-21T10:07:44Z</time>
      </trkpt>
      <trkpt lat="48.01911" lon="-2.3074">
        <ele>112.98244673941</ele>
        <time>2019-04-21T10:07:49Z</time>
      </trkpt>
      <trkpt lat="48.01918" lon="-2.30733">
        <ele>113.98240451636</ele>
        <time>2019-04-21T10:07:57Z</time>
      </trkpt>
      <trkpt lat="48.01926" lon="-2.30727">
        <ele>114.98235132557</ele>
        <time>2019-04-21T10:08:10Z</time>
      </trkpt>
      <trkpt lat="48.01934" lon="-2.30723">
        <ele>113.98229109409</ele>
        <time>2019-04-21T10:08:17Z</time>
      </trkpt>
      <trkpt lat="48.01942" lon="-2.30718">
        <ele>111.98223553211</ele>
        <time>2019-04-21T10:08:27Z</time>
      </trkpt>
      <trkpt lat="48.01949" lon="-2.30712">
        <ele>113.98218478899</ele>
        <time>2019-04-21T10:08:34Z</time>
      </trkpt>
      <trkpt lat="48.01958" lon="-2.30709">
        <ele>111.98211515041</ele>
        <time>2019-04-21T10:08:42Z</time>
      </trkpt>
      <trkpt lat="48.01966" lon="-2.30706">
        <ele>112.98205468384</ele>
        <time>2019-04-21T10:08:49Z</time>
      </trkpt>
      <trkpt lat="48.01974" lon="-2.30702">
        <ele>111.98199603376</ele>
        <time>2019-04-21T10:08:55Z</time>
      </trkpt>
      <trkpt lat="48.0198" lon="-2.30694">
        <ele>113.98195737669</ele>
        <time>2019-04-21T10:09:03Z</time>
      </trkpt>
      <trkpt lat="48.01986" lon="-2.30687">
        <ele>113.98193039745</ele>
        <time>2019-04-21T10:09:11Z</time>
      </trkpt>
      <trkpt lat="48.01993" lon="-2.30681">
        <ele>110.98188674116</ele>
        <time>2019-04-21T10:09:16Z</time>
      </trkpt>
      <trkpt lat="48.02001" lon="-2.30675">
        <ele>110.98183457958</ele>
        <time>2019-04-21T10:09:23Z</time>
      </trkpt>
      <trkpt lat="48.02009" lon="-2.30668">
        <ele>110.98178227173</ele>
        <time>2019-04-21T10:09:31Z</time>
      </trkpt>
      <trkpt lat="48.02017" lon="-2.30665">
        <ele>112.98171619183</ele>
        <time>2019-04-21T10:09:42Z</time>
      </trkpt>
      <trkpt lat="48.02024" lon="-2.30657">
        <ele>112.98168287565</ele>
        <time>2019-04-21T10:09:49Z</time>
      </trkpt>
      <trkpt lat="48.0203" lon="-2.30649">
        <ele>113.98165350539</ele>
        <time>2019-04-21T10:09:57Z</time>
      </trkpt>
      <trkpt lat="48.02038" lon="-2.3065">
        <ele>111.98157574167</ele>
        <time>2019-04-21T10:10:04Z</time>
      </trkpt>
      <trkpt lat="48.02047" lon="-2.30648">
        <ele>110.98150530798</ele>
        <time>2019-04-21T10:10:11Z</time>
      </trkpt>
      <trkpt lat="48.02053" lon="-2.3064">
        <ele>111.98146949223</ele>
        <time>2019-04-21T10:10:18Z</time>
      </trkpt>
      <trkpt lat="48.0206" lon="-2.30632">
        <ele>112.98143332753</ele>
        <time>2019-04-21T10:10:25Z</time>
      </trkpt>
      <trkpt lat="48.02065" lon="-2.30622">
        <ele>114.98142901875</ele>
        <time>2019-04-21T10:10:33Z</time>
      </trkpt>
      <trkpt lat="48.02067" lon="-2.3061">
        <ele>112.98145241734</ele>
        <time>2019-04-21T10:10:39Z</time>
      </trkpt>
      <trkpt lat="48.02069" lon="-2.30604">
        <ele>111.9814500507</ele>
        <time>2019-04-21T10:10:45Z</time>
      </trkpt>
      <trkpt lat="48.02075" lon="-2.30595">
        <ele>111.98142168286</ele>
        <time>2019-04-21T10:10:52Z</time>
      </trkpt>
      <trkpt lat="48.02081" lon="-2.30588">
        <ele>111.98139239704</ele>
        <time>2019-04-21T10:10:59Z</time>
      </trkpt>
      <trkpt lat="48.02084" lon="-2.30576">
        <ele>113.98140576068</ele>
        <time>2019-04-21T10:11:08Z</time>
      </trkpt>
      <trkpt lat="48.02091" lon="-2.30569">
        <ele>115.98137045166</ele>
        <time>2019-04-21T10:11:17Z</time>
      </trkpt>
      <trkpt lat="48.02094" lon="-2.30558">
        <ele>116.98137867789</ele>
        <time>2019-04-21T10:11:23Z</time>
      </trkpt>
      <trkpt lat="48.02097" lon="-2.30546">
        <ele>118.98139402151</ele>
        <time>2019-04-21T10:11:30Z</time>
      </trkpt>
      <trkpt lat="48.021" lon="-2.30534">
        <ele>120.98140457819</ele>
        <time>2019-04-21T10:11:38Z</time>
      </trkpt>
      <trkpt lat="48.02103" lon="-2.30523">
        <ele>120.98141370978</ele>
        <time>2019-04-21T10:11:45Z</time>
      </trkpt>
      <trkpt lat="48.02107" lon="-2.30512">
        <ele>121.98141874465</ele>
        <time>2019-04-21T10:11:54Z</time>
      </trkpt>
      <trkpt lat="48.0211" lon="-2.30501">
        <ele>123.98143275824</ele>
        <time>2019-04-21T10:12:06Z</time>
      </trkpt>
      <trkpt lat="48.02113" lon="-2.30488">
        <ele>123.98144614358</ele>
        <time>2019-04-21T10:12:16Z</time>
      </trkpt>
      <trkpt lat="48.02116" lon="-2.30476">
        <ele>125.98146007917</ele>
        <time>2019-04-21T10:12:38Z</time>
      </trkpt>
      <trkpt lat="48.02117" lon="-2.30464">
        <ele>126.98149474164</ele>
        <time>2019-04-21T10:12:45Z</time>
      </trkpt>
      <trkpt lat="48.02119" lon="-2.30452">
        <ele>126.98151882949</ele>
        <time>2019-04-21T10:12:53Z</time>
      </trkpt>
      <trkpt lat="48.02123" lon="-2.30442">
        <ele>125.98151688299</ele>
        <time>2019-04-21T10:13:00Z</time>
      </trkpt>
      <trkpt lat="48.02124" lon="-2.3043">
        <ele>126.98154670078</ele>
        <time>2019-04-21T10:13:07Z</time>
      </trkpt>
      <trkpt lat="48.02123" lon="-2.30418">
        <ele>126.98160239727</ele>
        <time>2019-04-21T10:13:16Z</time>
      </trkpt>
      <trkpt lat="48.02124" lon="-2.30405">
        <ele>125.98163286013</ele>
        <time>2019-04-21T10:13:25Z</time>
      </trkpt>
      <trkpt lat="48.02125" lon="-2.30392">
        <ele>128.98166613695</ele>
        <time>2019-04-21T10:13:36Z</time>
      </trkpt>
      <trkpt lat="48.02124" lon="-2.3038">
        <ele>128.98172132773</ele>
        <time>2019-04-21T10:13:42Z</time>
      </trkpt>
      <trkpt lat="48.02122" lon="-2.30368">
        <ele>129.98177547984</ele>
        <time>2019-04-21T10:13:48Z</time>
      </trkpt>
      <trkpt lat="48.02119" lon="-2.30356">
        <ele>129.98183907757</ele>
        <time>2019-04-21T10:13:58Z</time>
      </trkpt>
      <trkpt lat="48.02119" lon="-2.30344">
        <ele>129.98187983787</ele>
        <time>2019-04-21T10:14:05Z</time>
      </trkpt>
      <trkpt lat="48.0212" lon="-2.30331">
        <ele>128.9819131714</ele>
        <time>2019-04-21T10:14:13Z</time>
      </trkpt>
      <trkpt lat="48.02118" lon="-2.3032">
        <ele>129.98197055973</ele>
        <time>2019-04-21T10:14:20Z</time>
      </trkpt>
      <trkpt lat="48.02118" lon="-2.30307">
        <ele>130.98201590767</ele>
        <time>2019-04-21T10:14:29Z</time>
      </trkpt>
      <trkpt lat="48.0212" lon="-2.30294">
        <ele>130.98204634751</ele>
        <time>2019-04-21T10:14:39Z</time>
      </trkpt>
      <trkpt lat="48.02122" lon="-2.30283">
        <ele>130.98206633212</ele>
        <time>2019-04-21T10:14:45Z</time>
      </trkpt>
      <trkpt lat="48.02123" lon="-2.3027">
        <ele>131.98209729493</ele>
        <time>2019-04-21T10:14:52Z</time>
      </trkpt>
      <trkpt lat="48.02125" lon="-2.30257">
        <ele>130.98212880229</ele>
        <time>2019-04-21T10:15:01Z</time>
      </trkpt>
      <trkpt lat="48.02125" lon="-2.30244">
        <ele>131.98217365688</ele>
        <time>2019-04-21T10:15:09Z</time>
      </trkpt>
      <trkpt lat="48.02125" lon="-2.30233">
        <ele>132.98220605624</ele>
        <time>2019-04-21T10:15:18Z</time>
      </trkpt>
      <trkpt lat="48.02128" lon="-2.30222">
        <ele>132.98222045263</ele>
        <time>2019-04-21T10:15:25Z</time>
      </trkpt>
      <trkpt lat="48.02131" lon="-2.30211">
        <ele>132.98223153396</ele>
        <time>2019-04-21T10:15:30Z</time>
      </trkpt>
      <trkpt lat="48.02133" lon="-2.30198">
        <ele>133.98226229146</ele>
        <time>2019-04-21T10:15:37Z</time>
      </trkpt>
      <trkpt lat="48.02134" lon="-2.30186">
        <ele>133.98229850764</ele>
        <time>2019-04-21T10:15:46Z</time>
      </trkpt>
      <trkpt lat="48.02135" lon="-2.30175">
        <ele>134.98232548386</ele>
        <time>2019-04-21T10:15:54Z</time>
      </trkpt>
      <trkpt lat="48.02136" lon="-2.30162">
        <ele>135.98236111115</ele>
        <time>2019-04-21T10:16:02Z</time>
      </trkpt>
      <trkpt lat="48.02139" lon="-2.3015">
        <ele>134.98237775525</ele>
        <time>2019-04-21T10:16:11Z</time>
      </trkpt>
      <trkpt lat="48.02137" lon="-2.30137">
        <ele>135.98243237272</ele>
        <time>2019-04-21T10:16:17Z</time>
      </trkpt>
      <trkpt lat="48.02137" lon="-2.30125">
        <ele>136.98247888867</ele>
        <time>2019-04-21T10:16:23Z</time>
      </trkpt>
      <trkpt lat="48.02138" lon="-2.30113">
        <ele>137.98251177248</ele>
        <time>2019-04-21T10:16:30Z</time>
      </trkpt>
      <trkpt lat="48.02141" lon="-2.30101">
        <ele>135.98252479458</ele>
        <time>2019-04-21T10:16:38Z</time>
      </trkpt>
      <trkpt lat="48.02143" lon="-2.30089">
        <ele>135.98255351808</ele>
        <time>2019-04-21T10:16:46Z</time>
      </trkpt>
      <trkpt lat="48.02144" lon="-2.30077">
        <ele>135.98258806161</ele>
        <time>2019-04-21T10:16:53Z</time>
      </trkpt>
      <trkpt lat="48.02143" lon="-2.30065">
        <ele>133.98263647413</ele>
        <time>2019-04-21T10:17:00Z</time>
      </trkpt>
      <trkpt lat="48.02144" lon="-2.30053">
        <ele>133.98266867262</ele>
        <time>2019-04-21T10:17:07Z</time>
      </trkpt>
      <trkpt lat="48.02143" lon="-2.3004">
        <ele>136.98271917892</ele>
        <time>2019-04-21T10:17:17Z</time>
      </trkpt>
      <trkpt lat="48.02139" lon="-2.3003">
        <ele>137.98278147615</ele>
        <time>2019-04-21T10:17:24Z</time>
      </trkpt>
      <trkpt lat="48.02137" lon="-2.30018">
        <ele>137.98284625295</ele>
        <time>2019-04-21T10:17:31Z</time>
      </trkpt>
      <trkpt lat="48.02134" lon="-2.30006">
        <ele>140.98290338617</ele>
        <time>2019-04-21T10:17:38Z</time>
      </trkpt>
      <trkpt lat="48.02131" lon="-2.29997">
        <ele>139.98296107452</ele>
        <time>2019-04-21T10:17:45Z</time>
      </trkpt>
      <trkpt lat="48.02132" lon="-2.29984">
        <ele>139.98299959344</ele>
        <time>2019-04-21T10:17:51Z</time>
      </trkpt>
      <trkpt lat="48.02136" lon="-2.29973">
        <ele>138.98300868074</ele>
        <time>2019-04-21T10:17:58Z</time>
      </trkpt>
      <trkpt lat="48.02141" lon="-2.29964">
        <ele>138.98300076838</ele>
        <time>2019-04-21T10:18:05Z</time>
      </trkpt>
      <trkpt lat="48.02145" lon="-2.29953">
        <ele>138.98299839656</ele>
        <time>2019-04-21T10:18:16Z</time>
      </trkpt>
      <trkpt lat="48.0215" lon="-2.29943">
        <ele>135.98299749257</ele>
        <time>2019-04-21T10:18:24Z</time>
      </trkpt>
      <trkpt lat="48.02156" lon="-2.29934">
        <ele>135.98298057564</ele>
        <time>2019-04-21T10:18:32Z</time>
      </trkpt>
      <trkpt lat="48.02162" lon="-2.29925">
        <ele>135.98296441094</ele>
        <time>2019-04-21T10:18:39Z</time>
      </trkpt>
      <trkpt lat="48.02166" lon="-2.29914">
        <ele>134.98297032063</ele>
        <time>2019-04-21T10:18:46Z</time>
      </trkpt>
      <trkpt lat="48.02172" lon="-2.29904">
        <ele>133.98295636025</ele>
        <time>2019-04-21T10:18:56Z</time>
      </trkpt>
      <trkpt lat="48.02178" lon="-2.29895">
        <ele>134.98294393143</ele>
        <time>2019-04-21T10:19:03Z</time>
      </trkpt>
      <trkpt lat="48.02182" lon="-2.29885">
        <ele>131.98294543385</ele>
        <time>2019-04-21T10:19:10Z</time>
      </trkpt>
      <trkpt lat="48.0219" lon="-2.29881">
        <ele>131.98290012124</ele>
        <time>2019-04-21T10:19:17Z</time>
      </trkpt>
      <trkpt lat="48.02198" lon="-2.29878">
        <ele>129.9828431718</ele>
        <time>2019-04-21T10:19:30Z</time>
      </trkpt>
      <trkpt lat="48.02207" lon="-2.29877">
        <ele>130.9827787812</ele>
        <time>2019-04-21T10:19:37Z</time>
      </trkpt>
      <trkpt lat="48.02216" lon="-2.29875">
        <ele>129.98271859257</ele>
        <time>2019-04-21T10:19:45Z</time>
      </trkpt>
      <trkpt lat="48.02224" lon="-2.29869">
        <ele>128.98267572356</ele>
        <time>2019-04-21T10:19:55Z</time>
      </trkpt>
      <trkpt lat="48.02221" lon="-2.29856">
        <ele>128.98274249686</ele>
        <time>2019-04-21T10:20:08Z</time>
      </trkpt>
      <trkpt lat="48.02219" lon="-2.29843">
        <ele>128.98280492767</ele>
        <time>2019-04-21T10:20:16Z</time>
      </trkpt>
      <trkpt lat="48.02218" lon="-2.2983">
        <ele>127.98285729412</ele>
        <time>2019-04-21T10:20:24Z</time>
      </trkpt>
      <trkpt lat="48.02216" lon="-2.29818">
        <ele>126.98292061949</ele>
        <time>2019-04-21T10:20:31Z</time>
      </trkpt>
      <trkpt lat="48.02213" lon="-2.29806">
        <ele>128.98298365278</ele>
        <time>2019-04-21T10:20:39Z</time>
      </trkpt>
      <trkpt lat="48.02209" lon="-2.29795">
        <ele>131.98305374924</ele>
        <time>2019-04-21T10:20:48Z</time>
      </trkpt>
      <trkpt lat="48.02206" lon="-2.29785">
        <ele>132.98311617591</ele>
        <time>2019-04-21T10:20:54Z</time>
      </trkpt>
      <trkpt lat="48.022" lon="-2.29777">
        <ele>130.98318586588</ele>
        <time>2019-04-21T10:20:59Z</time>
      </trkpt>
      <trkpt lat="48.02191" lon="-2.29776">
        <ele>128.98325419016</ele>
        <time>2019-04-21T10:21:06Z</time>
      </trkpt>
      <trkpt lat="48.02183" lon="-2.29774">
        <ele>128.98332191901</ele>
        <time>2019-04-21T10:21:12Z</time>
      </trkpt>
      <trkpt lat="48.02177" lon="-2.29782">
        <ele>127.98334324076</ele>
        <time>2019-04-21T10:21:23Z</time>
      </trkpt>
      <trkpt lat="48.0217" lon="-2.29775">
        <ele>126.98342025894</ele>
        <time>2019-04-21T10:21:31Z</time>
      </trkpt>
      <trkpt lat="48.02169" lon="-2.29763">
        <ele>126.98347250926</ele>
        <time>2019-04-21T10:21:42Z</time>
      </trkpt>
      <trkpt lat="48.02168" lon="-2.29751">
        <ele>128.98352022168</ele>
        <time>2019-04-21T10:21:52Z</time>
      </trkpt>
      <trkpt lat="48.02165" lon="-2.29739">
        <ele>127.98358840227</ele>
        <time>2019-04-21T10:22:00Z</time>
      </trkpt>
      <trkpt lat="48.02162" lon="-2.29727">
        <ele>127.98364812352</ele>
        <time>2019-04-21T10:22:08Z</time>
      </trkpt>
      <trkpt lat="48.02159" lon="-2.29715">
        <ele>126.98371412767</ele>
        <time>2019-04-21T10:22:16Z</time>
      </trkpt>
      <trkpt lat="48.02155" lon="-2.29704">
        <ele>126.98378128251</ele>
        <time>2019-04-21T10:22:25Z</time>
      </trkpt>
      <trkpt lat="48.02153" lon="-2.29692">
        <ele>126.98383726942</ele>
        <time>2019-04-21T10:22:34Z</time>
      </trkpt>
      <trkpt lat="48.02153" lon="-2.29678">
        <ele>126.98388627398</ele>
        <time>2019-04-21T10:22:41Z</time>
      </trkpt>
      <trkpt lat="48.02152" lon="-2.29665">
        <ele>125.98393819799</ele>
        <time>2019-04-21T10:22:48Z</time>
      </trkpt>
      <trkpt lat="48.02151" lon="-2.29654">
        <ele>129.98398488109</ele>
        <time>2019-04-21T10:22:54Z</time>
      </trkpt>
      <trkpt lat="48.02149" lon="-2.29642">
        <ele>130.98403814319</ele>
        <time>2019-04-21T10:23:03Z</time>
      </trkpt>
      <trkpt lat="48.02148" lon="-2.29629">
        <ele>131.98409547297</ele>
        <time>2019-04-21T10:23:09Z</time>
      </trkpt>
      <trkpt lat="48.02145" lon="-2.29617">
        <ele>132.98415306234</ele>
        <time>2019-04-21T10:23:18Z</time>
      </trkpt>
      <trkpt lat="48.02146" lon="-2.29604">
        <ele>133.98418975258</ele>
        <time>2019-04-21T10:23:25Z</time>
      </trkpt>
      <trkpt lat="48.02141" lon="-2.29595">
        <ele>134.98425853854</ele>
        <time>2019-04-21T10:23:31Z</time>
      </trkpt>
      <trkpt lat="48.02136" lon="-2.29585">
        <ele>131.98433592995</ele>
        <time>2019-04-21T10:23:38Z</time>
      </trkpt>
      <trkpt lat="48.02135" lon="-2.29571">
        <ele>134.98438490418</ele>
        <time>2019-04-21T10:23:46Z</time>
      </trkpt>
      <trkpt lat="48.02142" lon="-2.29563">
        <ele>133.98436298572</ele>
        <time>2019-04-21T10:23:55Z</time>
      </trkpt>
      <trkpt lat="48.02148" lon="-2.29555">
        <ele>134.98434221567</ele>
        <time>2019-04-21T10:24:04Z</time>
      </trkpt>
      <trkpt lat="48.02155" lon="-2.29548">
        <ele>133.98431879201</ele>
        <time>2019-04-21T10:24:12Z</time>
      </trkpt>
      <trkpt lat="48.02163" lon="-2.2954">
        <ele>133.9842911377</ele>
        <time>2019-04-21T10:24:19Z</time>
      </trkpt>
      <trkpt lat="48.02168" lon="-2.29532">
        <ele>132.98427842102</ele>
        <time>2019-04-21T10:24:27Z</time>
      </trkpt>
      <trkpt lat="48.02175" lon="-2.29526">
        <ele>132.98424516911</ele>
        <time>2019-04-21T10:24:37Z</time>
      </trkpt>
      <trkpt lat="48.02183" lon="-2.29519">
        <ele>132.98421708105</ele>
        <time>2019-04-21T10:24:43Z</time>
      </trkpt>
      <trkpt lat="48.0219" lon="-2.29513">
        <ele>131.9841840944</ele>
        <time>2019-04-21T10:24:50Z</time>
      </trkpt>
      <trkpt lat="48.02199" lon="-2.29509">
        <ele>134.98413700359</ele>
        <time>2019-04-21T10:24:57Z</time>
      </trkpt>
      <trkpt lat="48.02207" lon="-2.29504">
        <ele>134.98409785253</ele>
        <time>2019-04-21T10:25:05Z</time>
      </trkpt>
      <trkpt lat="48.02214" lon="-2.29499">
        <ele>130.9840641979</ele>
        <time>2019-04-21T10:25:12Z</time>
      </trkpt>
      <trkpt lat="48.02221" lon="-2.29495">
        <ele>130.98402751561</ele>
        <time>2019-04-21T10:25:18Z</time>
      </trkpt>
      <trkpt lat="48.02229" lon="-2.2949">
        <ele>130.98398916451</ele>
        <time>2019-04-21T10:25:24Z</time>
      </trkpt>
      <trkpt lat="48.02236" lon="-2.29482">
        <ele>129.98396816074</ele>
        <time>2019-04-21T10:25:32Z</time>
      </trkpt>
      <trkpt lat="48.02243" lon="-2.29476">
        <ele>127.9839353336</ele>
        <time>2019-04-21T10:25:40Z</time>
      </trkpt>
      <trkpt lat="48.0225" lon="-2.29473">
        <ele>126.98389500045</ele>
        <time>2019-04-21T10:25:47Z</time>
      </trkpt>
      <trkpt lat="48.02258" lon="-2.29467">
        <ele>124.98386346602</ele>
        <time>2019-04-21T10:25:53Z</time>
      </trkpt>
      <trkpt lat="48.02266" lon="-2.29464">
        <ele>124.98381875605</ele>
        <time>2019-04-21T10:25:59Z</time>
      </trkpt>
      <trkpt lat="48.02273" lon="-2.29459">
        <ele>123.98378549441</ele>
        <time>2019-04-21T10:26:06Z</time>
      </trkpt>
      <trkpt lat="48.02281" lon="-2.29454">
        <ele>123.98374582561</ele>
        <time>2019-04-21T10:26:13Z</time>
      </trkpt>
      <trkpt lat="48.02289" lon="-2.29449">
        <ele>125.98370789694</ele>
        <time>2019-04-21T10:26:22Z</time>
      </trkpt>
      <trkpt lat="48.02296" lon="-2.29444">
        <ele>126.98367254211</ele>
        <time>2019-04-21T10:26:29Z</time>
      </trkpt>
      <trkpt lat="48.02304" lon="-2.29441">
        <ele>127.98362802436</ele>
        <time>2019-04-21T10:26:37Z</time>
      </trkpt>
      <trkpt lat="48.02311" lon="-2.29433">
        <ele>126.98360715984</ele>
        <time>2019-04-21T10:26:46Z</time>
      </trkpt>
      <trkpt lat="48.02319" lon="-2.29429">
        <ele>126.98356438119</ele>
        <time>2019-04-21T10:26:54Z</time>
      </trkpt>
      <trkpt lat="48.02327" lon="-2.29423">
        <ele>125.98353115169</ele>
        <time>2019-04-21T10:26:59Z</time>
      </trkpt>
      <trkpt lat="48.02334" lon="-2.29417">
        <ele>123.98350740399</ele>
        <time>2019-04-21T10:27:07Z</time>
      </trkpt>
      <trkpt lat="48.02342" lon="-2.29413">
        <ele>125.98345974704</ele>
        <time>2019-04-21T10:27:16Z</time>
      </trkpt>
      <trkpt lat="48.0235" lon="-2.29408">
        <ele>124.98342185378</ele>
        <time>2019-04-21T10:27:21Z</time>
      </trkpt>
      <trkpt lat="48.02357" lon="-2.29401">
        <ele>124.98340085473</ele>
        <time>2019-04-21T10:27:26Z</time>
      </trkpt>
      <trkpt lat="48.02365" lon="-2.29395">
        <ele>125.98336713463</ele>
        <time>2019-04-21T10:27:32Z</time>
      </trkpt>
      <trkpt lat="48.02373" lon="-2.2939">
        <ele>127.98333332385</ele>
        <time>2019-04-21T10:27:38Z</time>
      </trkpt>
      <trkpt lat="48.0238" lon="-2.29387">
        <ele>127.98329778468</ele>
        <time>2019-04-21T10:27:44Z</time>
      </trkpt>
      <trkpt lat="48.02388" lon="-2.2938">
        <ele>125.98326696727</ele>
        <time>2019-04-21T10:27:50Z</time>
      </trkpt>
      <trkpt lat="48.02395" lon="-2.29375">
        <ele>126.98323385325</ele>
        <time>2019-04-21T10:27:57Z</time>
      </trkpt>
      <trkpt lat="48.02403" lon="-2.29369">
        <ele>125.98320069666</ele>
        <time>2019-04-21T10:28:03Z</time>
      </trkpt>
      <trkpt lat="48.02411" lon="-2.29365">
        <ele>127.98316609664</ele>
        <time>2019-04-21T10:28:12Z</time>
      </trkpt>
      <trkpt lat="48.02419" lon="-2.2936">
        <ele>127.98312986479</ele>
        <time>2019-04-21T10:28:20Z</time>
      </trkpt>
      <trkpt lat="48.02425" lon="-2.29356">
        <ele>127.98310170691</ele>
        <time>2019-04-21T10:28:26Z</time>
      </trkpt>
      <trkpt lat="48.02432" lon="-2.2935">
        <ele>129.98307639427</ele>
        <time>2019-04-21T10:28:35Z</time>
      </trkpt>
      <trkpt lat="48.02439" lon="-2.29344">
        <ele>129.98304684965</ele>
        <time>2019-04-21T10:28:42Z</time>
      </trkpt>
      <trkpt lat="48.02446" lon="-2.29338">
        <ele>132.98301926391</ele>
        <time>2019-04-21T10:28:50Z</time>
      </trkpt>
      <trkpt lat="48.02453" lon="-2.29333">
        <ele>132.98299397352</ele>
        <time>2019-04-21T10:28:57Z</time>
      </trkpt>
      <trkpt lat="48.02461" lon="-2.29326">
        <ele>134.98296876632</ele>
        <time>2019-04-21T10:29:03Z</time>
      </trkpt>
      <trkpt lat="48.02469" lon="-2.29322">
        <ele>133.98292822092</ele>
        <time>2019-04-21T10:29:10Z</time>
      </trkpt>
      <trkpt lat="48.02476" lon="-2.29316">
        <ele>133.98290499173</ele>
        <time>2019-04-21T10:29:18Z</time>
      </trkpt>
      <trkpt lat="48.02484" lon="-2.29311">
        <ele>133.98286613213</ele>
        <time>2019-04-21T10:29:26Z</time>
      </trkpt>
      <trkpt lat="48.02492" lon="-2.29306">
        <ele>134.98283141172</ele>
        <time>2019-04-21T10:29:34Z</time>
      </trkpt>
      <trkpt lat="48.02499" lon="-2.29302">
        <ele>136.98279826566</ele>
        <time>2019-04-21T10:29:40Z</time>
      </trkpt>
      <trkpt lat="48.02507" lon="-2.29298">
        <ele>134.98275563728</ele>
        <time>2019-04-21T10:29:47Z</time>
      </trkpt>
      <trkpt lat="48.02516" lon="-2.29294">
        <ele>134.98271796053</ele>
        <time>2019-04-21T10:29:54Z</time>
      </trkpt>
      <trkpt lat="48.02522" lon="-2.29287">
        <ele>134.9827014677</ele>
        <time>2019-04-21T10:30:03Z</time>
      </trkpt>
      <trkpt lat="48.02529" lon="-2.29282">
        <ele>135.98267508983</ele>
        <time>2019-04-21T10:30:09Z</time>
      </trkpt>
      <trkpt lat="48.02537" lon="-2.29278">
        <ele>135.98263686928</ele>
        <time>2019-04-21T10:30:16Z</time>
      </trkpt>
      <trkpt lat="48.02545" lon="-2.29272">
        <ele>134.98260627657</ele>
        <time>2019-04-21T10:30:24Z</time>
      </trkpt>
      <trkpt lat="48.02552" lon="-2.29268">
        <ele>132.98257432265</ele>
        <time>2019-04-21T10:30:29Z</time>
      </trkpt>
      <trkpt lat="48.02561" lon="-2.29265">
        <ele>132.98252501687</ele>
        <time>2019-04-21T10:30:34Z</time>
      </trkpt>
      <trkpt lat="48.02569" lon="-2.29258">
        <ele>131.98250166311</ele>
        <time>2019-04-21T10:30:41Z</time>
      </trkpt>
      <trkpt lat="48.02573" lon="-2.29249">
        <ele>130.98250394885</ele>
        <time>2019-04-21T10:30:49Z</time>
      </trkpt>
      <trkpt lat="48.02581" lon="-2.29247">
        <ele>130.98246024282</ele>
        <time>2019-04-21T10:30:57Z</time>
      </trkpt>
      <trkpt lat="48.02589" lon="-2.29241">
        <ele>128.98243714842</ele>
        <time>2019-04-21T10:31:06Z</time>
      </trkpt>
      <trkpt lat="48.02595" lon="-2.29236">
        <ele>126.98241600497</ele>
        <time>2019-04-21T10:31:12Z</time>
      </trkpt>
      <trkpt lat="48.02601" lon="-2.29229">
        <ele>126.98239762699</ele>
        <time>2019-04-21T10:31:18Z</time>
      </trkpt>
      <trkpt lat="48.02609" lon="-2.29224">
        <ele>125.98236867165</ele>
        <time>2019-04-21T10:31:27Z</time>
      </trkpt>
      <trkpt lat="48.02617" lon="-2.29221">
        <ele>122.98232461939</ele>
        <time>2019-04-21T10:31:35Z</time>
      </trkpt>
      <trkpt lat="48.02624" lon="-2.29214">
        <ele>123.98230942646</ele>
        <time>2019-04-21T10:31:42Z</time>
      </trkpt>
      <trkpt lat="48.02631" lon="-2.2921">
        <ele>121.98227567212</ele>
        <time>2019-04-21T10:31:51Z</time>
      </trkpt>
      <trkpt lat="48.02637" lon="-2.29203">
        <ele>122.98226497048</ele>
        <time>2019-04-21T10:31:59Z</time>
      </trkpt>
      <trkpt lat="48.02645" lon="-2.292">
        <ele>121.98222560458</ele>
        <time>2019-04-21T10:32:05Z</time>
      </trkpt>
      <trkpt lat="48.02652" lon="-2.29194">
        <ele>123.98220190285</ele>
        <time>2019-04-21T10:32:11Z</time>
      </trkpt>
      <trkpt lat="48.02658" lon="-2.29185">
        <ele>125.98220163486</ele>
        <time>2019-04-21T10:32:19Z</time>
      </trkpt>
      <trkpt lat="48.02665" lon="-2.29178">
        <ele>131.98218432358</ele>
        <time>2019-04-21T10:32:34Z</time>
      </trkpt>
      <trkpt lat="48.02671" lon="-2.29168">
        <ele>132.98218760124</ele>
        <time>2019-04-21T10:32:40Z</time>
      </trkpt>
      <trkpt lat="48.02675" lon="-2.29157">
        <ele>131.98220676075</ele>
        <time>2019-04-21T10:32:47Z</time>
      </trkpt>
      <trkpt lat="48.0268" lon="-2.29147">
        <ele>131.98221913484</ele>
        <time>2019-04-21T10:32:55Z</time>
      </trkpt>
      <trkpt lat="48.02684" lon="-2.29137">
        <ele>129.98223378438</ele>
        <time>2019-04-21T10:33:01Z</time>
      </trkpt>
      <trkpt lat="48.02689" lon="-2.29127">
        <ele>127.98224242237</ele>
        <time>2019-04-21T10:33:07Z</time>
      </trkpt>
      <trkpt lat="48.02693" lon="-2.29116">
        <ele>128.98226447109</ele>
        <time>2019-04-21T10:33:13Z</time>
      </trkpt>
      <trkpt lat="48.02698" lon="-2.29105">
        <ele>128.98227645438</ele>
        <time>2019-04-21T10:33:20Z</time>
      </trkpt>
      <trkpt lat="48.02703" lon="-2.29096">
        <ele>127.98228620142</ele>
        <time>2019-04-21T10:33:29Z</time>
      </trkpt>
      <trkpt lat="48.02707" lon="-2.29086">
        <ele>128.98230360577</ele>
        <time>2019-04-21T10:33:37Z</time>
      </trkpt>
      <trkpt lat="48.02712" lon="-2.29076">
        <ele>129.98231581672</ele>
        <time>2019-04-21T10:33:44Z</time>
      </trkpt>
      <trkpt lat="48.02716" lon="-2.29066">
        <ele>130.98233307139</ele>
        <time>2019-04-21T10:33:50Z</time>
      </trkpt>
      <trkpt lat="48.0272" lon="-2.29054">
        <ele>130.98235937354</ele>
        <time>2019-04-21T10:33:57Z</time>
      </trkpt>
      <trkpt lat="48.02725" lon="-2.29044">
        <ele>130.98236579971</ele>
        <time>2019-04-21T10:34:03Z</time>
      </trkpt>
      <trkpt lat="48.02729" lon="-2.29034">
        <ele>130.9823830687</ele>
        <time>2019-04-21T10:34:10Z</time>
      </trkpt>
      <trkpt lat="48.02733" lon="-2.29023">
        <ele>131.98240823836</ele>
        <time>2019-04-21T10:34:16Z</time>
      </trkpt>
      <trkpt lat="48.02735" lon="-2.29011">
        <ele>131.98245201233</ele>
        <time>2019-04-21T10:34:44Z</time>
      </trkpt>
      <trkpt lat="48.02736" lon="-2.29012">
        <ele>134.98243610739</ele>
        <time>2019-04-21T10:34:53Z</time>
      </trkpt>
      <trkpt lat="48.02736" lon="-2.29012">
        <ele>134.98243610739</ele>
        <time>2019-04-21T10:34:53Z</time>
      </trkpt>
      <trkpt lat="48.0273" lon="-2.29012">
        <ele>132.98247712406</ele>
        <time>2019-04-21T11:23:02Z</time>
      </trkpt>
      <trkpt lat="48.02731" lon="-2.28999">
        <ele>130.98252258333</ele>
        <time>2019-04-21T11:23:12Z</time>
      </trkpt>
      <trkpt lat="48.02736" lon="-2.28988">
        <ele>131.98254596766</ele>
        <time>2019-04-21T11:23:22Z</time>
      </trkpt>
      <trkpt lat="48.0274" lon="-2.28977">
        <ele>132.98256793934</ele>
        <time>2019-04-21T11:23:30Z</time>
      </trkpt>
      <trkpt lat="48.02743" lon="-2.28965">
        <ele>129.98259976182</ele>
        <time>2019-04-21T11:23:40Z</time>
      </trkpt>
      <trkpt lat="48.02747" lon="-2.28954">
        <ele>130.98262118172</ele>
        <time>2019-04-21T11:23:51Z</time>
      </trkpt>
      <trkpt lat="48.02749" lon="-2.28942">
        <ele>130.9826669685</ele>
        <time>2019-04-21T11:24:02Z</time>
      </trkpt>
      <trkpt lat="48.02751" lon="-2.2893">
        <ele>129.98270025851</ele>
        <time>2019-04-21T11:24:10Z</time>
      </trkpt>
      <trkpt lat="48.02753" lon="-2.28917">
        <ele>129.98274817396</ele>
        <time>2019-04-21T11:24:18Z</time>
      </trkpt>
      <trkpt lat="48.02756" lon="-2.28906">
        <ele>130.98277888198</ele>
        <time>2019-04-21T11:24:24Z</time>
      </trkpt>
      <trkpt lat="48.0276" lon="-2.28895">
        <ele>127.98280213817</ele>
        <time>2019-04-21T11:24:35Z</time>
      </trkpt>
      <trkpt lat="48.02766" lon="-2.28887">
        <ele>128.98280041585</ele>
        <time>2019-04-21T11:24:47Z</time>
      </trkpt>
      <trkpt lat="48.02774" lon="-2.28885">
        <ele>127.98275759963</ele>
        <time>2019-04-21T11:24:51Z</time>
      </trkpt>
      <trkpt lat="48.02782" lon="-2.28882">
        <ele>129.98271744107</ele>
        <time>2019-04-21T11:25:00Z</time>
      </trkpt>
      <trkpt lat="48.02791" lon="-2.2888">
        <ele>128.98267154832</ele>
        <time>2019-04-21T11:25:06Z</time>
      </trkpt>
      <trkpt lat="48.028" lon="-2.28878">
        <ele>131.98262938541</ele>
        <time>2019-04-21T11:25:13Z</time>
      </trkpt>
      <trkpt lat="48.02808" lon="-2.28877">
        <ele>133.98258085646</ele>
        <time>2019-04-21T11:25:19Z</time>
      </trkpt>
      <trkpt lat="48.02816" lon="-2.28877">
        <ele>133.98252992257</ele>
        <time>2019-04-21T11:25:24Z</time>
      </trkpt>
      <trkpt lat="48.02824" lon="-2.28878">
        <ele>135.98248058214</ele>
        <time>2019-04-21T11:25:32Z</time>
      </trkpt>
      <trkpt lat="48.02833" lon="-2.28879">
        <ele>138.98241817657</ele>
        <time>2019-04-21T11:25:40Z</time>
      </trkpt>
      <trkpt lat="48.02841" lon="-2.28881">
        <ele>138.98235980702</ele>
        <time>2019-04-21T11:25:46Z</time>
      </trkpt>
      <trkpt lat="48.0285" lon="-2.28879">
        <ele>138.98231392078</ele>
        <time>2019-04-21T11:25:52Z</time>
      </trkpt>
      <trkpt lat="48.02858" lon="-2.28876">
        <ele>136.98227614704</ele>
        <time>2019-04-21T11:26:00Z</time>
      </trkpt>
      <trkpt lat="48.02866" lon="-2.28875">
        <ele>137.98223500914</ele>
        <time>2019-04-21T11:26:06Z</time>
      </trkpt>
      <trkpt lat="48.02874" lon="-2.28874">
        <ele>137.98218402833</ele>
        <time>2019-04-21T11:26:15Z</time>
      </trkpt>
      <trkpt lat="48.02883" lon="-2.28871">
        <ele>136.9821470051</ele>
        <time>2019-04-21T11:26:21Z</time>
      </trkpt>
      <trkpt lat="48.02891" lon="-2.2887">
        <ele>135.98209789481</ele>
        <time>2019-04-21T11:26:30Z</time>
      </trkpt>
      <trkpt lat="48.02899" lon="-2.2887">
        <ele>134.98204613623</ele>
        <time>2019-04-21T11:26:36Z</time>
      </trkpt>
      <trkpt lat="48.02907" lon="-2.28866">
        <ele>132.98201904332</ele>
        <time>2019-04-21T11:26:42Z</time>
      </trkpt>
      <trkpt lat="48.02912" lon="-2.28856">
        <ele>129.98203429834</ele>
        <time>2019-04-21T11:26:53Z</time>
      </trkpt>
      <trkpt lat="48.02909" lon="-2.28844">
        <ele>128.98210817032</ele>
        <time>2019-04-21T11:26:58Z</time>
      </trkpt>
      <trkpt lat="48.02905" lon="-2.28834">
        <ele>127.98218010756</ele>
        <time>2019-04-21T11:27:03Z</time>
      </trkpt>
      <trkpt lat="48.02902" lon="-2.28822">
        <ele>125.98225445591</ele>
        <time>2019-04-21T11:27:12Z</time>
      </trkpt>
      <trkpt lat="48.02905" lon="-2.28809">
        <ele>125.98229384365</ele>
        <time>2019-04-21T11:27:22Z</time>
      </trkpt>
      <trkpt lat="48.02911" lon="-2.288">
        <ele>124.9823042097</ele>
        <time>2019-04-21T11:27:31Z</time>
      </trkpt>
      <trkpt lat="48.02916" lon="-2.28792">
        <ele>124.98230951341</ele>
        <time>2019-04-21T11:27:36Z</time>
      </trkpt>
      <trkpt lat="48.02924" lon="-2.28789">
        <ele>126.98227137518</ele>
        <time>2019-04-21T11:27:42Z</time>
      </trkpt>
      <trkpt lat="48.02929" lon="-2.28779">
        <ele>124.98229065805</ele>
        <time>2019-04-21T11:27:49Z</time>
      </trkpt>
      <trkpt lat="48.02935" lon="-2.28769">
        <ele>121.98230461105</ele>
        <time>2019-04-21T11:27:57Z</time>
      </trkpt>
      <trkpt lat="48.02938" lon="-2.28757">
        <ele>123.98233683373</ele>
        <time>2019-04-21T11:28:06Z</time>
      </trkpt>
      <trkpt lat="48.02942" lon="-2.28745">
        <ele>122.98236949553</ele>
        <time>2019-04-21T11:28:14Z</time>
      </trkpt>
      <trkpt lat="48.02946" lon="-2.28733">
        <ele>122.98240177769</ele>
        <time>2019-04-21T11:28:22Z</time>
      </trkpt>
      <trkpt lat="48.02949" lon="-2.28721">
        <ele>121.98244358313</ele>
        <time>2019-04-21T11:28:29Z</time>
      </trkpt>
      <trkpt lat="48.02955" lon="-2.28711">
        <ele>122.98245431381</ele>
        <time>2019-04-21T11:28:36Z</time>
      </trkpt>
      <trkpt lat="48.02957" lon="-2.28699">
        <ele>123.98250075339</ele>
        <time>2019-04-21T11:28:43Z</time>
      </trkpt>
      <trkpt lat="48.0296" lon="-2.28687">
        <ele>124.98254115807</ele>
        <time>2019-04-21T11:28:50Z</time>
      </trkpt>
      <trkpt lat="48.02964" lon="-2.28677">
        <ele>124.9825612476</ele>
        <time>2019-04-21T11:28:56Z</time>
      </trkpt>
      <trkpt lat="48.02969" lon="-2.28667">
        <ele>124.98258346887</ele>
        <time>2019-04-21T11:29:03Z</time>
      </trkpt>
      <trkpt lat="48.02972" lon="-2.28656">
        <ele>125.98261565866</ele>
        <time>2019-04-21T11:29:09Z</time>
      </trkpt>
      <trkpt lat="48.02977" lon="-2.28647">
        <ele>125.98262574605</ele>
        <time>2019-04-21T11:29:16Z</time>
      </trkpt>
      <trkpt lat="48.02976" lon="-2.28634">
        <ele>128.98269681916</ele>
        <time>2019-04-21T11:29:28Z</time>
      </trkpt>
      <trkpt lat="48.02971" lon="-2.28624">
        <ele>129.98277379705</ele>
        <time>2019-04-21T11:29:35Z</time>
      </trkpt>
      <trkpt lat="48.02965" lon="-2.28614">
        <ele>128.98285445316</ele>
        <time>2019-04-21T11:29:42Z</time>
      </trkpt>
      <trkpt lat="48.02961" lon="-2.28604">
        <ele>127.98292811321</ele>
        <time>2019-04-21T11:29:50Z</time>
      </trkpt>
      <trkpt lat="48.02957" lon="-2.28595">
        <ele>126.9829901872</ele>
        <time>2019-04-21T11:29:57Z</time>
      </trkpt>
      <trkpt lat="48.02954" lon="-2.28584">
        <ele>125.98306505607</ele>
        <time>2019-04-21T11:30:04Z</time>
      </trkpt>
      <trkpt lat="48.02949" lon="-2.28574">
        <ele>126.98314090073</ele>
        <time>2019-04-21T11:30:13Z</time>
      </trkpt>
      <trkpt lat="48.02944" lon="-2.28564">
        <ele>125.98321480408</ele>
        <time>2019-04-21T11:30:21Z</time>
      </trkpt>
      <trkpt lat="48.02938" lon="-2.28554">
        <ele>125.98329530272</ele>
        <time>2019-04-21T11:30:30Z</time>
      </trkpt>
      <trkpt lat="48.02933" lon="-2.28543">
        <ele>126.98337485847</ele>
        <time>2019-04-21T11:30:39Z</time>
      </trkpt>
      <trkpt lat="48.02927" lon="-2.28534">
        <ele>125.98345245009</ele>
        <time>2019-04-21T11:30:47Z</time>
      </trkpt>
      <trkpt lat="48.02921" lon="-2.28524">
        <ele>126.98352919181</ele>
        <time>2019-04-21T11:30:55Z</time>
      </trkpt>
      <trkpt lat="48.02916" lon="-2.28514">
        <ele>127.98360777761</ele>
        <time>2019-04-21T11:31:04Z</time>
      </trkpt>
      <trkpt lat="48.02911" lon="-2.28503">
        <ele>128.9836829309</ele>
        <time>2019-04-21T11:31:11Z</time>
      </trkpt>
      <trkpt lat="48.02908" lon="-2.28494">
        <ele>129.98374232505</ele>
        <time>2019-04-21T11:31:20Z</time>
      </trkpt>
      <trkpt lat="48.02904" lon="-2.28486">
        <ele>130.98380341362</ele>
        <time>2019-04-21T11:31:24Z</time>
      </trkpt>
      <trkpt lat="48.02898" lon="-2.28478">
        <ele>133.98387739002</ele>
        <time>2019-04-21T11:31:33Z</time>
      </trkpt>
      <trkpt lat="48.02893" lon="-2.28468">
        <ele>135.98394855093</ele>
        <time>2019-04-21T11:31:40Z</time>
      </trkpt>
      <trkpt lat="48.02888" lon="-2.28457">
        <ele>136.98402776986</ele>
        <time>2019-04-21T11:31:48Z</time>
      </trkpt>
      <trkpt lat="48.02884" lon="-2.28446">
        <ele>134.98410123313</ele>
        <time>2019-04-21T11:31:59Z</time>
      </trkpt>
      <trkpt lat="48.0288" lon="-2.28436">
        <ele>135.98416916384</ele>
        <time>2019-04-21T11:32:05Z</time>
      </trkpt>
      <trkpt lat="48.02875" lon="-2.28425">
        <ele>135.98424419737</ele>
        <time>2019-04-21T11:32:13Z</time>
      </trkpt>
      <trkpt lat="48.02868" lon="-2.28418">
        <ele>135.98431683432</ele>
        <time>2019-04-21T11:32:20Z</time>
      </trkpt>
      <trkpt lat="48.02864" lon="-2.28407">
        <ele>133.98439179762</ele>
        <time>2019-04-21T11:32:29Z</time>
      </trkpt>
      <trkpt lat="48.02859" lon="-2.28396">
        <ele>133.98446721705</ele>
        <time>2019-04-21T11:32:37Z</time>
      </trkpt>
      <trkpt lat="48.02855" lon="-2.28385">
        <ele>134.98454097425</ele>
        <time>2019-04-21T11:32:44Z</time>
      </trkpt>
      <trkpt lat="48.0285" lon="-2.28376">
        <ele>135.98460823466</ele>
        <time>2019-04-21T11:32:51Z</time>
      </trkpt>
      <trkpt lat="48.02846" lon="-2.28364">
        <ele>136.98468235865</ele>
        <time>2019-04-21T11:32:59Z</time>
      </trkpt>
      <trkpt lat="48.02841" lon="-2.28354">
        <ele>137.98475194391</ele>
        <time>2019-04-21T11:33:07Z</time>
      </trkpt>
      <trkpt lat="48.02837" lon="-2.28343">
        <ele>138.98482560273</ele>
        <time>2019-04-21T11:33:16Z</time>
      </trkpt>
      <trkpt lat="48.02832" lon="-2.28334">
        <ele>138.98489479108</ele>
        <time>2019-04-21T11:33:25Z</time>
      </trkpt>
      <trkpt lat="48.02828" lon="-2.28324">
        <ele>138.98496308225</ele>
        <time>2019-04-21T11:33:31Z</time>
      </trkpt>
      <trkpt lat="48.02821" lon="-2.28316">
        <ele>137.98503376603</ele>
        <time>2019-04-21T11:33:42Z</time>
      </trkpt>
      <trkpt lat="48.02818" lon="-2.28304">
        <ele>137.98510739301</ele>
        <time>2019-04-21T11:33:51Z</time>
      </trkpt>
      <trkpt lat="48.02811" lon="-2.28295">
        <ele>135.98518041871</ele>
        <time>2019-04-21T11:33:58Z</time>
      </trkpt>
      <trkpt lat="48.02808" lon="-2.28285">
        <ele>135.98524505869</ele>
        <time>2019-04-21T11:34:05Z</time>
      </trkpt>
      <trkpt lat="48.02802" lon="-2.28274">
        <ele>136.98532126761</ele>
        <time>2019-04-21T11:34:16Z</time>
      </trkpt>
      <trkpt lat="48.02796" lon="-2.28266">
        <ele>137.98539012458</ele>
        <time>2019-04-21T11:34:24Z</time>
      </trkpt>
      <trkpt lat="48.0279" lon="-2.28257">
        <ele>137.98545922727</ele>
        <time>2019-04-21T11:34:32Z</time>
      </trkpt>
      <trkpt lat="48.02784" lon="-2.28248">
        <ele>137.98552902503</ele>
        <time>2019-04-21T11:34:39Z</time>
      </trkpt>
      <trkpt lat="48.02781" lon="-2.28238">
        <ele>138.98559281697</ele>
        <time>2019-04-21T11:34:44Z</time>
      </trkpt>
      <trkpt lat="48.02776" lon="-2.28228">
        <ele>137.98566284496</ele>
        <time>2019-04-21T11:34:52Z</time>
      </trkpt>
      <trkpt lat="48.02772" lon="-2.28217">
        <ele>139.98573265162</ele>
        <time>2019-04-21T11:35:00Z</time>
      </trkpt>
      <trkpt lat="48.02767" lon="-2.28208">
        <ele>140.98579806787</ele>
        <time>2019-04-21T11:35:06Z</time>
      </trkpt>
      <trkpt lat="48.02762" lon="-2.28199">
        <ele>141.98586654861</ele>
        <time>2019-04-21T11:35:15Z</time>
      </trkpt>
      <trkpt lat="48.02759" lon="-2.28191">
        <ele>142.98591511416</ele>
        <time>2019-04-21T11:35:21Z</time>
      </trkpt>
      <trkpt lat="48.02753" lon="-2.28181">
        <ele>141.98598898154</ele>
        <time>2019-04-21T11:35:27Z</time>
      </trkpt>
      <trkpt lat="48.02748" lon="-2.28171">
        <ele>143.98605716267</ele>
        <time>2019-04-21T11:35:34Z</time>
      </trkpt>
      <trkpt lat="48.02744" lon="-2.2816">
        <ele>144.98612940234</ele>
        <time>2019-04-21T11:35:41Z</time>
      </trkpt>
      <trkpt lat="48.02741" lon="-2.28148">
        <ele>142.98619832267</ele>
        <time>2019-04-21T11:35:50Z</time>
      </trkpt>
      <trkpt lat="48.02736" lon="-2.28138">
        <ele>143.98626367945</ele>
        <time>2019-04-21T11:35:58Z</time>
      </trkpt>
      <trkpt lat="48.02731" lon="-2.28131">
        <ele>141.98631815148</ele>
        <time>2019-04-21T11:36:07Z</time>
      </trkpt>
      <trkpt lat="48.02729" lon="-2.28121">
        <ele>142.98637235146</ele>
        <time>2019-04-21T11:36:13Z</time>
      </trkpt>
      <trkpt lat="48.02724" lon="-2.2811">
        <ele>141.98644389099</ele>
        <time>2019-04-21T11:36:20Z</time>
      </trkpt>
      <trkpt lat="48.0272" lon="-2.281">
        <ele>140.98651093501</ele>
        <time>2019-04-21T11:36:28Z</time>
      </trkpt>
      <trkpt lat="48.02714" lon="-2.28092">
        <ele>140.98657422575</ele>
        <time>2019-04-21T11:36:33Z</time>
      </trkpt>
      <trkpt lat="48.02709" lon="-2.28083">
        <ele>140.9866390433</ele>
        <time>2019-04-21T11:36:39Z</time>
      </trkpt>
      <trkpt lat="48.02703" lon="-2.28073">
        <ele>138.98670955866</ele>
        <time>2019-04-21T11:36:46Z</time>
      </trkpt>
      <trkpt lat="48.02698" lon="-2.28063">
        <ele>139.98677891252</ele>
        <time>2019-04-21T11:36:52Z</time>
      </trkpt>
      <trkpt lat="48.02693" lon="-2.28053">
        <ele>139.9868476731</ele>
        <time>2019-04-21T11:36:59Z</time>
      </trkpt>
      <trkpt lat="48.02688" lon="-2.28044">
        <ele>139.98691292542</ele>
        <time>2019-04-21T11:37:07Z</time>
      </trkpt>
      <trkpt lat="48.02682" lon="-2.28034">
        <ele>140.98697808787</ele>
        <time>2019-04-21T11:37:15Z</time>
      </trkpt>
      <trkpt lat="48.02678" lon="-2.28024">
        <ele>140.98704522864</ele>
        <time>2019-04-21T11:37:21Z</time>
      </trkpt>
      <trkpt lat="48.02674" lon="-2.28013">
        <ele>142.98711071801</ele>
        <time>2019-04-21T11:37:28Z</time>
      </trkpt>
      <trkpt lat="48.02667" lon="-2.28004">
        <ele>144.98718123011</ele>
        <time>2019-04-21T11:37:35Z</time>
      </trkpt>
      <trkpt lat="48.02662" lon="-2.27994">
        <ele>143.98725019998</ele>
        <time>2019-04-21T11:37:44Z</time>
      </trkpt>
      <trkpt lat="48.02654" lon="-2.27987">
        <ele>143.98731722497</ele>
        <time>2019-04-21T11:37:52Z</time>
      </trkpt>
      <trkpt lat="48.02646" lon="-2.27984">
        <ele>140.98736746555</ele>
        <time>2019-04-21T11:38:00Z</time>
      </trkpt>
      <trkpt lat="48.02639" lon="-2.27978">
        <ele>139.98742653771</ele>
        <time>2019-04-21T11:38:08Z</time>
      </trkpt>
      <trkpt lat="48.02631" lon="-2.27975">
        <ele>141.98747491432</ele>
        <time>2019-04-21T11:38:14Z</time>
      </trkpt>
      <trkpt lat="48.02623" lon="-2.2797">
        <ele>139.98753678409</ele>
        <time>2019-04-21T11:38:21Z</time>
      </trkpt>
      <trkpt lat="48.02614" lon="-2.27968">
        <ele>137.9875866428</ele>
        <time>2019-04-21T11:38:28Z</time>
      </trkpt>
      <trkpt lat="48.02606" lon="-2.27967">
        <ele>137.98763088939</ele>
        <time>2019-04-21T11:38:36Z</time>
      </trkpt>
      <trkpt lat="48.02598" lon="-2.27965">
        <ele>136.98767574339</ele>
        <time>2019-04-21T11:38:44Z</time>
      </trkpt>
      <trkpt lat="48.0259" lon="-2.27964">
        <ele>136.98771816226</ele>
        <time>2019-04-21T11:38:52Z</time>
      </trkpt>
      <trkpt lat="48.02581" lon="-2.27961">
        <ele>136.98777244448</ele>
        <time>2019-04-21T11:39:00Z</time>
      </trkpt>
      <trkpt lat="48.02572" lon="-2.2796">
        <ele>136.98781797946</ele>
        <time>2019-04-21T11:39:07Z</time>
      </trkpt>
      <trkpt lat="48.02565" lon="-2.27962">
        <ele>136.98784179014</ele>
        <time>2019-04-21T11:39:14Z</time>
      </trkpt>
      <trkpt lat="48.02557" lon="-2.27966">
        <ele>135.98786489239</ele>
        <time>2019-04-21T11:39:25Z</time>
      </trkpt>
      <trkpt lat="48.02548" lon="-2.27969">
        <ele>135.98789625182</ele>
        <time>2019-04-21T11:39:32Z</time>
      </trkpt>
      <trkpt lat="48.0254" lon="-2.2797">
        <ele>137.98793177326</ele>
        <time>2019-04-21T11:39:40Z</time>
      </trkpt>
      <trkpt lat="48.02532" lon="-2.27971">
        <ele>136.98796510895</ele>
        <time>2019-04-21T11:39:46Z</time>
      </trkpt>
      <trkpt lat="48.02523" lon="-2.27972">
        <ele>137.98800201023</ele>
        <time>2019-04-21T11:39:53Z</time>
      </trkpt>
      <trkpt lat="48.02514" lon="-2.27974">
        <ele>137.98803711023</ele>
        <time>2019-04-21T11:40:01Z</time>
      </trkpt>
      <trkpt lat="48.02506" lon="-2.27977">
        <ele>138.98806715517</ele>
        <time>2019-04-21T11:40:08Z</time>
      </trkpt>
      <trkpt lat="48.02497" lon="-2.2798">
        <ele>137.98809422409</ele>
        <time>2019-04-21T11:40:18Z</time>
      </trkpt>
      <trkpt lat="48.02489" lon="-2.2798">
        <ele>140.98812961084</ele>
        <time>2019-04-21T11:40:25Z</time>
      </trkpt>
      <trkpt lat="48.02482" lon="-2.27983">
        <ele>139.98815500902</ele>
        <time>2019-04-21T11:40:31Z</time>
      </trkpt>
      <trkpt lat="48.02473" lon="-2.27985">
        <ele>140.98818692646</ele>
        <time>2019-04-21T11:40:38Z</time>
      </trkpt>
      <trkpt lat="48.02465" lon="-2.27987">
        <ele>140.9882194145</ele>
        <time>2019-04-21T11:40:45Z</time>
      </trkpt>
      <trkpt lat="48.02457" lon="-2.27987">
        <ele>140.98825529651</ele>
        <time>2019-04-21T11:40:53Z</time>
      </trkpt>
      <trkpt lat="48.0245" lon="-2.27991">
        <ele>140.98827699174</ele>
        <time>2019-04-21T11:41:00Z</time>
      </trkpt>
      <trkpt lat="48.02442" lon="-2.27993">
        <ele>140.9883085916</ele>
        <time>2019-04-21T11:41:06Z</time>
      </trkpt>
      <trkpt lat="48.02433" lon="-2.27997">
        <ele>144.98833040963</ele>
        <time>2019-04-21T11:41:14Z</time>
      </trkpt>
      <trkpt lat="48.02425" lon="-2.28001">
        <ele>147.98835798355</ele>
        <time>2019-04-21T11:41:21Z</time>
      </trkpt>
      <trkpt lat="48.02417" lon="-2.28005">
        <ele>150.9883791918</ele>
        <time>2019-04-21T11:41:27Z</time>
      </trkpt>
      <trkpt lat="48.02409" lon="-2.28007">
        <ele>150.98841011491</ele>
        <time>2019-04-21T11:41:34Z</time>
      </trkpt>
      <trkpt lat="48.024" lon="-2.28008">
        <ele>149.98844927363</ele>
        <time>2019-04-21T11:41:44Z</time>
      </trkpt>
      <trkpt lat="48.02394" lon="-2.27999">
        <ele>151.9885137516</ele>
        <time>2019-04-21T11:41:55Z</time>
      </trkpt>
      <trkpt lat="48.02396" lon="-2.27986">
        <ele>152.9885534436</ele>
        <time>2019-04-21T11:42:03Z</time>
      </trkpt>
      <trkpt lat="48.02399" lon="-2.27975">
        <ele>153.98857905927</ele>
        <time>2019-04-21T11:42:11Z</time>
      </trkpt>
      <trkpt lat="48.024" lon="-2.27963">
        <ele>150.98862602728</ele>
        <time>2019-04-21T11:42:17Z</time>
      </trkpt>
      <trkpt lat="48.02399" lon="-2.2795">
        <ele>147.98867910039</ele>
        <time>2019-04-21T11:42:23Z</time>
      </trkpt>
      <trkpt lat="48.02396" lon="-2.27938">
        <ele>146.98873509262</ele>
        <time>2019-04-21T11:42:30Z</time>
      </trkpt>
      <trkpt lat="48.02393" lon="-2.27926">
        <ele>146.98879460071</ele>
        <time>2019-04-21T11:42:38Z</time>
      </trkpt>
      <trkpt lat="48.02389" lon="-2.27916">
        <ele>144.98885409842</ele>
        <time>2019-04-21T11:42:46Z</time>
      </trkpt>
      <trkpt lat="48.02385" lon="-2.27906">
        <ele>144.98891119763</ele>
        <time>2019-04-21T11:42:53Z</time>
      </trkpt>
      <trkpt lat="48.02381" lon="-2.27894">
        <ele>145.98897546563</ele>
        <time>2019-04-21T11:43:00Z</time>
      </trkpt>
      <trkpt lat="48.02377" lon="-2.27882">
        <ele>146.98903952528</ele>
        <time>2019-04-21T11:43:07Z</time>
      </trkpt>
      <trkpt lat="48.02372" lon="-2.27872">
        <ele>146.98909844533</ele>
        <time>2019-04-21T11:43:13Z</time>
      </trkpt>
      <trkpt lat="48.02367" lon="-2.27862">
        <ele>147.9891593746</ele>
        <time>2019-04-21T11:43:19Z</time>
      </trkpt>
      <trkpt lat="48.02362" lon="-2.27853">
        <ele>149.98921836554</ele>
        <time>2019-04-21T11:43:26Z</time>
      </trkpt>
      <trkpt lat="48.02356" lon="-2.27845">
        <ele>152.98927625254</ele>
        <time>2019-04-21T11:43:33Z</time>
      </trkpt>
      <trkpt lat="48.0235" lon="-2.27835">
        <ele>153.98934005305</ele>
        <time>2019-04-21T11:43:41Z</time>
      </trkpt>
      <trkpt lat="48.02347" lon="-2.27825">
        <ele>152.98939163321</ele>
        <time>2019-04-21T11:43:48Z</time>
      </trkpt>
      <trkpt lat="48.02342" lon="-2.27815">
        <ele>150.989453635</ele>
        <time>2019-04-21T11:43:55Z</time>
      </trkpt>
      <trkpt lat="48.02341" lon="-2.27802">
        <ele>152.98950626947</ele>
        <time>2019-04-21T11:44:03Z</time>
      </trkpt>
      <trkpt lat="48.0234" lon="-2.2779">
        <ele>150.98955664666</ele>
        <time>2019-04-21T11:44:10Z</time>
      </trkpt>
      <trkpt lat="48.02338" lon="-2.27777">
        <ele>150.98961304871</ele>
        <time>2019-04-21T11:44:17Z</time>
      </trkpt>
      <trkpt lat="48.02337" lon="-2.27766">
        <ele>149.98965713606</ele>
        <time>2019-04-21T11:44:23Z</time>
      </trkpt>
      <trkpt lat="48.02335" lon="-2.27753">
        <ele>148.98971389672</ele>
        <time>2019-04-21T11:44:32Z</time>
      </trkpt>
      <trkpt lat="48.02333" lon="-2.27741">
        <ele>148.98976731569</ele>
        <time>2019-04-21T11:44:38Z</time>
      </trkpt>
      <trkpt lat="48.02331" lon="-2.2773">
        <ele>148.98982118535</ele>
        <time>2019-04-21T11:44:45Z</time>
      </trkpt>
      <trkpt lat="48.02328" lon="-2.27717">
        <ele>150.98987909847</ele>
        <time>2019-04-21T11:44:51Z</time>
      </trkpt>
      <trkpt lat="48.02326" lon="-2.27705">
        <ele>152.98993571471</ele>
        <time>2019-04-21T11:44:58Z</time>
      </trkpt>
      <trkpt lat="48.02322" lon="-2.27693">
        <ele>152.98999306352</ele>
        <time>2019-04-21T11:45:06Z</time>
      </trkpt>
      <trkpt lat="48.02318" lon="-2.27683">
        <ele>153.99004953177</ele>
        <time>2019-04-21T11:45:13Z</time>
      </trkpt>
      <trkpt lat="48.0231" lon="-2.27678">
        <ele>154.99010302826</ele>
        <time>2019-04-21T11:45:20Z</time>
      </trkpt>
      <trkpt lat="48.02301" lon="-2.27675">
        <ele>155.99014866593</ele>
        <time>2019-04-21T11:45:27Z</time>
      </trkpt>
      <trkpt lat="48.02294" lon="-2.27674">
        <ele>157.99018766873</ele>
        <time>2019-04-21T11:45:34Z</time>
      </trkpt>
      <trkpt lat="48.02286" lon="-2.27669">
        <ele>158.99023805308</ele>
        <time>2019-04-21T11:45:41Z</time>
      </trkpt>
      <trkpt lat="48.02277" lon="-2.27666">
        <ele>158.99028442089</ele>
        <time>2019-04-21T11:45:50Z</time>
      </trkpt>
      <trkpt lat="48.0227" lon="-2.2766">
        <ele>159.99033897515</ele>
        <time>2019-04-21T11:45:57Z</time>
      </trkpt>
      <trkpt lat="48.02263" lon="-2.27654">
        <ele>159.99039130677</ele>
        <time>2019-04-21T11:46:05Z</time>
      </trkpt>
      <trkpt lat="48.02255" lon="-2.2765">
        <ele>159.99043852245</ele>
        <time>2019-04-21T11:46:12Z</time>
      </trkpt>
      <trkpt lat="48.02247" lon="-2.27645">
        <ele>159.99049128284</ele>
        <time>2019-04-21T11:46:22Z</time>
      </trkpt>
      <trkpt lat="48.02242" lon="-2.27635">
        <ele>158.99055014751</ele>
        <time>2019-04-21T11:46:31Z</time>
      </trkpt>
      <trkpt lat="48.0224" lon="-2.27624">
        <ele>157.99059682513</ele>
        <time>2019-04-21T11:46:37Z</time>
      </trkpt>
      <trkpt lat="48.02237" lon="-2.27611">
        <ele>158.99065390394</ele>
        <time>2019-04-21T11:46:44Z</time>
      </trkpt>
      <trkpt lat="48.02233" lon="-2.276">
        <ele>158.99071336835</ele>
        <time>2019-04-21T11:46:52Z</time>
      </trkpt>
      <trkpt lat="48.02224" lon="-2.27595">
        <ele>157.99076339473</ele>
        <time>2019-04-21T11:46:59Z</time>
      </trkpt>
      <trkpt lat="48.02217" lon="-2.27592">
        <ele>157.99080849269</ele>
        <time>2019-04-21T11:47:06Z</time>
      </trkpt>
      <trkpt lat="48.02208" lon="-2.27591">
        <ele>155.99084540429</ele>
        <time>2019-04-21T11:47:14Z</time>
      </trkpt>
      <trkpt lat="48.022" lon="-2.27585">
        <ele>153.99090103981</ele>
        <time>2019-04-21T11:47:29Z</time>
      </trkpt>
      <trkpt lat="48.02192" lon="-2.27581">
        <ele>155.99094857244</ele>
        <time>2019-04-21T11:47:37Z</time>
      </trkpt>
      <trkpt lat="48.02184" lon="-2.27577">
        <ele>155.99099473896</ele>
        <time>2019-04-21T11:47:44Z</time>
      </trkpt>
      <trkpt lat="48.02176" lon="-2.27574">
        <ele>155.9910385564</ele>
        <time>2019-04-21T11:47:51Z</time>
      </trkpt>
      <trkpt lat="48.02169" lon="-2.27568">
        <ele>157.99108974013</ele>
        <time>2019-04-21T11:47:58Z</time>
      </trkpt>
      <trkpt lat="48.02161" lon="-2.27561">
        <ele>158.99114706218</ele>
        <time>2019-04-21T11:48:02Z</time>
      </trkpt>
      <trkpt lat="48.02153" lon="-2.27556">
        <ele>160.99119515635</ele>
        <time>2019-04-21T11:48:14Z</time>
      </trkpt>
      <trkpt lat="48.02145" lon="-2.27553">
        <ele>162.99123936371</ele>
        <time>2019-04-21T11:48:21Z</time>
      </trkpt>
      <trkpt lat="48.02137" lon="-2.27548">
        <ele>162.99128920448</ele>
        <time>2019-04-21T11:48:28Z</time>
      </trkpt>
      <trkpt lat="48.02128" lon="-2.27544">
        <ele>162.99133860783</ele>
        <time>2019-04-21T11:48:36Z</time>
      </trkpt>
      <trkpt lat="48.02121" lon="-2.27547">
        <ele>162.99135744327</ele>
        <time>2019-04-21T11:48:42Z</time>
      </trkpt>
      <trkpt lat="48.02115" lon="-2.27557">
        <ele>163.99134721042</ele>
        <time>2019-04-21T11:48:49Z</time>
      </trkpt>
      <trkpt lat="48.0211" lon="-2.27568">
        <ele>163.99132922863</ele>
        <time>2019-04-21T11:48:57Z</time>
      </trkpt>
      <trkpt lat="48.02105" lon="-2.27578">
        <ele>162.99131849764</ele>
        <time>2019-04-21T11:49:04Z</time>
      </trkpt>
      <trkpt lat="48.02099" lon="-2.27587">
        <ele>163.99131224836</ele>
        <time>2019-04-21T11:49:10Z</time>
      </trkpt>
      <trkpt lat="48.02093" lon="-2.27595">
        <ele>163.99130732934</ele>
        <time>2019-04-21T11:49:17Z</time>
      </trkpt>
      <trkpt lat="48.02087" lon="-2.27605">
        <ele>165.99130087856</ele>
        <time>2019-04-21T11:49:24Z</time>
      </trkpt>
      <trkpt lat="48.02083" lon="-2.27615">
        <ele>165.99128342243</ele>
        <time>2019-04-21T11:49:31Z</time>
      </trkpt>
      <trkpt lat="48.0208" lon="-2.27628">
        <ele>165.99125439503</ele>
        <time>2019-04-21T11:49:38Z</time>
      </trkpt>
      <trkpt lat="48.02073" lon="-2.27621">
        <ele>163.9913091677</ele>
        <time>2019-04-21T11:49:51Z</time>
      </trkpt>
      <trkpt lat="48.02071" lon="-2.2762">
        <ele>163.9913173878</ele>
        <time>2019-04-21T11:49:53Z</time>
      </trkpt>
      <trkpt lat="48.02071" lon="-2.2762">
        <ele>163.9913173878</ele>
        <time>2019-04-21T11:49:53Z</time>
      </trkpt>
      <trkpt lat="48.02076" lon="-2.27687">
        <ele>153.99107482962</ele>
        <time>2019-04-21T11:51:45Z</time>
      </trkpt>
      <trkpt lat="48.0207" lon="-2.27696">
        <ele>156.99107094313</ele>
        <time>2019-04-21T11:51:59Z</time>
      </trkpt>
      <trkpt lat="48.02062" lon="-2.27696">
        <ele>157.99110794931</ele>
        <time>2019-04-21T11:52:07Z</time>
      </trkpt>
      <trkpt lat="48.02053" lon="-2.27697">
        <ele>162.99114041794</ele>
        <time>2019-04-21T11:52:17Z</time>
      </trkpt>
      <trkpt lat="48.02045" lon="-2.27699">
        <ele>161.99117000569</ele>
        <time>2019-04-21T11:52:25Z</time>
      </trkpt>
      <trkpt lat="48.02036" lon="-2.27698">
        <ele>161.9912098049</ele>
        <time>2019-04-21T11:52:35Z</time>
      </trkpt>
      <trkpt lat="48.02028" lon="-2.27699">
        <ele>161.9912427069</ele>
        <time>2019-04-21T11:52:42Z</time>
      </trkpt>
      <trkpt lat="48.0202" lon="-2.27698">
        <ele>161.99128071078</ele>
        <time>2019-04-21T11:52:49Z</time>
      </trkpt>
      <trkpt lat="48.02013" lon="-2.27695">
        <ele>161.99132221501</ele>
        <time>2019-04-21T11:52:55Z</time>
      </trkpt>
      <trkpt lat="48.02005" lon="-2.27694">
        <ele>162.99135724857</ele>
        <time>2019-04-21T11:53:00Z</time>
      </trkpt>
      <trkpt lat="48.01997" lon="-2.27693">
        <ele>162.99139337942</ele>
        <time>2019-04-21T11:53:07Z</time>
      </trkpt>
      <trkpt lat="48.0199" lon="-2.27694">
        <ele>163.99142210295</ele>
        <time>2019-04-21T11:53:13Z</time>
      </trkpt>
      <trkpt lat="48.01981" lon="-2.27696">
        <ele>164.99145523318</ele>
        <time>2019-04-21T11:53:25Z</time>
      </trkpt>
      <trkpt lat="48.01973" lon="-2.27692">
        <ele>164.99150254166</ele>
        <time>2019-04-21T11:53:33Z</time>
      </trkpt>
      <trkpt lat="48.01965" lon="-2.2769">
        <ele>164.99154376067</ele>
        <time>2019-04-21T11:53:42Z</time>
      </trkpt>
      <trkpt lat="48.01957" lon="-2.27685">
        <ele>164.99159394232</ele>
        <time>2019-04-21T11:53:52Z</time>
      </trkpt>
      <trkpt lat="48.0195" lon="-2.27681">
        <ele>165.99163611866</ele>
        <time>2019-04-21T11:53:57Z</time>
      </trkpt>
      <trkpt lat="48.01942" lon="-2.27678">
        <ele>167.99167666733</ele>
        <time>2019-04-21T11:54:04Z</time>
      </trkpt>
      <trkpt lat="48.01935" lon="-2.27676">
        <ele>167.9917172447</ele>
        <time>2019-04-21T11:54:11Z</time>
      </trkpt>
      <trkpt lat="48.01927" lon="-2.2767">
        <ele>168.99176821411</ele>
        <time>2019-04-21T11:54:18Z</time>
      </trkpt>
      <trkpt lat="48.01918" lon="-2.2767">
        <ele>169.99180519495</ele>
        <time>2019-04-21T11:54:25Z</time>
      </trkpt>
      <trkpt lat="48.01911" lon="-2.27678">
        <ele>170.99181123655</ele>
        <time>2019-04-21T11:54:32Z</time>
      </trkpt>
      <trkpt lat="48.01903" lon="-2.27683">
        <ele>169.99182961696</ele>
        <time>2019-04-21T11:54:40Z</time>
      </trkpt>
      <trkpt lat="48.01895" lon="-2.27684">
        <ele>169.9918629976</ele>
        <time>2019-04-21T11:54:48Z</time>
      </trkpt>
      <trkpt lat="48.01887" lon="-2.27684">
        <ele>168.99189890809</ele>
        <time>2019-04-21T11:54:55Z</time>
      </trkpt>
      <trkpt lat="48.01879" lon="-2.27682">
        <ele>169.99193733263</ele>
        <time>2019-04-21T11:55:01Z</time>
      </trkpt>
      <trkpt lat="48.01871" lon="-2.27678">
        <ele>169.99198147869</ele>
        <time>2019-04-21T11:55:09Z</time>
      </trkpt>
      <trkpt lat="48.01863" lon="-2.27676">
        <ele>169.99202481644</ele>
        <time>2019-04-21T11:55:16Z</time>
      </trkpt>
      <trkpt lat="48.01855" lon="-2.27674">
        <ele>168.99206387657</ele>
        <time>2019-04-21T11:55:22Z</time>
      </trkpt>
      <trkpt lat="48.01847" lon="-2.27671">
        <ele>169.99210654996</ele>
        <time>2019-04-21T11:55:28Z</time>
      </trkpt>
      <trkpt lat="48.01838" lon="-2.27669">
        <ele>170.99214825295</ele>
        <time>2019-04-21T11:55:35Z</time>
      </trkpt>
      <trkpt lat="48.0183" lon="-2.27669">
        <ele>169.99218384023</ele>
        <time>2019-04-21T11:55:42Z</time>
      </trkpt>
      <trkpt lat="48.01823" lon="-2.27667">
        <ele>169.99222201758</ele>
        <time>2019-04-21T11:55:48Z</time>
      </trkpt>
      <trkpt lat="48.01814" lon="-2.27664">
        <ele>170.99226852427</ele>
        <time>2019-04-21T11:55:54Z</time>
      </trkpt>
      <trkpt lat="48.01806" lon="-2.27659">
        <ele>171.99231633672</ele>
        <time>2019-04-21T11:56:01Z</time>
      </trkpt>
      <trkpt lat="48.01805" lon="-2.27646">
        <ele>169.99235914243</ele>
        <time>2019-04-21T11:56:35Z</time>
      </trkpt>
      <trkpt lat="48.01809" lon="-2.27635">
        <ele>169.99237327342</ele>
        <time>2019-04-21T11:56:45Z</time>
      </trkpt>
      <trkpt lat="48.01814" lon="-2.27625">
        <ele>169.9923842917</ele>
        <time>2019-04-21T11:56:53Z</time>
      </trkpt>
      <trkpt lat="48.01819" lon="-2.27614">
        <ele>169.99239451174</ele>
        <time>2019-04-21T11:57:02Z</time>
      </trkpt>
      <trkpt lat="48.01823" lon="-2.27603">
        <ele>169.99240673616</ele>
        <time>2019-04-21T11:57:11Z</time>
      </trkpt>
      <trkpt lat="48.01827" lon="-2.27591">
        <ele>170.99242613737</ele>
        <time>2019-04-21T11:57:20Z</time>
      </trkpt>
      <trkpt lat="48.01829" lon="-2.27578">
        <ele>171.99245447795</ele>
        <time>2019-04-21T11:57:29Z</time>
      </trkpt>
      <trkpt lat="48.01831" lon="-2.27566">
        <ele>173.99248259465</ele>
        <time>2019-04-21T11:57:41Z</time>
      </trkpt>
      <trkpt lat="48.01835" lon="-2.27553">
        <ele>173.99250506258</ele>
        <time>2019-04-21T11:57:49Z</time>
      </trkpt>
      <trkpt lat="48.01837" lon="-2.27542">
        <ele>173.99252933185</ele>
        <time>2019-04-21T11:57:56Z</time>
      </trkpt>
      <trkpt lat="48.0184" lon="-2.27531">
        <ele>173.99254878452</ele>
        <time>2019-04-21T11:58:04Z</time>
      </trkpt>
      <trkpt lat="48.01843" lon="-2.27519">
        <ele>171.99257380442</ele>
        <time>2019-04-21T11:58:12Z</time>
      </trkpt>
      <trkpt lat="48.01846" lon="-2.27506">
        <ele>172.99259849675</ele>
        <time>2019-04-21T11:58:21Z</time>
      </trkpt>
      <trkpt lat="48.0185" lon="-2.27494">
        <ele>171.99261931124</ele>
        <time>2019-04-21T11:58:30Z</time>
      </trkpt>
      <trkpt lat="48.01852" lon="-2.27482">
        <ele>171.99264516567</ele>
        <time>2019-04-21T11:58:37Z</time>
      </trkpt>
      <trkpt lat="48.01857" lon="-2.27471">
        <ele>172.99265816911</ele>
        <time>2019-04-21T11:58:45Z</time>
      </trkpt>
      <trkpt lat="48.01865" lon="-2.27466">
        <ele>173.99264362399</ele>
        <time>2019-04-21T11:58:53Z</time>
      </trkpt>
      <trkpt lat="48.01872" lon="-2.2747">
        <ele>172.99260229319</ele>
        <time>2019-04-21T11:58:59Z</time>
      </trkpt>
      <trkpt lat="48.0188" lon="-2.27472">
        <ele>173.99256267165</ele>
        <time>2019-04-21T11:59:06Z</time>
      </trkpt>
      <trkpt lat="48.01889" lon="-2.27468">
        <ele>173.99253931674</ele>
        <time>2019-04-21T11:59:14Z</time>
      </trkpt>
      <trkpt lat="48.01895" lon="-2.27459">
        <ele>172.99254383866</ele>
        <time>2019-04-21T11:59:21Z</time>
      </trkpt>
      <trkpt lat="48.01897" lon="-2.27448">
        <ele>172.99256769934</ele>
        <time>2019-04-21T11:59:27Z</time>
      </trkpt>
      <trkpt lat="48.01898" lon="-2.27435">
        <ele>172.99260437818</ele>
        <time>2019-04-21T11:59:42Z</time>
      </trkpt>
      <trkpt lat="48.019" lon="-2.27424">
        <ele>172.9926324142</ele>
        <time>2019-04-21T11:59:49Z</time>
      </trkpt>
      <trkpt lat="48.01901" lon="-2.2741">
        <ele>173.99266928795</ele>
        <time>2019-04-21T11:59:57Z</time>
      </trkpt>
      <trkpt lat="48.01901" lon="-2.27398">
        <ele>172.99270464472</ele>
        <time>2019-04-21T12:00:04Z</time>
      </trkpt>
      <trkpt lat="48.01904" lon="-2.27387">
        <ele>174.99272715334</ele>
        <time>2019-04-21T12:00:33Z</time>
      </trkpt>
      <trkpt lat="48.01906" lon="-2.27375">
        <ele>173.99275922757</ele>
        <time>2019-04-21T12:00:40Z</time>
      </trkpt>
      <trkpt lat="48.0191" lon="-2.27363">
        <ele>173.9927792353</ele>
        <time>2019-04-21T12:00:54Z</time>
      </trkpt>
      <trkpt lat="48.01912" lon="-2.2735">
        <ele>174.99280996998</ele>
        <time>2019-04-21T12:01:21Z</time>
      </trkpt>
      <trkpt lat="48.01915" lon="-2.27339">
        <ele>174.99283636824</ele>
        <time>2019-04-21T12:01:29Z</time>
      </trkpt>
      <trkpt lat="48.01917" lon="-2.27326">
        <ele>177.99286647495</ele>
        <time>2019-04-21T12:02:11Z</time>
      </trkpt>
      <trkpt lat="48.01917" lon="-2.27313">
        <ele>176.99290614769</ele>
        <time>2019-04-21T12:02:20Z</time>
      </trkpt>
      <trkpt lat="48.0192" lon="-2.273">
        <ele>176.9929358329</ele>
        <time>2019-04-21T12:02:28Z</time>
      </trkpt>
      <trkpt lat="48.01921" lon="-2.2729">
        <ele>176.99296192008</ele>
        <time>2019-04-21T12:02:36Z</time>
      </trkpt>
      <trkpt lat="48.01922" lon="-2.27279">
        <ele>174.99299212144</ele>
        <time>2019-04-21T12:02:40Z</time>
      </trkpt>
      <trkpt lat="48.01925" lon="-2.27267">
        <ele>172.99302082534</ele>
        <time>2019-04-21T12:02:47Z</time>
      </trkpt>
      <trkpt lat="48.01926" lon="-2.27254">
        <ele>174.99305677019</ele>
        <time>2019-04-21T12:02:55Z</time>
      </trkpt>
      <trkpt lat="48.01924" lon="-2.27241">
        <ele>177.99310171029</ele>
        <time>2019-04-21T12:03:03Z</time>
      </trkpt>
      <trkpt lat="48.01925" lon="-2.27228">
        <ele>179.99313733418</ele>
        <time>2019-04-21T12:03:11Z</time>
      </trkpt>
      <trkpt lat="48.01929" lon="-2.27217">
        <ele>180.99316071053</ele>
        <time>2019-04-21T12:03:20Z</time>
      </trkpt>
      <trkpt lat="48.01931" lon="-2.27205">
        <ele>182.99318969706</ele>
        <time>2019-04-21T12:03:27Z</time>
      </trkpt>
      <trkpt lat="48.01933" lon="-2.27192">
        <ele>181.99321904063</ele>
        <time>2019-04-21T12:03:36Z</time>
      </trkpt>
      <trkpt lat="48.01934" lon="-2.2718">
        <ele>180.99325480222</ele>
        <time>2019-04-21T12:03:42Z</time>
      </trkpt>
      <trkpt lat="48.01937" lon="-2.27167">
        <ele>179.99328465834</ele>
        <time>2019-04-21T12:03:52Z</time>
      </trkpt>
      <trkpt lat="48.01938" lon="-2.27158">
        <ele>179.99330842589</ele>
        <time>2019-04-21T12:03:58Z</time>
      </trkpt>
      <trkpt lat="48.0194" lon="-2.27147">
        <ele>181.99333370178</ele>
        <time>2019-04-21T12:04:03Z</time>
      </trkpt>
      <trkpt lat="48.0194" lon="-2.27134">
        <ele>180.99337589575</ele>
        <time>2019-04-21T12:04:09Z</time>
      </trkpt>
      <trkpt lat="48.0194" lon="-2.27124">
        <ele>181.99340717334</ele>
        <time>2019-04-21T12:04:15Z</time>
      </trkpt>
      <trkpt lat="48.0194" lon="-2.27114">
        <ele>181.9934388655</ele>
        <time>2019-04-21T12:04:21Z</time>
      </trkpt>
      <trkpt lat="48.0194" lon="-2.27103">
        <ele>182.99347214399</ele>
        <time>2019-04-21T12:04:29Z</time>
      </trkpt>
      <trkpt lat="48.01943" lon="-2.27094">
        <ele>184.99349154524</ele>
        <time>2019-04-21T12:04:36Z</time>
      </trkpt>
      <trkpt lat="48.01947" lon="-2.27085">
        <ele>181.9935044806</ele>
        <time>2019-04-21T12:04:56Z</time>
      </trkpt>
      <trkpt lat="48.01946" lon="-2.27071">
        <ele>180.99355160762</ele>
        <time>2019-04-21T12:05:01Z</time>
      </trkpt>
      <trkpt lat="48.01947" lon="-2.2706">
        <ele>179.99358171414</ele>
        <time>2019-04-21T12:05:06Z</time>
      </trkpt>
      <trkpt lat="48.01948" lon="-2.27049">
        <ele>178.99361344299</ele>
        <time>2019-04-21T12:05:12Z</time>
      </trkpt>
      <trkpt lat="48.01948" lon="-2.27036">
        <ele>177.99365313592</ele>
        <time>2019-04-21T12:05:18Z</time>
      </trkpt>
      <trkpt lat="48.01948" lon="-2.27024">
        <ele>181.9936921373</ele>
        <time>2019-04-21T12:05:27Z</time>
      </trkpt>
      <trkpt lat="48.01951" lon="-2.27011">
        <ele>181.99372247828</ele>
        <time>2019-04-21T12:05:35Z</time>
      </trkpt>
      <trkpt lat="48.01953" lon="-2.26999">
        <ele>181.99375468767</ele>
        <time>2019-04-21T12:05:43Z</time>
      </trkpt>
      <trkpt lat="48.01953" lon="-2.26986">
        <ele>182.99379402418</ele>
        <time>2019-04-21T12:05:51Z</time>
      </trkpt>
      <trkpt lat="48.01955" lon="-2.26974">
        <ele>183.99382680108</ele>
        <time>2019-04-21T12:06:01Z</time>
      </trkpt>
      <trkpt lat="48.01956" lon="-2.26961">
        <ele>185.99386482461</ele>
        <time>2019-04-21T12:06:11Z</time>
      </trkpt>
      <trkpt lat="48.01956" lon="-2.26948">
        <ele>186.99390520697</ele>
        <time>2019-04-21T12:06:20Z</time>
      </trkpt>
      <trkpt lat="48.01959" lon="-2.26937">
        <ele>186.99393008314</ele>
        <time>2019-04-21T12:06:27Z</time>
      </trkpt>
      <trkpt lat="48.01961" lon="-2.26925">
        <ele>186.99395927465</ele>
        <time>2019-04-21T12:06:33Z</time>
      </trkpt>
      <trkpt lat="48.01964" lon="-2.26913">
        <ele>186.99399080796</ele>
        <time>2019-04-21T12:06:40Z</time>
      </trkpt>
      <trkpt lat="48.01964" lon="-2.269">
        <ele>186.99402821188</ele>
        <time>2019-04-21T12:06:49Z</time>
      </trkpt>
      <trkpt lat="48.01965" lon="-2.26887">
        <ele>187.99406892607</ele>
        <time>2019-04-21T12:07:00Z</time>
      </trkpt>
      <trkpt lat="48.01964" lon="-2.26875">
        <ele>187.99410650329</ele>
        <time>2019-04-21T12:07:06Z</time>
      </trkpt>
      <trkpt lat="48.01967" lon="-2.26863">
        <ele>187.99413826929</ele>
        <time>2019-04-21T12:07:13Z</time>
      </trkpt>
      <trkpt lat="48.01968" lon="-2.26853">
        <ele>187.9941644847</ele>
        <time>2019-04-21T12:07:20Z</time>
      </trkpt>
      <trkpt lat="48.01969" lon="-2.2684">
        <ele>187.99420314949</ele>
        <time>2019-04-21T12:07:26Z</time>
      </trkpt>
      <trkpt lat="48.01969" lon="-2.26828">
        <ele>188.99423973286</ele>
        <time>2019-04-21T12:07:35Z</time>
      </trkpt>
      <trkpt lat="48.0197" lon="-2.26816">
        <ele>189.99427581134</ele>
        <time>2019-04-21T12:07:44Z</time>
      </trkpt>
      <trkpt lat="48.01971" lon="-2.26804">
        <ele>190.99431002789</ele>
        <time>2019-04-21T12:07:50Z</time>
      </trkpt>
      <trkpt lat="48.01975" lon="-2.26792">
        <ele>189.99433800441</ele>
        <time>2019-04-21T12:07:56Z</time>
      </trkpt>
      <trkpt lat="48.01975" lon="-2.26779">
        <ele>190.99437826935</ele>
        <time>2019-04-21T12:08:02Z</time>
      </trkpt>
      <trkpt lat="48.01975" lon="-2.26766">
        <ele>191.99441826925</ele>
        <time>2019-04-21T12:08:10Z</time>
      </trkpt>
      <trkpt lat="48.01977" lon="-2.26753">
        <ele>192.99445491106</ele>
        <time>2019-04-21T12:08:19Z</time>
      </trkpt>
      <trkpt lat="48.01979" lon="-2.26741">
        <ele>191.99448561446</ele>
        <time>2019-04-21T12:08:26Z</time>
      </trkpt>
      <trkpt lat="48.01981" lon="-2.26728">
        <ele>192.99452220688</ele>
        <time>2019-04-21T12:08:34Z</time>
      </trkpt>
      <trkpt lat="48.01981" lon="-2.26716">
        <ele>193.99456366556</ele>
        <time>2019-04-21T12:08:42Z</time>
      </trkpt>
      <trkpt lat="48.01983" lon="-2.26703">
        <ele>194.99459640322</ele>
        <time>2019-04-21T12:08:50Z</time>
      </trkpt>
      <trkpt lat="48.01984" lon="-2.2669">
        <ele>193.994633252</ele>
        <time>2019-04-21T12:09:00Z</time>
      </trkpt>
      <trkpt lat="48.01985" lon="-2.26678">
        <ele>193.99467025313</ele>
        <time>2019-04-21T12:09:09Z</time>
      </trkpt>
      <trkpt lat="48.01986" lon="-2.26668">
        <ele>194.99469854462</ele>
        <time>2019-04-21T12:09:17Z</time>
      </trkpt>
      <trkpt lat="48.01989" lon="-2.26656">
        <ele>193.9947284544</ele>
        <time>2019-04-21T12:09:23Z</time>
      </trkpt>
      <trkpt lat="48.01992" lon="-2.26644">
        <ele>196.99476163157</ele>
        <time>2019-04-21T12:09:32Z</time>
      </trkpt>
      <trkpt lat="48.01995" lon="-2.26631">
        <ele>195.99479361171</ele>
        <time>2019-04-21T12:09:41Z</time>
      </trkpt>
      <trkpt lat="48.01997" lon="-2.26619">
        <ele>194.99482680247</ele>
        <time>2019-04-21T12:09:49Z</time>
      </trkpt>
      <trkpt lat="48.01999" lon="-2.26608">
        <ele>191.99485924599</ele>
        <time>2019-04-21T12:09:55Z</time>
      </trkpt>
      <trkpt lat="48.01999" lon="-2.26594">
        <ele>193.9949010767</ele>
        <time>2019-04-21T12:10:02Z</time>
      </trkpt>
      <trkpt lat="48.02001" lon="-2.26582">
        <ele>192.99493573377</ele>
        <time>2019-04-21T12:10:08Z</time>
      </trkpt>
      <trkpt lat="48.02002" lon="-2.2657">
        <ele>194.99497151035</ele>
        <time>2019-04-21T12:10:15Z</time>
      </trkpt>
      <trkpt lat="48.02004" lon="-2.26556">
        <ele>195.99500854564</ele>
        <time>2019-04-21T12:10:22Z</time>
      </trkpt>
      <trkpt lat="48.02002" lon="-2.26545">
        <ele>194.99505227752</ele>
        <time>2019-04-21T12:10:30Z</time>
      </trkpt>
      <trkpt lat="48.01994" lon="-2.26549">
        <ele>190.99505999751</ele>
        <time>2019-04-21T12:10:41Z</time>
      </trkpt>
      <trkpt lat="48.01985" lon="-2.2655">
        <ele>190.9950783079</ele>
        <time>2019-04-21T12:10:50Z</time>
      </trkpt>
      <trkpt lat="48.01976" lon="-2.26549">
        <ele>191.99510159228</ele>
        <time>2019-04-21T12:10:59Z</time>
      </trkpt>
      <trkpt lat="48.01968" lon="-2.2655">
        <ele>194.99511932816</ele>
        <time>2019-04-21T12:11:07Z</time>
      </trkpt>
      <trkpt lat="48.0196" lon="-2.26551">
        <ele>195.9951384949</ele>
        <time>2019-04-21T12:11:13Z</time>
      </trkpt>
      <trkpt lat="48.01952" lon="-2.26551">
        <ele>196.99515783435</ele>
        <time>2019-04-21T12:11:20Z</time>
      </trkpt>
      <trkpt lat="48.01943" lon="-2.26552">
        <ele>197.99517431597</ele>
        <time>2019-04-21T12:11:27Z</time>
      </trkpt>
      <trkpt lat="48.01935" lon="-2.26555">
        <ele>196.99518558646</ele>
        <time>2019-04-21T12:11:37Z</time>
      </trkpt>
      <trkpt lat="48.01926" lon="-2.26558">
        <ele>197.99519820097</ele>
        <time>2019-04-21T12:11:50Z</time>
      </trkpt>
      <trkpt lat="48.01919" lon="-2.26566">
        <ele>196.99519239698</ele>
        <time>2019-04-21T12:11:54Z</time>
      </trkpt>
      <trkpt lat="48.01912" lon="-2.26571">
        <ele>195.99519571833</ele>
        <time>2019-04-21T12:12:03Z</time>
      </trkpt>
      <trkpt lat="48.01903" lon="-2.26567">
        <ele>194.99522854772</ele>
        <time>2019-04-21T12:12:10Z</time>
      </trkpt>
      <trkpt lat="48.01895" lon="-2.26562">
        <ele>193.99526275916</ele>
        <time>2019-04-21T12:12:16Z</time>
      </trkpt>
      <trkpt lat="48.01887" lon="-2.26558">
        <ele>190.99529572942</ele>
        <time>2019-04-21T12:12:25Z</time>
      </trkpt>
      <trkpt lat="48.01879" lon="-2.26556">
        <ele>188.99532198149</ele>
        <time>2019-04-21T12:12:32Z</time>
      </trkpt>
      <trkpt lat="48.01871" lon="-2.26551">
        <ele>187.9953564884</ele>
        <time>2019-04-21T12:12:41Z</time>
      </trkpt>
      <trkpt lat="48.01864" lon="-2.26545">
        <ele>186.99539267598</ele>
        <time>2019-04-21T12:12:55Z</time>
      </trkpt>
      <trkpt lat="48.01858" lon="-2.2654">
        <ele>183.99542292955</ele>
        <time>2019-04-21T12:13:02Z</time>
      </trkpt>
      <trkpt lat="48.0185" lon="-2.26533">
        <ele>182.99546230978</ele>
        <time>2019-04-21T12:13:11Z</time>
      </trkpt>
      <trkpt lat="48.01843" lon="-2.26525">
        <ele>182.9955022088</ele>
        <time>2019-04-21T12:13:21Z</time>
      </trkpt>
      <trkpt lat="48.0184" lon="-2.26514">
        <ele>180.99554279794</ele>
        <time>2019-04-21T12:13:30Z</time>
      </trkpt>
      <trkpt lat="48.01835" lon="-2.26505">
        <ele>178.99558189187</ele>
        <time>2019-04-21T12:13:38Z</time>
      </trkpt>
      <trkpt lat="48.01829" lon="-2.26496">
        <ele>177.99562121113</ele>
        <time>2019-04-21T12:13:45Z</time>
      </trkpt>
      <trkpt lat="48.01822" lon="-2.2649">
        <ele>178.9956563741</ele>
        <time>2019-04-21T12:13:52Z</time>
      </trkpt>
      <trkpt lat="48.01813" lon="-2.26486">
        <ele>177.99568930866</ele>
        <time>2019-04-21T12:13:58Z</time>
      </trkpt>
      <trkpt lat="48.01805" lon="-2.26487">
        <ele>175.99570550355</ele>
        <time>2019-04-21T12:14:09Z</time>
      </trkpt>
      <trkpt lat="48.01796" lon="-2.26489">
        <ele>173.99572079891</ele>
        <time>2019-04-21T12:14:19Z</time>
      </trkpt>
      <trkpt lat="48.01788" lon="-2.26486">
        <ele>172.99574983924</ele>
        <time>2019-04-21T12:14:28Z</time>
      </trkpt>
      <trkpt lat="48.0178" lon="-2.26481">
        <ele>171.99578254347</ele>
        <time>2019-04-21T12:14:38Z</time>
      </trkpt>
      <trkpt lat="48.01772" lon="-2.2648">
        <ele>166.99580411951</ele>
        <time>2019-04-21T12:14:48Z</time>
      </trkpt>
      <trkpt lat="48.01763" lon="-2.26478">
        <ele>163.99583096431</ele>
        <time>2019-04-21T12:14:56Z</time>
      </trkpt>
      <trkpt lat="48.01755" lon="-2.2648">
        <ele>160.99584629177</ele>
        <time>2019-04-21T12:15:08Z</time>
      </trkpt>
      <trkpt lat="48.01756" lon="-2.26493">
        <ele>157.99580662961</ele>
        <time>2019-04-21T12:15:22Z</time>
      </trkpt>
      <trkpt lat="48.01754" lon="-2.26506">
        <ele>156.99577482233</ele>
        <time>2019-04-21T12:15:30Z</time>
      </trkpt>
      <trkpt lat="48.01753" lon="-2.26519">
        <ele>154.99574044243</ele>
        <time>2019-04-21T12:15:37Z</time>
      </trkpt>
      <trkpt lat="48.01753" lon="-2.26531">
        <ele>155.99570532967</ele>
        <time>2019-04-21T12:15:43Z</time>
      </trkpt>
      <trkpt lat="48.01751" lon="-2.26544">
        <ele>154.99567436951</ele>
        <time>2019-04-21T12:15:50Z</time>
      </trkpt>
      <trkpt lat="48.0175" lon="-2.26557">
        <ele>153.99564015134</ele>
        <time>2019-04-21T12:15:57Z</time>
      </trkpt>
      <trkpt lat="48.01749" lon="-2.2657">
        <ele>153.99560861825</ele>
        <time>2019-04-21T12:16:06Z</time>
      </trkpt>
      <trkpt lat="48.01746" lon="-2.26582">
        <ele>153.99557944347</ele>
        <time>2019-04-21T12:16:16Z</time>
      </trkpt>
      <trkpt lat="48.01745" lon="-2.26594">
        <ele>152.99555080793</ele>
        <time>2019-04-21T12:16:22Z</time>
      </trkpt>
      <trkpt lat="48.01742" lon="-2.26604">
        <ele>150.99553142851</ele>
        <time>2019-04-21T12:16:27Z</time>
      </trkpt>
      <trkpt lat="48.01738" lon="-2.26612">
        <ele>149.99551872917</ele>
        <time>2019-04-21T12:16:34Z</time>
      </trkpt>
      <trkpt lat="48.01732" lon="-2.26622">
        <ele>148.99550332014</ele>
        <time>2019-04-21T12:16:40Z</time>
      </trkpt>
      <trkpt lat="48.01725" lon="-2.26629">
        <ele>143.99550500054</ele>
        <time>2019-04-21T12:16:50Z</time>
      </trkpt>
      <trkpt lat="48.01718" lon="-2.26636">
        <ele>143.99550374041</ele>
        <time>2019-04-21T12:16:58Z</time>
      </trkpt>
      <trkpt lat="48.0171" lon="-2.26642">
        <ele>144.99550828671</ele>
        <time>2019-04-21T12:17:05Z</time>
      </trkpt>
      <trkpt lat="48.01705" lon="-2.26651">
        <ele>142.9954955379</ele>
        <time>2019-04-21T12:17:14Z</time>
      </trkpt>
      <trkpt lat="48.01698" lon="-2.26656">
        <ele>144.99549900371</ele>
        <time>2019-04-21T12:17:22Z</time>
      </trkpt>
      <trkpt lat="48.01693" lon="-2.26665">
        <ele>147.99549066987</ele>
        <time>2019-04-21T12:17:29Z</time>
      </trkpt>
      <trkpt lat="48.01686" lon="-2.2667">
        <ele>148.9954966972</ele>
        <time>2019-04-21T12:17:36Z</time>
      </trkpt>
      <trkpt lat="48.01678" lon="-2.26676">
        <ele>147.99550109629</ele>
        <time>2019-04-21T12:17:43Z</time>
      </trkpt>
      <trkpt lat="48.01671" lon="-2.26684">
        <ele>147.99549948715</ele>
        <time>2019-04-21T12:17:50Z</time>
      </trkpt>
      <trkpt lat="48.01665" lon="-2.26694">
        <ele>146.99548748791</ele>
        <time>2019-04-21T12:17:57Z</time>
      </trkpt>
      <trkpt lat="48.01659" lon="-2.26701">
        <ele>146.99548607135</ele>
        <time>2019-04-21T12:18:04Z</time>
      </trkpt>
      <trkpt lat="48.01653" lon="-2.2671">
        <ele>146.99547719662</ele>
        <time>2019-04-21T12:18:11Z</time>
      </trkpt>
      <trkpt lat="48.01648" lon="-2.26717">
        <ele>146.99547311236</ele>
        <time>2019-04-21T12:18:18Z</time>
      </trkpt>
      <trkpt lat="48.0164" lon="-2.26725">
        <ele>145.99547328136</ele>
        <time>2019-04-21T12:18:26Z</time>
      </trkpt>
      <trkpt lat="48.01635" lon="-2.26735">
        <ele>144.99546135188</ele>
        <time>2019-04-21T12:18:34Z</time>
      </trkpt>
      <trkpt lat="48.01631" lon="-2.26743">
        <ele>144.99545145643</ele>
        <time>2019-04-21T12:18:43Z</time>
      </trkpt>
      <trkpt lat="48.01626" lon="-2.26751">
        <ele>141.99544508035</ele>
        <time>2019-04-21T12:18:47Z</time>
      </trkpt>
      <trkpt lat="48.0162" lon="-2.2676">
        <ele>140.99543682072</ele>
        <time>2019-04-21T12:18:55Z</time>
      </trkpt>
      <trkpt lat="48.01615" lon="-2.26769">
        <ele>141.99542976491</ele>
        <time>2019-04-21T12:19:01Z</time>
      </trkpt>
      <trkpt lat="48.01609" lon="-2.26777">
        <ele>138.99542549998</ele>
        <time>2019-04-21T12:19:07Z</time>
      </trkpt>
      <trkpt lat="48.01603" lon="-2.26785">
        <ele>138.99542313548</ele>
        <time>2019-04-21T12:19:16Z</time>
      </trkpt>
      <trkpt lat="48.01598" lon="-2.26796">
        <ele>137.99540792793</ele>
        <time>2019-04-21T12:19:22Z</time>
      </trkpt>
      <trkpt lat="48.01592" lon="-2.26805">
        <ele>134.99540190385</ele>
        <time>2019-04-21T12:19:29Z</time>
      </trkpt>
      <trkpt lat="48.01588" lon="-2.26815">
        <ele>134.99538898667</ele>
        <time>2019-04-21T12:19:35Z</time>
      </trkpt>
      <trkpt lat="48.01586" lon="-2.26827">
        <ele>134.99536464681</ele>
        <time>2019-04-21T12:19:43Z</time>
      </trkpt>
      <trkpt lat="48.01583" lon="-2.26837">
        <ele>132.99534707787</ele>
        <time>2019-04-21T12:19:51Z</time>
      </trkpt>
      <trkpt lat="48.01582" lon="-2.26848">
        <ele>132.99532224884</ele>
        <time>2019-04-21T12:19:55Z</time>
      </trkpt>
      <trkpt lat="48.01581" lon="-2.26859">
        <ele>131.99529895945</ele>
        <time>2019-04-21T12:20:01Z</time>
      </trkpt>
      <trkpt lat="48.01579" lon="-2.26869">
        <ele>129.99527787037</ele>
        <time>2019-04-21T12:20:07Z</time>
      </trkpt>
      <trkpt lat="48.01576" lon="-2.2688">
        <ele>128.99526093914</ele>
        <time>2019-04-21T12:20:15Z</time>
      </trkpt>
      <trkpt lat="48.01573" lon="-2.26891">
        <ele>125.99523901014</ele>
        <time>2019-04-21T12:20:21Z</time>
      </trkpt>
      <trkpt lat="48.01571" lon="-2.26903">
        <ele>126.99521941404</ele>
        <time>2019-04-21T12:20:27Z</time>
      </trkpt>
      <trkpt lat="48.01568" lon="-2.26915">
        <ele>121.99519684996</ele>
        <time>2019-04-21T12:20:35Z</time>
      </trkpt>
      <trkpt lat="48.01564" lon="-2.26927">
        <ele>123.99517723368</ele>
        <time>2019-04-21T12:20:43Z</time>
      </trkpt>
      <trkpt lat="48.01563" lon="-2.2694">
        <ele>123.99515039527</ele>
        <time>2019-04-21T12:20:51Z</time>
      </trkpt>
      <trkpt lat="48.01563" lon="-2.26953">
        <ele>123.99511709183</ele>
        <time>2019-04-21T12:20:58Z</time>
      </trkpt>
      <trkpt lat="48.01562" lon="-2.26965">
        <ele>124.99508939127</ele>
        <time>2019-04-21T12:21:05Z</time>
      </trkpt>
      <trkpt lat="48.01564" lon="-2.26977">
        <ele>125.99505464641</ele>
        <time>2019-04-21T12:21:12Z</time>
      </trkpt>
      <trkpt lat="48.01561" lon="-2.26988">
        <ele>126.99503659947</ele>
        <time>2019-04-21T12:21:19Z</time>
      </trkpt>
      <trkpt lat="48.0156" lon="-2.27">
        <ele>126.99500993961</ele>
        <time>2019-04-21T12:21:25Z</time>
      </trkpt>
      <trkpt lat="48.01556" lon="-2.27011">
        <ele>125.99499315141</ele>
        <time>2019-04-21T12:21:31Z</time>
      </trkpt>
      <trkpt lat="48.01554" lon="-2.27021">
        <ele>125.99497417182</ele>
        <time>2019-04-21T12:21:37Z</time>
      </trkpt>
      <trkpt lat="48.0155" lon="-2.27032">
        <ele>126.99496035981</ele>
        <time>2019-04-21T12:21:45Z</time>
      </trkpt>
      <trkpt lat="48.01548" lon="-2.27043">
        <ele>126.99494135585</ele>
        <time>2019-04-21T12:21:53Z</time>
      </trkpt>
      <trkpt lat="48.01544" lon="-2.27055">
        <ele>126.99492368081</ele>
        <time>2019-04-21T12:21:59Z</time>
      </trkpt>
      <trkpt lat="48.01541" lon="-2.27066">
        <ele>126.9949057788</ele>
        <time>2019-04-21T12:22:08Z</time>
      </trkpt>
      <trkpt lat="48.01538" lon="-2.27077">
        <ele>127.99488837203</ele>
        <time>2019-04-21T12:22:13Z</time>
      </trkpt>
      <trkpt lat="48.01536" lon="-2.2709">
        <ele>128.99486548263</ele>
        <time>2019-04-21T12:22:21Z</time>
      </trkpt>
      <trkpt lat="48.01535" lon="-2.27101">
        <ele>130.99483941387</ele>
        <time>2019-04-21T12:22:26Z</time>
      </trkpt>
      <trkpt lat="48.01531" lon="-2.27112">
        <ele>132.99482441129</ele>
        <time>2019-04-21T12:22:32Z</time>
      </trkpt>
      <trkpt lat="48.01528" lon="-2.27123">
        <ele>131.99480931116</ele>
        <time>2019-04-21T12:22:37Z</time>
      </trkpt>
      <trkpt lat="48.01526" lon="-2.27136">
        <ele>131.99478515699</ele>
        <time>2019-04-21T12:22:43Z</time>
      </trkpt>
      <trkpt lat="48.01522" lon="-2.27148">
        <ele>135.99477008484</ele>
        <time>2019-04-21T12:22:50Z</time>
      </trkpt>
      <trkpt lat="48.01517" lon="-2.27158">
        <ele>133.99476283726</ele>
        <time>2019-04-21T12:22:59Z</time>
      </trkpt>
      <trkpt lat="48.01511" lon="-2.27166">
        <ele>133.99476291401</ele>
        <time>2019-04-21T12:23:05Z</time>
      </trkpt>
      <trkpt lat="48.01504" lon="-2.27172">
        <ele>134.99477093108</ele>
        <time>2019-04-21T12:23:12Z</time>
      </trkpt>
      <trkpt lat="48.01497" lon="-2.2718">
        <ele>135.99477813146</ele>
        <time>2019-04-21T12:23:22Z</time>
      </trkpt>
      <trkpt lat="48.01494" lon="-2.27192">
        <ele>132.99476087651</ele>
        <time>2019-04-21T12:23:32Z</time>
      </trkpt>
      <trkpt lat="48.0149" lon="-2.27203">
        <ele>130.99474878902</ele>
        <time>2019-04-21T12:23:39Z</time>
      </trkpt>
      <trkpt lat="48.01488" lon="-2.27214">
        <ele>129.99473050637</ele>
        <time>2019-04-21T12:23:46Z</time>
      </trkpt>
      <trkpt lat="48.01487" lon="-2.27227">
        <ele>126.99469952953</ele>
        <time>2019-04-21T12:23:53Z</time>
      </trkpt>
      <trkpt lat="48.0149" lon="-2.27238">
        <ele>126.99466401825</ele>
        <time>2019-04-21T12:24:00Z</time>
      </trkpt>
      <trkpt lat="48.01493" lon="-2.27249">
        <ele>125.99462850067</ele>
        <time>2019-04-21T12:24:06Z</time>
      </trkpt>
      <trkpt lat="48.01493" lon="-2.27262">
        <ele>124.99459585487</ele>
        <time>2019-04-21T12:24:13Z</time>
      </trkpt>
      <trkpt lat="48.01493" lon="-2.27275">
        <ele>124.99456507402</ele>
        <time>2019-04-21T12:24:20Z</time>
      </trkpt>
      <trkpt lat="48.01493" lon="-2.27288">
        <ele>122.99453634693</ele>
        <time>2019-04-21T12:24:26Z</time>
      </trkpt>
      <trkpt lat="48.01494" lon="-2.273">
        <ele>122.99450128141</ele>
        <time>2019-04-21T12:24:34Z</time>
      </trkpt>
      <trkpt lat="48.01495" lon="-2.27312">
        <ele>122.99446918064</ele>
        <time>2019-04-21T12:24:42Z</time>
      </trkpt>
      <trkpt lat="48.01499" lon="-2.27323">
        <ele>121.99442948885</ele>
        <time>2019-04-21T12:24:49Z</time>
      </trkpt>
      <trkpt lat="48.015" lon="-2.27336">
        <ele>118.99439479314</ele>
        <time>2019-04-21T12:24:56Z</time>
      </trkpt>
      <trkpt lat="48.01499" lon="-2.27349">
        <ele>119.99436653272</ele>
        <time>2019-04-21T12:25:02Z</time>
      </trkpt>
      <trkpt lat="48.015" lon="-2.27359">
        <ele>119.99434046252</ele>
        <time>2019-04-21T12:25:08Z</time>
      </trkpt>
      <trkpt lat="48.01499" lon="-2.27371">
        <ele>118.99431343743</ele>
        <time>2019-04-21T12:25:15Z</time>
      </trkpt>
      <trkpt lat="48.01495" lon="-2.27383">
        <ele>118.99430235943</ele>
        <time>2019-04-21T12:25:21Z</time>
      </trkpt>
      <trkpt lat="48.01491" lon="-2.27395">
        <ele>118.99428693356</ele>
        <time>2019-04-21T12:25:28Z</time>
      </trkpt>
      <trkpt lat="48.01492" lon="-2.27405">
        <ele>117.99425968663</ele>
        <time>2019-04-21T12:25:34Z</time>
      </trkpt>
      <trkpt lat="48.01489" lon="-2.27417">
        <ele>116.99424104753</ele>
        <time>2019-04-21T12:25:42Z</time>
      </trkpt>
      <trkpt lat="48.01488" lon="-2.27428">
        <ele>115.99421951399</ele>
        <time>2019-04-21T12:25:48Z</time>
      </trkpt>
      <trkpt lat="48.01486" lon="-2.2744">
        <ele>115.99419976051</ele>
        <time>2019-04-21T12:25:54Z</time>
      </trkpt>
      <trkpt lat="48.01484" lon="-2.27453">
        <ele>115.99417701303</ele>
        <time>2019-04-21T12:26:01Z</time>
      </trkpt>
      <trkpt lat="48.01484" lon="-2.27464">
        <ele>116.994151733</ele>
        <time>2019-04-21T12:26:08Z</time>
      </trkpt>
      <trkpt lat="48.01482" lon="-2.27474">
        <ele>116.99413420789</ele>
        <time>2019-04-21T12:26:14Z</time>
      </trkpt>
      <trkpt lat="48.01481" lon="-2.27486">
        <ele>115.99411002028</ele>
        <time>2019-04-21T12:26:20Z</time>
      </trkpt>
      <trkpt lat="48.01478" lon="-2.27497">
        <ele>114.99409361795</ele>
        <time>2019-04-21T12:26:26Z</time>
      </trkpt>
      <trkpt lat="48.01476" lon="-2.27506">
        <ele>114.99408140722</ele>
        <time>2019-04-21T12:26:30Z</time>
      </trkpt>
      <trkpt lat="48.01475" lon="-2.27519">
        <ele>113.99405574251</ele>
        <time>2019-04-21T12:26:36Z</time>
      </trkpt>
      <trkpt lat="48.01473" lon="-2.2753">
        <ele>113.99403603065</ele>
        <time>2019-04-21T12:26:43Z</time>
      </trkpt>
      <trkpt lat="48.0147" lon="-2.27542">
        <ele>114.99401999228</ele>
        <time>2019-04-21T12:26:50Z</time>
      </trkpt>
      <trkpt lat="48.01469" lon="-2.27553">
        <ele>115.99400054449</ele>
        <time>2019-04-21T12:26:56Z</time>
      </trkpt>
      <trkpt lat="48.01466" lon="-2.27562">
        <ele>113.99399127831</ele>
        <time>2019-04-21T12:27:02Z</time>
      </trkpt>
      <trkpt lat="48.01463" lon="-2.27574">
        <ele>113.99397480795</ele>
        <time>2019-04-21T12:27:09Z</time>
      </trkpt>
      <trkpt lat="48.01462" lon="-2.27586">
        <ele>114.99395400812</ele>
        <time>2019-04-21T12:27:16Z</time>
      </trkpt>
      <trkpt lat="48.01458" lon="-2.27596">
        <ele>113.99394430736</ele>
        <time>2019-04-21T12:27:22Z</time>
      </trkpt>
      <trkpt lat="48.01457" lon="-2.27607">
        <ele>115.9939254588</ele>
        <time>2019-04-21T12:27:28Z</time>
      </trkpt>
      <trkpt lat="48.01453" lon="-2.27619">
        <ele>115.99391272523</ele>
        <time>2019-04-21T12:27:35Z</time>
      </trkpt>
      <trkpt lat="48.01449" lon="-2.27631">
        <ele>116.99390036884</ele>
        <time>2019-04-21T12:27:42Z</time>
      </trkpt>
      <trkpt lat="48.01446" lon="-2.27642">
        <ele>116.99388725607</ele>
        <time>2019-04-21T12:27:48Z</time>
      </trkpt>
      <trkpt lat="48.01443" lon="-2.27651">
        <ele>116.99387876626</ele>
        <time>2019-04-21T12:27:54Z</time>
      </trkpt>
      <trkpt lat="48.01438" lon="-2.2766">
        <ele>117.99387981296</ele>
        <time>2019-04-21T12:28:01Z</time>
      </trkpt>
      <trkpt lat="48.01432" lon="-2.27668">
        <ele>118.99388509665</ele>
        <time>2019-04-21T12:28:07Z</time>
      </trkpt>
      <trkpt lat="48.01428" lon="-2.27678">
        <ele>119.99388220726</ele>
        <time>2019-04-21T12:28:14Z</time>
      </trkpt>
      <trkpt lat="48.01423" lon="-2.27687">
        <ele>120.99388313218</ele>
        <time>2019-04-21T12:28:20Z</time>
      </trkpt>
      <trkpt lat="48.01418" lon="-2.27697">
        <ele>120.99388186125</ele>
        <time>2019-04-21T12:28:27Z</time>
      </trkpt>
      <trkpt lat="48.01415" lon="-2.27709">
        <ele>120.99386804699</ele>
        <time>2019-04-21T12:28:34Z</time>
      </trkpt>
      <trkpt lat="48.01412" lon="-2.2772">
        <ele>120.99385641603</ele>
        <time>2019-04-21T12:28:40Z</time>
      </trkpt>
      <trkpt lat="48.01411" lon="-2.27732">
        <ele>120.99383481354</ele>
        <time>2019-04-21T12:28:47Z</time>
      </trkpt>
      <trkpt lat="48.0141" lon="-2.27745">
        <ele>119.99380922579</ele>
        <time>2019-04-21T12:28:54Z</time>
      </trkpt>
      <trkpt lat="48.01409" lon="-2.27758">
        <ele>118.9937824249</ele>
        <time>2019-04-21T12:29:01Z</time>
      </trkpt>
      <trkpt lat="48.01407" lon="-2.2777">
        <ele>119.99376332673</ele>
        <time>2019-04-21T12:29:08Z</time>
      </trkpt>
      <trkpt lat="48.01404" lon="-2.27783">
        <ele>119.99374812557</ele>
        <time>2019-04-21T12:29:17Z</time>
      </trkpt>
      <trkpt lat="48.01403" lon="-2.27796">
        <ele>120.99372238548</ele>
        <time>2019-04-21T12:29:26Z</time>
      </trkpt>
      <trkpt lat="48.01403" lon="-2.27809">
        <ele>120.99369402686</ele>
        <time>2019-04-21T12:29:33Z</time>
      </trkpt>
      <trkpt lat="48.01402" lon="-2.27822">
        <ele>120.99367158174</ele>
        <time>2019-04-21T12:29:41Z</time>
      </trkpt>
      <trkpt lat="48.01401" lon="-2.27834">
        <ele>121.99364703643</ele>
        <time>2019-04-21T12:29:49Z</time>
      </trkpt>
      <trkpt lat="48.01399" lon="-2.27847">
        <ele>121.99362732419</ele>
        <time>2019-04-21T12:29:55Z</time>
      </trkpt>
      <trkpt lat="48.01398" lon="-2.27858">
        <ele>121.99360838509</ele>
        <time>2019-04-21T12:30:01Z</time>
      </trkpt>
      <trkpt lat="48.01396" lon="-2.2787">
        <ele>121.99359186027</ele>
        <time>2019-04-21T12:30:07Z</time>
      </trkpt>
      <trkpt lat="48.01394" lon="-2.27882">
        <ele>119.99357379715</ele>
        <time>2019-04-21T12:30:13Z</time>
      </trkpt>
      <trkpt lat="48.01391" lon="-2.27893">
        <ele>119.9935595754</ele>
        <time>2019-04-21T12:30:19Z</time>
      </trkpt>
      <trkpt lat="48.0139" lon="-2.27907">
        <ele>118.9935342446</ele>
        <time>2019-04-21T12:30:26Z</time>
      </trkpt>
      <trkpt lat="48.01388" lon="-2.27916">
        <ele>116.99352573766</ele>
        <time>2019-04-21T12:30:32Z</time>
      </trkpt>
      <trkpt lat="48.01384" lon="-2.27928">
        <ele>116.99351819466</ele>
        <time>2019-04-21T12:30:40Z</time>
      </trkpt>
      <trkpt lat="48.01381" lon="-2.2794">
        <ele>115.99350734649</ele>
        <time>2019-04-21T12:30:47Z</time>
      </trkpt>
      <trkpt lat="48.01377" lon="-2.27951">
        <ele>115.99349976629</ele>
        <time>2019-04-21T12:30:55Z</time>
      </trkpt>
      <trkpt lat="48.01371" lon="-2.2796">
        <ele>115.99350658872</ele>
        <time>2019-04-21T12:31:03Z</time>
      </trkpt>
      <trkpt lat="48.01365" lon="-2.27968">
        <ele>114.99351619717</ele>
        <time>2019-04-21T12:31:09Z</time>
      </trkpt>
      <trkpt lat="48.01359" lon="-2.27972">
        <ele>116.99354100483</ele>
        <time>2019-04-21T12:31:16Z</time>
      </trkpt>
      <trkpt lat="48.01353" lon="-2.27979">
        <ele>116.99354938402</ele>
        <time>2019-04-21T12:31:22Z</time>
      </trkpt>
      <trkpt lat="48.01347" lon="-2.27988">
        <ele>114.99356209634</ele>
        <time>2019-04-21T12:31:30Z</time>
      </trkpt>
      <trkpt lat="48.01341" lon="-2.27995">
        <ele>114.99357648682</ele>
        <time>2019-04-21T12:31:35Z</time>
      </trkpt>
      <trkpt lat="48.01334" lon="-2.28003">
        <ele>113.9935907774</ele>
        <time>2019-04-21T12:31:42Z</time>
      </trkpt>
      <trkpt lat="48.01327" lon="-2.28008">
        <ele>115.99361624892</ele>
        <time>2019-04-21T12:31:49Z</time>
      </trkpt>
      <trkpt lat="48.01319" lon="-2.28011">
        <ele>115.99364788403</ele>
        <time>2019-04-21T12:31:58Z</time>
      </trkpt>
      <trkpt lat="48.01311" lon="-2.28017">
        <ele>115.99367245647</ele>
        <time>2019-04-21T12:32:06Z</time>
      </trkpt>
      <trkpt lat="48.01304" lon="-2.28021">
        <ele>117.99369800802</ele>
        <time>2019-04-21T12:32:14Z</time>
      </trkpt>
      <trkpt lat="48.01295" lon="-2.28022">
        <ele>116.99373905165</ele>
        <time>2019-04-21T12:32:21Z</time>
      </trkpt>
      <trkpt lat="48.01287" lon="-2.28026">
        <ele>113.99376921993</ele>
        <time>2019-04-21T12:32:27Z</time>
      </trkpt>
      <trkpt lat="48.01279" lon="-2.2803">
        <ele>112.99380082018</ele>
        <time>2019-04-21T12:32:34Z</time>
      </trkpt>
      <trkpt lat="48.01271" lon="-2.28034">
        <ele>109.99382901255</ele>
        <time>2019-04-21T12:32:44Z</time>
      </trkpt>
      <trkpt lat="48.01264" lon="-2.28038">
        <ele>110.99385661521</ele>
        <time>2019-04-21T12:32:52Z</time>
      </trkpt>
      <trkpt lat="48.01256" lon="-2.28041">
        <ele>110.99388664656</ele>
        <time>2019-04-21T12:32:58Z</time>
      </trkpt>
      <trkpt lat="48.01248" lon="-2.28046">
        <ele>108.99391730662</ele>
        <time>2019-04-21T12:33:05Z</time>
      </trkpt>
      <trkpt lat="48.01241" lon="-2.2805">
        <ele>108.99394413757</ele>
        <time>2019-04-21T12:33:14Z</time>
      </trkpt>
      <trkpt lat="48.01236" lon="-2.28056">
        <ele>108.99395637729</ele>
        <time>2019-04-21T12:33:18Z</time>
      </trkpt>
      <trkpt lat="48.0123" lon="-2.28062">
        <ele>108.99397379266</ele>
        <time>2019-04-21T12:33:25Z</time>
      </trkpt>
      <trkpt lat="48.01223" lon="-2.2807">
        <ele>106.99399227093</ele>
        <time>2019-04-21T12:33:32Z</time>
      </trkpt>
      <trkpt lat="48.01216" lon="-2.28078">
        <ele>105.9940104243</ele>
        <time>2019-04-21T12:33:38Z</time>
      </trkpt>
      <trkpt lat="48.0121" lon="-2.28085">
        <ele>105.99402964975</ele>
        <time>2019-04-21T12:33:45Z</time>
      </trkpt>
      <trkpt lat="48.01203" lon="-2.28094">
        <ele>107.99404344368</ele>
        <time>2019-04-21T12:33:51Z</time>
      </trkpt>
      <trkpt lat="48.01196" lon="-2.281">
        <ele>108.99406740426</ele>
        <time>2019-04-21T12:33:57Z</time>
      </trkpt>
      <trkpt lat="48.0119" lon="-2.28108">
        <ele>108.99408431571</ele>
        <time>2019-04-21T12:34:04Z</time>
      </trkpt>
      <trkpt lat="48.01183" lon="-2.28117">
        <ele>106.99410328185</ele>
        <time>2019-04-21T12:34:11Z</time>
      </trkpt>
      <trkpt lat="48.01177" lon="-2.28127">
        <ele>106.99411378054</ele>
        <time>2019-04-21T12:34:18Z</time>
      </trkpt>
      <trkpt lat="48.0117" lon="-2.28134">
        <ele>105.99413286142</ele>
        <time>2019-04-21T12:34:26Z</time>
      </trkpt>
      <trkpt lat="48.01164" lon="-2.28143">
        <ele>106.99414478703</ele>
        <time>2019-04-21T12:34:33Z</time>
      </trkpt>
      <trkpt lat="48.01159" lon="-2.28153">
        <ele>105.99415573277</ele>
        <time>2019-04-21T12:34:40Z</time>
      </trkpt>
      <trkpt lat="48.01153" lon="-2.28162">
        <ele>107.99416940634</ele>
        <time>2019-04-21T12:34:48Z</time>
      </trkpt>
      <trkpt lat="48.01147" lon="-2.28172">
        <ele>108.994181195</ele>
        <time>2019-04-21T12:34:56Z</time>
      </trkpt>
      <trkpt lat="48.0114" lon="-2.2818">
        <ele>108.99420005869</ele>
        <time>2019-04-21T12:35:04Z</time>
      </trkpt>
      <trkpt lat="48.01135" lon="-2.28188">
        <ele>109.99421154452</ele>
        <time>2019-04-21T12:35:10Z</time>
      </trkpt>
      <trkpt lat="48.01129" lon="-2.28198">
        <ele>108.99422402115</ele>
        <time>2019-04-21T12:35:18Z</time>
      </trkpt>
      <trkpt lat="48.01123" lon="-2.28206">
        <ele>107.99424060966</ele>
        <time>2019-04-21T12:35:25Z</time>
      </trkpt>
      <trkpt lat="48.01116" lon="-2.28212">
        <ele>106.99426366798</ele>
        <time>2019-04-21T12:35:33Z</time>
      </trkpt>
      <trkpt lat="48.01111" lon="-2.28222">
        <ele>107.99427484418</ele>
        <time>2019-04-21T12:35:39Z</time>
      </trkpt>
      <trkpt lat="48.01106" lon="-2.28233">
        <ele>107.99428080401</ele>
        <time>2019-04-21T12:35:46Z</time>
      </trkpt>
      <trkpt lat="48.01101" lon="-2.28242">
        <ele>107.99429201584</ele>
        <time>2019-04-21T12:35:54Z</time>
      </trkpt>
      <trkpt lat="48.01095" lon="-2.28251">
        <ele>108.99430528237</ele>
        <time>2019-04-21T12:36:02Z</time>
      </trkpt>
      <trkpt lat="48.01087" lon="-2.28257">
        <ele>109.99433768568</ele>
        <time>2019-04-21T12:36:10Z</time>
      </trkpt>
      <trkpt lat="48.01081" lon="-2.28265">
        <ele>110.99435580222</ele>
        <time>2019-04-21T12:36:17Z</time>
      </trkpt>
      <trkpt lat="48.01074" lon="-2.28274">
        <ele>110.9943727154</ele>
        <time>2019-04-21T12:36:23Z</time>
      </trkpt>
      <trkpt lat="48.01067" lon="-2.2828">
        <ele>108.99440112392</ele>
        <time>2019-04-21T12:36:29Z</time>
      </trkpt>
      <trkpt lat="48.0106" lon="-2.28286">
        <ele>107.99442671093</ele>
        <time>2019-04-21T12:36:35Z</time>
      </trkpt>
      <trkpt lat="48.01052" lon="-2.28289">
        <ele>105.99446729121</ele>
        <time>2019-04-21T12:36:41Z</time>
      </trkpt>
      <trkpt lat="48.01045" lon="-2.28293">
        <ele>105.9944957792</ele>
        <time>2019-04-21T12:36:47Z</time>
      </trkpt>
      <trkpt lat="48.01037" lon="-2.28299">
        <ele>104.99452643798</ele>
        <time>2019-04-21T12:36:54Z</time>
      </trkpt>
      <trkpt lat="48.01029" lon="-2.28303">
        <ele>104.99456392338</ele>
        <time>2019-04-21T12:37:02Z</time>
      </trkpt>
      <trkpt lat="48.01021" lon="-2.28308">
        <ele>104.99459703639</ele>
        <time>2019-04-21T12:37:09Z</time>
      </trkpt>
      <trkpt lat="48.01013" lon="-2.28313">
        <ele>103.99462979991</ele>
        <time>2019-04-21T12:37:16Z</time>
      </trkpt>
      <trkpt lat="48.01005" lon="-2.28319">
        <ele>102.99466366339</ele>
        <time>2019-04-21T12:37:23Z</time>
      </trkpt>
      <trkpt lat="48.00998" lon="-2.28323">
        <ele>101.99469547565</ele>
        <time>2019-04-21T12:37:29Z</time>
      </trkpt>
      <trkpt lat="48.00991" lon="-2.28329">
        <ele>101.99472293789</ele>
        <time>2019-04-21T12:37:36Z</time>
      </trkpt>
      <trkpt lat="48.00984" lon="-2.28334">
        <ele>101.99475347277</ele>
        <time>2019-04-21T12:37:42Z</time>
      </trkpt>
      <trkpt lat="48.00976" lon="-2.28341">
        <ele>100.99478214836</ele>
        <time>2019-04-21T12:37:49Z</time>
      </trkpt>
      <trkpt lat="48.00968" lon="-2.28347">
        <ele>100.99481431756</ele>
        <time>2019-04-21T12:37:56Z</time>
      </trkpt>
      <trkpt lat="48.00962" lon="-2.28353">
        <ele>100.9948402397</ele>
        <time>2019-04-21T12:38:02Z</time>
      </trkpt>
      <trkpt lat="48.00956" lon="-2.28362">
        <ele>100.99485862889</ele>
        <time>2019-04-21T12:38:08Z</time>
      </trkpt>
      <trkpt lat="48.00951" lon="-2.28373">
        <ele>100.99486707504</ele>
        <time>2019-04-21T12:38:16Z</time>
      </trkpt>
      <trkpt lat="48.00946" lon="-2.28383">
        <ele>100.9948819859</ele>
        <time>2019-04-21T12:38:22Z</time>
      </trkpt>
      <trkpt lat="48.00942" lon="-2.28392">
        <ele>100.99488856304</ele>
        <time>2019-04-21T12:38:28Z</time>
      </trkpt>
      <trkpt lat="48.00937" lon="-2.28403">
        <ele>100.99490163406</ele>
        <time>2019-04-21T12:38:35Z</time>
      </trkpt>
      <trkpt lat="48.00931" lon="-2.28414">
        <ele>101.99491283821</ele>
        <time>2019-04-21T12:38:42Z</time>
      </trkpt>
      <trkpt lat="48.00927" lon="-2.28424">
        <ele>101.99492242301</ele>
        <time>2019-04-21T12:38:49Z</time>
      </trkpt>
      <trkpt lat="48.00921" lon="-2.28434">
        <ele>100.99493974122</ele>
        <time>2019-04-21T12:38:56Z</time>
      </trkpt>
      <trkpt lat="48.00918" lon="-2.28445">
        <ele>100.99494183017</ele>
        <time>2019-04-21T12:39:02Z</time>
      </trkpt>
      <trkpt lat="48.00913" lon="-2.28456">
        <ele>101.99495294268</ele>
        <time>2019-04-21T12:39:09Z</time>
      </trkpt>
      <trkpt lat="48.00907" lon="-2.28466">
        <ele>101.99496976362</ele>
        <time>2019-04-21T12:39:16Z</time>
      </trkpt>
      <trkpt lat="48.00903" lon="-2.28476">
        <ele>101.99497797738</ele>
        <time>2019-04-21T12:39:23Z</time>
      </trkpt>
      <trkpt lat="48.00898" lon="-2.28487">
        <ele>100.99499009023</ele>
        <time>2019-04-21T12:39:30Z</time>
      </trkpt>
      <trkpt lat="48.00893" lon="-2.28498">
        <ele>100.99500184318</ele>
        <time>2019-04-21T12:39:37Z</time>
      </trkpt>
      <trkpt lat="48.00887" lon="-2.28505">
        <ele>99.995026730038</ele>
        <time>2019-04-21T12:39:44Z</time>
      </trkpt>
      <trkpt lat="48.0088" lon="-2.28513">
        <ele>99.995055978547</ele>
        <time>2019-04-21T12:39:50Z</time>
      </trkpt>
      <trkpt lat="48.00873" lon="-2.2852">
        <ele>99.995081276067</ele>
        <time>2019-04-21T12:39:57Z</time>
      </trkpt>
      <trkpt lat="48.00866" lon="-2.28525">
        <ele>97.995114497746</ele>
        <time>2019-04-21T12:40:03Z</time>
      </trkpt>
      <trkpt lat="48.00859" lon="-2.28529">
        <ele>92.995151482421</ele>
        <time>2019-04-21T12:40:09Z</time>
      </trkpt>
      <trkpt lat="48.0085" lon="-2.28531">
        <ele>93.995195832442</ele>
        <time>2019-04-21T12:40:16Z</time>
      </trkpt>
      <trkpt lat="48.00842" lon="-2.28532">
        <ele>93.995243761386</ele>
        <time>2019-04-21T12:40:23Z</time>
      </trkpt>
      <trkpt lat="48.00834" lon="-2.28534">
        <ele>95.995286016938</ele>
        <time>2019-04-21T12:40:29Z</time>
      </trkpt>
      <trkpt lat="48.00826" lon="-2.28537">
        <ele>94.995327856943</ele>
        <time>2019-04-21T12:40:36Z</time>
      </trkpt>
      <trkpt lat="48.00817" lon="-2.28539">
        <ele>93.995373829086</ele>
        <time>2019-04-21T12:40:43Z</time>
      </trkpt>
      <trkpt lat="48.0081" lon="-2.28544">
        <ele>91.995409377373</ele>
        <time>2019-04-21T12:40:49Z</time>
      </trkpt>
      <trkpt lat="48.00803" lon="-2.28551">
        <ele>91.995436681329</ele>
        <time>2019-04-21T12:40:55Z</time>
      </trkpt>
      <trkpt lat="48.00802" lon="-2.28564">
        <ele>92.995429499444</ele>
        <time>2019-04-21T12:41:03Z</time>
      </trkpt>
      <trkpt lat="48.00801" lon="-2.28577">
        <ele>91.995415851641</ele>
        <time>2019-04-21T12:41:10Z</time>
      </trkpt>
      <trkpt lat="48.00801" lon="-2.28589">
        <ele>93.995400105135</ele>
        <time>2019-04-21T12:41:17Z</time>
      </trkpt>
      <trkpt lat="48.008" lon="-2.28602">
        <ele>94.995392163671</ele>
        <time>2019-04-21T12:41:24Z</time>
      </trkpt>
      <trkpt lat="48.00798" lon="-2.28614">
        <ele>94.995387311427</ele>
        <time>2019-04-21T12:41:31Z</time>
      </trkpt>
      <trkpt lat="48.00791" lon="-2.28621">
        <ele>94.995418571797</ele>
        <time>2019-04-21T12:41:39Z</time>
      </trkpt>
      <trkpt lat="48.00786" lon="-2.28632">
        <ele>94.99543382889</ele>
        <time>2019-04-21T12:41:49Z</time>
      </trkpt>
      <trkpt lat="48.00788" lon="-2.28635">
        <ele>94.995419490965</ele>
        <time>2019-04-21T12:41:59Z</time>
      </trkpt>
      <trkpt lat="48.00788" lon="-2.28635">
        <ele>94.995419490965</ele>
        <time>2019-04-21T12:41:59Z</time>
      </trkpt>
    </trkseg>
  </trk>
</gpx>